Home > Products > Valid Products > TAF

000
FTUS45 KSLC 280323 AAE
TAFSLC
TAF AMD
KSLC 280323Z 2803/2906 04009KT P6SM FEW040 SCT070 BKN110
     FM280500 12007KT P6SM SCT050 BKN100
     FM281100 15007KT P6SM VCSH SCT040 BKN070
     FM281600 32007KT P6SM SCT060 BKN100=



000
FTUS45 KSLC 280323 AAE
TAFSLC
TAF AMD
KSLC 280323Z 2803/2906 04009KT P6SM FEW040 SCT070 BKN110
     FM280500 12007KT P6SM SCT050 BKN100
     FM281100 15007KT P6SM VCSH SCT040 BKN070
     FM281600 32007KT P6SM SCT060 BKN100=



000
FTUS45 KSLC 280323
TAFSLC
TAFSLC
TAF AMD
KSLC 280323Z 2803/2906 04009KT P6SM FEW040 SCT070 BKN110
     FM280500 12007KT P6SM SCT050 BKN100
     FM281100 15007KT P6SM VCSH SCT040 BKN070
     FM281600 32007KT P6SM SCT060 BKN100=



000
FTUS45 KSLC 280254
TAFSLC
TAFSLC
TAF AMD
KSLC 280254Z 2803/2906 36011KT P6SM VCSH SCT030 BKN050
     FM280400 12007KT P6SM SCT050 BKN100
     FM280800 15007KT P6SM VCSH SCT040 BKN070
     FM281600 32007KT P6SM SCT060 BKN100=



000
FTUS45 KSLC 280254 AAD
TAFSLC
TAF AMD
KSLC 280254Z 2803/2906 36011KT P6SM VCSH SCT030 BKN050
     FM280400 12007KT P6SM SCT050 BKN100
     FM280800 15007KT P6SM VCSH SCT040 BKN070
     FM281600 32007KT P6SM SCT060 BKN100=



000
FTUS45 KSLC 280254 AAD
TAFSLC
TAF AMD
KSLC 280254Z 2803/2906 36011KT P6SM VCSH SCT030 BKN050
     FM280400 12007KT P6SM SCT050 BKN100
     FM280800 15007KT P6SM VCSH SCT040 BKN070
     FM281600 32007KT P6SM SCT060 BKN100=



000
FTUS45 KSLC 280154 AAC
TAFSLC
TAF AMD
KSLC 280154Z 2802/2906 30011KT P6SM VCTS SCT035CB BKN050
     FM280202 29025G40KT 2SM -TSRAGR BKN025CB OVC050
     FM280300 08011KT P6SM VCSH SCT030 BKN050
     FM280400 15008KT P6SM SCT050 BKN100
     FM281600 32007KT P6SM SCT060 BKN100=



000
FTUS45 KSLC 280154
TAFSLC
TAFSLC
TAF AMD
KSLC 280154Z 2802/2906 30011KT P6SM VCTS SCT035CB BKN050
     FM280202 29025G40KT 2SM -TSRAGR BKN025CB OVC050
     FM280300 08011KT P6SM VCSH SCT030 BKN050
     FM280400 15008KT P6SM SCT050 BKN100
     FM281600 32007KT P6SM SCT060 BKN100=



000
FTUS45 KSLC 280154
TAFSLC
TAFSLC
TAF AMD
KSLC 280154Z 2802/2906 30011KT P6SM VCTS SCT035CB BKN050
     FM280202 29025G40KT 2SM -TSRAGR BKN025CB OVC050
     FM280300 08011KT P6SM VCSH SCT030 BKN050
     FM280400 15008KT P6SM SCT050 BKN100
     FM281600 32007KT P6SM SCT060 BKN100=



000
FTUS45 KSLC 280154 AAC
TAFSLC
TAF AMD
KSLC 280154Z 2802/2906 30011KT P6SM VCTS SCT035CB BKN050
     FM280202 29025G40KT 2SM -TSRAGR BKN025CB OVC050
     FM280300 08011KT P6SM VCSH SCT030 BKN050
     FM280400 15008KT P6SM SCT050 BKN100
     FM281600 32007KT P6SM SCT060 BKN100=



000
FTUS45 KSLC 280140
TAFOGD
TAFOGD
TAF AMD
KOGD 280140Z 2802/2824 28025G45KT 2SM -TSRAGR BKN025CB OVC050
     FM280300 14006KT P6SM VCSH SCT030 BKN050
     FM280700 17007KT P6SM SCT060 BKN100=



000
FTUS45 KSLC 280140 AAB
TAFOGD
TAF AMD
KOGD 280140Z 2802/2824 28025G45KT 2SM -TSRAGR BKN025CB OVC050
     FM280300 14006KT P6SM VCSH SCT030 BKN050
     FM280700 17007KT P6SM SCT060 BKN100=



000
FTUS45 KSLC 280140 AAB
TAFOGD
TAF AMD
KOGD 280140Z 2802/2824 28025G45KT 2SM -TSRAGR BKN025CB OVC050
     FM280300 14006KT P6SM VCSH SCT030 BKN050
     FM280700 17007KT P6SM SCT060 BKN100=



000
FTUS45 KSLC 280106 AAA
TAFLGU
TAF AMD
KLGU 280106Z 2801/2824 VRB05KT P6SM VCTS SCT050CB BKN080
      TEMPO 2801/2803 VRB15G25KT 5SM -TSRA BKN030CB OVC050
     FM281700 VRB04KT P6SM SCT070 BKN100=



000
FTUS45 KSLC 280106 AAA
TAFOGD
TAF AMD
KOGD 280106Z 2801/2824 27006KT P6SM VCTS SCT040CB BKN060
      TEMPO 2802/2804 VRB15G25KT 3SM -TSRA BKN030CB OVC050
     FM280400 14006KT P6SM VCSH SCT030 BKN050
     FM280700 17007KT P6SM SCT060 BKN100=



000
FTUS45 KSLC 280106 AAA
TAFOGD
TAF AMD
KOGD 280106Z 2801/2824 27006KT P6SM VCTS SCT040CB BKN060
      TEMPO 2802/2804 VRB15G25KT 3SM -TSRA BKN030CB OVC050
     FM280400 14006KT P6SM VCSH SCT030 BKN050
     FM280700 17007KT P6SM SCT060 BKN100=



000
FTUS45 KSLC 280106 AAA
TAFLGU
TAF AMD
KLGU 280106Z 2801/2824 VRB05KT P6SM VCTS SCT050CB BKN080
      TEMPO 2801/2803 VRB15G25KT 5SM -TSRA BKN030CB OVC050
     FM281700 VRB04KT P6SM SCT070 BKN100=



000
FTUS45 KSLC 280106 AAA
TAFSLC
TAF AMD
KSLC 280106Z 2801/2906 33006KT P6SM VCTS SCT040CB BKN060
      TEMPO 2802/2804 VRB15G25KT 3SM -TSRA BKN030CB OVC050
     FM280400 15005KT P6SM VCSH SCT030 BKN050
     FM280700 16008KT P6SM SCT050 BKN100
     FM281600 32007KT P6SM SCT060 BKN100=



000
FTUS45 KSLC 272340 CCA
TAFENV
TAF COR
KENV 272340Z 2800/2824 04011KT P6SM VCTS SCT060CB BKN090
     FM280100 27006KT P6SM SCT100
      AMD LTD TO CLD VIS AND WIND=



000
FTUS45 KSLC 272340 CCA
TAFENV
TAF COR
KENV 272340Z 2800/2824 04011KT P6SM VCTS SCT060CB BKN090
     FM280100 27006KT P6SM SCT100
      AMD LTD TO CLD VIS AND WIND=



000
FTUS45 KSLC 272340 CCA
TAFENV
TAF COR
KENV 272340Z 2800/2824 04011KT P6SM VCTS SCT060CB BKN090
     FM280100 27006KT P6SM SCT100
      AMD LTD TO CLD VIS AND WIND=



000
FTUS45 KSLC 272340
TAFENV
TAFENV
TAF COR
KENV 272340Z 2800/2824 04011KT P6SM VCTS SCT060CB BKN090
     FM280100 27006KT P6SM SCT100
      AMD LTD TO CLD VIS AND WIND=



000
FTUS45 KSLC 272332
TAFPVU
TAF
KPVU 272332Z 2800/2824 15009KT P6SM VCTS SCT040CB BKN070
     FM280500 15006KT P6SM VCSH BKN050 BKN070
     FM280800 14006KT P6SM SCT050 BKN100
      AMD LTD TO CLD VIS AND WIND=



000
FTUS45 KSLC 272332
TAFCDC
TAF
KCDC 272332Z 2800/2824 22014KT P6SM FEW110
     FM280100 19008KT P6SM SKC
     FM281900 21015G25KT P6SM SCT100=



000
FTUS45 KSLC 272332
TAFLGU
TAFLGU
TAF
KLGU 272332Z 2800/2824 VRB05KT P6SM VCSH SCT050 BKN080
     FM281700 VRB04KT P6SM SCT070 BKN100=



000
FTUS45 KSLC 272332
TAFLGU
TAF
KLGU 272332Z 2800/2824 VRB05KT P6SM VCSH SCT050 BKN080
     FM281700 VRB04KT P6SM SCT070 BKN100=



000
FTUS45 KSLC 272332
TAFSLC
TAFSLC
TAF
KSLC 272332Z 2800/2906 33006KT P6SM SCT070 BKN110
     FM280200 15005KT P6SM VCTS SCT050CB BKN070
     FM280300 17006KT P6SM VCSH SCT030 BKN050
     FM280700 16008KT P6SM SCT050 BKN100
     FM281600 32007KT P6SM SCT060 BKN100=



000
FTUS45 KSLC 272332
TAFLGU
TAF
KLGU 272332Z 2800/2824 VRB05KT P6SM VCSH SCT050 BKN080
     FM281700 VRB04KT P6SM SCT070 BKN100=



000
FTUS45 KSLC 272332
TAFENV
TAFENV
TAF
KENV 272332Z 2800/2824 28011KT P6SM VCTS SCT060CB BKN090
     FM280200 27006KT P6SM SCT100
      AMD LTD TO CLD VIS AND WIND=



000
FTUS45 KSLC 272332
TAFOGD
TAF
KOGD 272332Z 2800/2824 17006KT P6SM SCT040 BKN070
     FM280100 27006KT P6SM VCTS SCT040CB BKN070
     FM280500 15006KT P6SM VCSH SCT030 BKN050
     FM280700 17007KT P6SM SCT060 BKN100=



000
FTUS45 KSLC 272332
TAFSGU
TAFSGU
TAF
KSGU 272332Z 2800/2824 26011KT P6SM SKC
     FM280400 VRB05KT P6SM SKC
      AMD LTD TO CLD VIS AND WIND=



000
FTUS45 KSLC 272332
TAFOGD
TAF
KOGD 272332Z 2800/2824 17006KT P6SM SCT040 BKN070
     FM280100 27006KT P6SM VCTS SCT040CB BKN070
     FM280500 15006KT P6SM VCSH SCT030 BKN050
     FM280700 17007KT P6SM SCT060 BKN100=



000
FTUS45 KSLC 272332
TAFPVU
TAFPVU
TAF
KPVU 272332Z 2800/2824 15009KT P6SM VCTS SCT040CB BKN070
     FM280500 15006KT P6SM VCSH BKN050 BKN070
     FM280800 14006KT P6SM SCT050 BKN100
      AMD LTD TO CLD VIS AND WIND=



000
FTUS45 KSLC 272332
TAFENV
TAF
KENV 272332Z 2800/2824 28011KT P6SM VCTS SCT060CB BKN090
     FM280200 27006KT P6SM SCT100
      AMD LTD TO CLD VIS AND WIND=



000
FTUS45 KSLC 272332
TAFOGD
TAFOGD
TAF
KOGD 272332Z 2800/2824 17006KT P6SM SCT040 BKN070
     FM280100 27006KT P6SM VCTS SCT040CB BKN070
     FM280500 15006KT P6SM VCSH SCT030 BKN050
     FM280700 17007KT P6SM SCT060 BKN100=



000
FTUS45 KSLC 272332
TAFCDC
TAF
KCDC 272332Z 2800/2824 22014KT P6SM FEW110
     FM280100 19008KT P6SM SKC
     FM281900 21015G25KT P6SM SCT100=



000
FTUS45 KSLC 272332
TAFSGU
TAF
KSGU 272332Z 2800/2824 26011KT P6SM SKC
     FM280400 VRB05KT P6SM SKC
      AMD LTD TO CLD VIS AND WIND=



000
FTUS45 KSLC 272332
TAFSLC
TAF
KSLC 272332Z 2800/2906 33006KT P6SM SCT070 BKN110
     FM280200 15005KT P6SM VCTS SCT050CB BKN070
     FM280300 17006KT P6SM VCSH SCT030 BKN050
     FM280700 16008KT P6SM SCT050 BKN100
     FM281600 32007KT P6SM SCT060 BKN100=



000
FTUS45 KSLC 272332
TAFSGU
TAF
KSGU 272332Z 2800/2824 26011KT P6SM SKC
     FM280400 VRB05KT P6SM SKC
      AMD LTD TO CLD VIS AND WIND=



000
FTUS45 KSLC 272332
TAFENV
TAF
KENV 272332Z 2800/2824 28011KT P6SM VCTS SCT060CB BKN090
     FM280200 27006KT P6SM SCT100
      AMD LTD TO CLD VIS AND WIND=



000
FTUS45 KSLC 272332
TAFBCE
TAF
KBCE 272332Z 2800/2824 21011KT P6SM SCT090
     FM280200 27008KT P6SM SKC
     FM281500 14010KT P6SM SCT100=



000
FTUS45 KSLC 272332
TAFBCE
TAF
KBCE 272332Z 2800/2824 21011KT P6SM SCT090
     FM280200 27008KT P6SM SKC
     FM281500 14010KT P6SM SCT100=



000
FTUS45 KSLC 272332
TAFPVU
TAF
KPVU 272332Z 2800/2824 15009KT P6SM VCTS SCT040CB BKN070
     FM280500 15006KT P6SM VCSH BKN050 BKN070
     FM280800 14006KT P6SM SCT050 BKN100
      AMD LTD TO CLD VIS AND WIND=



000
FTUS45 KSLC 272332
TAFCDC
TAFCDC
TAF
KCDC 272332Z 2800/2824 22014KT P6SM FEW110
     FM280100 19008KT P6SM SKC
     FM281900 21015G25KT P6SM SCT100=



000
FTUS45 KSLC 272332
TAFBCE
TAFBCE
TAF
KBCE 272332Z 2800/2824 21011KT P6SM SCT090
     FM280200 27008KT P6SM SKC
     FM281500 14010KT P6SM SCT100=



000
FTUS45 KSLC 272332
TAFSLC
TAF
KSLC 272332Z 2800/2906 33006KT P6SM SCT070 BKN110
     FM280200 15005KT P6SM VCTS SCT050CB BKN070
     FM280300 17006KT P6SM VCSH SCT030 BKN050
     FM280700 16008KT P6SM SCT050 BKN100
     FM281600 32007KT P6SM SCT060 BKN100=



000
FTUS45 KSLC 272255
TAFENV
TAFENV
TAF AMD
KENV 272255Z 2723/2818 21010KT P6SM VCTS SCT050CB BKN090
      TEMPO 2723/2724 VRB18G28KT 6SM -TSRA BKN050CB
     FM280000 29011KT P6SM VCTS SCT040CB BKN060
     FM280400 27006KT P6SM SCT100
      AMD LTD TO CLD VIS AND WIND=



000
FTUS45 KSLC 272255 AAB
TAFENV
TAF AMD
KENV 272255Z 2723/2818 21010KT P6SM VCTS SCT050CB BKN090
      TEMPO 2723/2724 VRB18G28KT 6SM -TSRA BKN050CB
     FM280000 29011KT P6SM VCTS SCT040CB BKN060
     FM280400 27006KT P6SM SCT100
      AMD LTD TO CLD VIS AND WIND=



000
FTUS45 KSLC 272255 AAB
TAFENV
TAF AMD
KENV 272255Z 2723/2818 21010KT P6SM VCTS SCT050CB BKN090
      TEMPO 2723/2724 VRB18G28KT 6SM -TSRA BKN050CB
     FM280000 29011KT P6SM VCTS SCT040CB BKN060
     FM280400 27006KT P6SM SCT100
      AMD LTD TO CLD VIS AND WIND=



000
FTUS45 KSLC 272009 AAB
TAFBCE
TAF AMD
KBCE 272009Z 2720/2818 14011KT P6SM VCSH FEW040 BKN070
     FM272300 20011KT P6SM SCT080
     FM280300 27008KT P6SM FEW090=



000
FTUS45 KSLC 272009 AAA
TAFPVU
TAF AMD
KPVU 272009Z 2720/2818 15008KT P6SM VCTS SCT040CB BKN070
     FM280500 15006KT P6SM VCSH BKN050 BKN070
      AMD LTD TO CLD VIS AND WIND=



000
FTUS45 KSLC 272009 AAA
TAFPVU
TAF AMD
KPVU 272009Z 2720/2818 15008KT P6SM VCTS SCT040CB BKN070
     FM280500 15006KT P6SM VCSH BKN050 BKN070
      AMD LTD TO CLD VIS AND WIND=



000
FTUS45 KSLC 272009
TAFPVU
TAFPVU
TAF AMD
KPVU 272009Z 2720/2818 15008KT P6SM VCTS SCT040CB BKN070
     FM280500 15006KT P6SM VCSH BKN050 BKN070
      AMD LTD TO CLD VIS AND WIND=



000
FTUS45 KSLC 272009
TAFOGD
TAFOGD
TAF AMD
KOGD 272009Z 2720/2818 22008KT P6SM SCT040 BKN070
     FM280200 27006KT P6SM VCTS SCT040CB BKN070
     FM280500 15006KT P6SM VCSH SCT030 BKN050=



000
FTUS45 KSLC 272009
TAFENV
TAFENV
TAF AMD
KENV 272009Z 2720/2818 13008KT P6SM VCTS SCT050CB BKN090
     FM280300 27006KT P6SM SCT100
      AMD LTD TO CLD VIS AND WIND=



000
FTUS45 KSLC 272009
TAFBCE
TAFBCE
TAF AMD
KBCE 272009Z 2720/2818 14011KT P6SM VCSH FEW040 BKN070
     FM272300 20011KT P6SM SCT080
     FM280300 27008KT P6SM FEW090=



000
FTUS45 KSLC 272009 AAB
TAFBCE
TAF AMD
KBCE 272009Z 2720/2818 14011KT P6SM VCSH FEW040 BKN070
     FM272300 20011KT P6SM SCT080
     FM280300 27008KT P6SM FEW090=



000
FTUS45 KSLC 272009 AAA
TAFOGD
TAF AMD
KOGD 272009Z 2720/2818 22008KT P6SM SCT040 BKN070
     FM280200 27006KT P6SM VCTS SCT040CB BKN070
     FM280500 15006KT P6SM VCSH SCT030 BKN050=



000
FTUS45 KSLC 272009
TAFSLC
TAFSLC
TAF AMD
KSLC 272009Z 2720/2824 32006KT P6SM SCT070 BKN150
     FM280200 15005KT P6SM VCTS SCT050CB BKN070
     FM280500 17006KT P6SM VCSH SCT030 BKN050
     FM281600 32007KT P6SM SCT060 BKN100=



000
FTUS45 KSLC 272009 AAB
TAFSLC
TAF AMD
KSLC 272009Z 2720/2824 32006KT P6SM SCT070 BKN150
     FM280200 15005KT P6SM VCTS SCT050CB BKN070
     FM280500 17006KT P6SM VCSH SCT030 BKN050
     FM281600 32007KT P6SM SCT060 BKN100=



000
FTUS45 KSLC 272009 AAB
TAFSLC
TAF AMD
KSLC 272009Z 2720/2824 32006KT P6SM SCT070 BKN150
     FM280200 15005KT P6SM VCTS SCT050CB BKN070
     FM280500 17006KT P6SM VCSH SCT030 BKN050
     FM281600 32007KT P6SM SCT060 BKN100=



000
FTUS45 KSLC 272009 AAA
TAFENV
TAF AMD
KENV 272009Z 2720/2818 13008KT P6SM VCTS SCT050CB BKN090
     FM280300 27006KT P6SM SCT100
      AMD LTD TO CLD VIS AND WIND=



000
FTUS45 KSLC 272009 AAA
TAFOGD
TAF AMD
KOGD 272009Z 2720/2818 22008KT P6SM SCT040 BKN070
     FM280200 27006KT P6SM VCTS SCT040CB BKN070
     FM280500 15006KT P6SM VCSH SCT030 BKN050=



000
FTUS45 KSLC 272009 AAA
TAFENV
TAF AMD
KENV 272009Z 2720/2818 13008KT P6SM VCTS SCT050CB BKN090
     FM280300 27006KT P6SM SCT100
      AMD LTD TO CLD VIS AND WIND=



000
FTUS45 KSLC 271911
TAFBCE
TAFBCE
TAF AMD
KBCE 271911Z 2719/2818 17011KT P6SM VCSH FEW070 BKN100
     FM272000 20011KT P6SM SCT080
     FM280300 27008KT P6SM FEW090=



000
FTUS45 KSLC 271911 AAA
TAFBCE
TAF AMD
KBCE 271911Z 2719/2818 17011KT P6SM VCSH FEW070 BKN100
     FM272000 20011KT P6SM SCT080
     FM280300 27008KT P6SM FEW090=



000
FTUS45 KSLC 271911 AAA
TAFBCE
TAF AMD
KBCE 271911Z 2719/2818 17011KT P6SM VCSH FEW070 BKN100
     FM272000 20011KT P6SM SCT080
     FM280300 27008KT P6SM FEW090=



000
FTUS45 KSLC 271723
TAFLGU
TAF
KLGU 271723Z 2718/2818 VRB05KT P6SM VCSH SCT050 BKN080
     FM280300 VRB04KT P6SM SCT070 BKN100=



000
FTUS45 KSLC 271723
TAFPVU
TAF
KPVU 271723Z 2718/2818 16005KT P6SM VCSH BKN070 BKN100
     FM280500 15006KT P6SM VCSH BKN050 BKN070
      AMD LTD TO CLD VIS AND WIND=



000
FTUS45 KSLC 271723
TAFOGD
TAF
KOGD 271723Z 2718/2818 12008KT P6SM SCT070 BKN140
     FM272100 27006KT P6SM VCTS SCT040CB BKN070
     FM280300 15006KT P6SM SCT070 BKN090=



000
FTUS45 KSLC 271723
TAFENV
TAF
KENV 271723Z 2718/2818 11009KT P6SM SCT070 BKN150
     FM272000 13008KT P6SM VCSH SCT050 BKN090
     FM280300 27006KT P6SM SCT100
      AMD LTD TO CLD VIS AND WIND=



000
FTUS45 KSLC 271723
TAFSLC
TAF
KSLC 271723Z 2718/2824 33006KT P6SM VCSH SCT050 BKN070
     FM271900 32006KT P6SM SCT070 BKN150
     FM272100 30006KT P6SM VCTS SCT040CB BKN070
     FM280200 15005KT P6SM SCT070 BKN090
     FM280500 17006KT P6SM VCSH SCT040 BKN060
     FM281600 32007KT P6SM SCT060 BKN100=



000
FTUS45 KSLC 271723
TAFCDC
TAF
KCDC 271723Z 2718/2818 21008KT P6SM FEW110
     FM271900 22011G18KT P6SM FEW110
     FM280100 18006KT P6SM FEW100=



000
FTUS45 KSLC 271723
TAFBCE
TAF
KBCE 271723Z 2718/2818 14007KT P6SM FEW090
     FM272000 20011KT P6SM SCT090
     FM280300 27008KT P6SM FEW090=



000
FTUS45 KSLC 271723
TAFSGU
TAF
KSGU 271723Z 2718/2818 VRB04KT P6SM FEW120
     FM272100 24010G18KT P6SM FEW120
     FM280100 24007KT P6SM SKC
      AMD LTD TO CLD VIS AND WIND=



000
FTUS45 KSLC 271723
TAFSGU
TAF
KSGU 271723Z 2718/2818 VRB04KT P6SM FEW120
     FM272100 24010G18KT P6SM FEW120
     FM280100 24007KT P6SM SKC
      AMD LTD TO CLD VIS AND WIND=



000
FTUS45 KSLC 271723
TAFLGU
TAF
KLGU 271723Z 2718/2818 VRB05KT P6SM VCSH SCT050 BKN080
     FM280300 VRB04KT P6SM SCT070 BKN100=



000
FTUS45 KSLC 271723
TAFBCE
TAF
KBCE 271723Z 2718/2818 14007KT P6SM FEW090
     FM272000 20011KT P6SM SCT090
     FM280300 27008KT P6SM FEW090=



000
FTUS45 KSLC 271723
TAFCDC
TAF
KCDC 271723Z 2718/2818 21008KT P6SM FEW110
     FM271900 22011G18KT P6SM FEW110
     FM280100 18006KT P6SM FEW100=



000
FTUS45 KSLC 271723
TAFPVU
TAF
KPVU 271723Z 2718/2818 16005KT P6SM VCSH BKN070 BKN100
     FM280500 15006KT P6SM VCSH BKN050 BKN070
      AMD LTD TO CLD VIS AND WIND=



000
FTUS45 KSLC 271723
TAFENV
TAF
KENV 271723Z 2718/2818 11009KT P6SM SCT070 BKN150
     FM272000 13008KT P6SM VCSH SCT050 BKN090
     FM280300 27006KT P6SM SCT100
      AMD LTD TO CLD VIS AND WIND=



000
FTUS45 KSLC 271723
TAFOGD
TAF
KOGD 271723Z 2718/2818 12008KT P6SM SCT070 BKN140
     FM272100 27006KT P6SM VCTS SCT040CB BKN070
     FM280300 15006KT P6SM SCT070 BKN090=



000
FTUS45 KSLC 271723
TAFSLC
TAF
KSLC 271723Z 2718/2824 33006KT P6SM VCSH SCT050 BKN070
     FM271900 32006KT P6SM SCT070 BKN150
     FM272100 30006KT P6SM VCTS SCT040CB BKN070
     FM280200 15005KT P6SM SCT070 BKN090
     FM280500 17006KT P6SM VCSH SCT040 BKN060
     FM281600 32007KT P6SM SCT060 BKN100=



000
FTUS45 KSLC 271723
TAFSLC
TAF
KSLC 271723Z 2718/2824 33006KT P6SM VCSH SCT050 BKN070
     FM271900 32006KT P6SM SCT070 BKN150
     FM272100 30006KT P6SM VCTS SCT040CB BKN070
     FM280200 15005KT P6SM SCT070 BKN090
     FM280500 17006KT P6SM VCSH SCT040 BKN060
     FM281600 32007KT P6SM SCT060 BKN100=



000
FTUS45 KSLC 271723
TAFCDC
TAF
KCDC 271723Z 2718/2818 21008KT P6SM FEW110
     FM271900 22011G18KT P6SM FEW110
     FM280100 18006KT P6SM FEW100=



000
FTUS45 KSLC 271723
TAFOGD
TAF
KOGD 271723Z 2718/2818 12008KT P6SM SCT070 BKN140
     FM272100 27006KT P6SM VCTS SCT040CB BKN070
     FM280300 15006KT P6SM SCT070 BKN090=



000
FTUS45 KSLC 271723
TAFLGU
TAF
KLGU 271723Z 2718/2818 VRB05KT P6SM VCSH SCT050 BKN080
     FM280300 VRB04KT P6SM SCT070 BKN100=



000
FTUS45 KSLC 271723
TAFSGU
TAF
KSGU 271723Z 2718/2818 VRB04KT P6SM FEW120
     FM272100 24010G18KT P6SM FEW120
     FM280100 24007KT P6SM SKC
      AMD LTD TO CLD VIS AND WIND=



000
FTUS45 KSLC 271723
TAFENV
TAF
KENV 271723Z 2718/2818 11009KT P6SM SCT070 BKN150
     FM272000 13008KT P6SM VCSH SCT050 BKN090
     FM280300 27006KT P6SM SCT100
      AMD LTD TO CLD VIS AND WIND=



000
FTUS45 KSLC 271723
TAFPVU
TAF
KPVU 271723Z 2718/2818 16005KT P6SM VCSH BKN070 BKN100
     FM280500 15006KT P6SM VCSH BKN050 BKN070
      AMD LTD TO CLD VIS AND WIND=



000
FTUS45 KSLC 271723
TAFBCE
TAF
KBCE 271723Z 2718/2818 14007KT P6SM FEW090
     FM272000 20011KT P6SM SCT090
     FM280300 27008KT P6SM FEW090=



000
FTUS45 KSLC 271723
TAFPVU
TAFPVU
TAF
KPVU 271723Z 2718/2818 16005KT P6SM VCSH BKN070 BKN100
     FM280500 15006KT P6SM VCSH BKN050 BKN070
      AMD LTD TO CLD VIS AND WIND=



000
FTUS45 KSLC 271723
TAFSGU
TAFSGU
TAF
KSGU 271723Z 2718/2818 VRB04KT P6SM FEW120
     FM272100 24010G18KT P6SM FEW120
     FM280100 24007KT P6SM SKC
      AMD LTD TO CLD VIS AND WIND=



000
FTUS45 KSLC 271723
TAFCDC
TAFCDC
TAF
KCDC 271723Z 2718/2818 21008KT P6SM FEW110
     FM271900 22011G18KT P6SM FEW110
     FM280100 18006KT P6SM FEW100=



000
FTUS45 KSLC 271723
TAFBCE
TAFBCE
TAF
KBCE 271723Z 2718/2818 14007KT P6SM FEW090
     FM272000 20011KT P6SM SCT090
     FM280300 27008KT P6SM FEW090=



000
FTUS45 KSLC 271723
TAFLGU
TAFLGU
TAF
KLGU 271723Z 2718/2818 VRB05KT P6SM VCSH SCT050 BKN080
     FM280300 VRB04KT P6SM SCT070 BKN100=



000
FTUS45 KSLC 271723
TAFOGD
TAFOGD
TAF
KOGD 271723Z 2718/2818 12008KT P6SM SCT070 BKN140
     FM272100 27006KT P6SM VCTS SCT040CB BKN070
     FM280300 15006KT P6SM SCT070 BKN090=



000
FTUS45 KSLC 271723
TAFENV
TAFENV
TAF
KENV 271723Z 2718/2818 11009KT P6SM SCT070 BKN150
     FM272000 13008KT P6SM VCSH SCT050 BKN090
     FM280300 27006KT P6SM SCT100
      AMD LTD TO CLD VIS AND WIND=



000
FTUS45 KSLC 271723
TAFLGU
TAF
KLGU 271723Z 2718/2818 VRB05KT P6SM VCSH SCT050 BKN080
     FM280300 VRB04KT P6SM SCT070 BKN100=



000
FTUS45 KSLC 271723
TAFSGU
TAF
KSGU 271723Z 2718/2818 VRB04KT P6SM FEW120
     FM272100 24010G18KT P6SM FEW120
     FM280100 24007KT P6SM SKC
      AMD LTD TO CLD VIS AND WIND=



000
FTUS45 KSLC 271723
TAFBCE
TAF
KBCE 271723Z 2718/2818 14007KT P6SM FEW090
     FM272000 20011KT P6SM SCT090
     FM280300 27008KT P6SM FEW090=



000
FTUS45 KSLC 271723
TAFCDC
TAF
KCDC 271723Z 2718/2818 21008KT P6SM FEW110
     FM271900 22011G18KT P6SM FEW110
     FM280100 18006KT P6SM FEW100=



000
FTUS45 KSLC 271723
TAFOGD
TAF
KOGD 271723Z 2718/2818 12008KT P6SM SCT070 BKN140
     FM272100 27006KT P6SM VCTS SCT040CB BKN070
     FM280300 15006KT P6SM SCT070 BKN090=



000
FTUS45 KSLC 271723
TAFENV
TAF
KENV 271723Z 2718/2818 11009KT P6SM SCT070 BKN150
     FM272000 13008KT P6SM VCSH SCT050 BKN090
     FM280300 27006KT P6SM SCT100
      AMD LTD TO CLD VIS AND WIND=



000
FTUS45 KSLC 271723
TAFPVU
TAF
KPVU 271723Z 2718/2818 16005KT P6SM VCSH BKN070 BKN100
     FM280500 15006KT P6SM VCSH BKN050 BKN070
      AMD LTD TO CLD VIS AND WIND=



000
FTUS45 KSLC 271723
TAFSLC
TAFSLC
TAF
KSLC 271723Z 2718/2824 33006KT P6SM VCSH SCT050 BKN070
     FM271900 32006KT P6SM SCT070 BKN150
     FM272100 30006KT P6SM VCTS SCT040CB BKN070
     FM280200 15005KT P6SM SCT070 BKN090
     FM280500 17006KT P6SM VCSH SCT040 BKN060
     FM281600 32007KT P6SM SCT060 BKN100=



000
FTUS45 KSLC 271723
TAFSLC
TAF
KSLC 271723Z 2718/2824 33006KT P6SM VCSH SCT050 BKN070
     FM271900 32006KT P6SM SCT070 BKN150
     FM272100 30006KT P6SM VCTS SCT040CB BKN070
     FM280200 15005KT P6SM SCT070 BKN090
     FM280500 17006KT P6SM VCSH SCT040 BKN060
     FM281600 32007KT P6SM SCT060 BKN100=



000
FTUS45 KSLC 271639 AAB
TAFOGD
TAF AMD
KOGD 271639Z 2717/2812 12009KT 3SM RA SCT035 BKN050
     FM271701 20008KT P6SM VCSH BKN070 BKN090
     FM280300 15006KT P6SM SCT070 BKN090=



000
FTUS45 KSLC 271639
TAFOGD
TAFOGD
TAF AMD
KOGD 271639Z 2717/2812 12009KT 3SM RA SCT035 BKN050
     FM271701 20008KT P6SM VCSH BKN070 BKN090
     FM280300 15006KT P6SM SCT070 BKN090=



000
FTUS45 KSLC 271639 AAB
TAFOGD
TAF AMD
KOGD 271639Z 2717/2812 12009KT 3SM RA SCT035 BKN050
     FM271701 20008KT P6SM VCSH BKN070 BKN090
     FM280300 15006KT P6SM SCT070 BKN090=



000
FTUS45 KSLC 271628
TAFSLC
TAFSLC
TAF AMD
KSLC 271628Z 2716/2818 29011KT P6SM VCSH SCT040 BKN060
     FM271900 30006KT P6SM SCT060 BKN150
     FM272100 30006KT P6SM VCTS SCT040CB BKN070
     FM280300 15005KT P6SM SCT070 BKN090=



000
FTUS45 KSLC 271628 AAD
TAFSLC
TAF AMD
KSLC 271628Z 2716/2818 29011KT P6SM VCSH SCT040 BKN060
     FM271900 30006KT P6SM SCT060 BKN150
     FM272100 30006KT P6SM VCTS SCT040CB BKN070
     FM280300 15005KT P6SM SCT070 BKN090=



000
FTUS45 KSLC 271628 AAD
TAFSLC
TAF AMD
KSLC 271628Z 2716/2818 29011KT P6SM VCSH SCT040 BKN060
     FM271900 30006KT P6SM SCT060 BKN150
     FM272100 30006KT P6SM VCTS SCT040CB BKN070
     FM280300 15005KT P6SM SCT070 BKN090=



000
FTUS45 KSLC 271628 AAD
TAFSLC
TAF AMD
KSLC 271628Z 2716/2818 29011KT P6SM VCSH SCT040 BKN060
     FM271900 30006KT P6SM SCT060 BKN150
     FM272100 30006KT P6SM VCTS SCT040CB BKN070
     FM280300 15005KT P6SM SCT070 BKN090=



000
FTUS45 KSLC 271547 AAC
TAFLGU
TAF AMD
KLGU 271547Z 2716/2812 VRB05KT P6SM -SHRA VCTS FEW030CB BKN050
      TEMPO 2716/2717 27015G25KT 5SM RA SCT025 OVC035
     FM271700 VRB05KT P6SM VCSH BKN050 BKN080
     FM272300 VRB04KT P6SM SCT070 BKN090=



000
FTUS45 KSLC 271547
TAFLGU
TAFLGU
TAF AMD
KLGU 271547Z 2716/2812 VRB05KT P6SM -SHRA VCTS FEW030CB BKN050
      TEMPO 2716/2717 27015G25KT 5SM RA SCT025 OVC035
     FM271700 VRB05KT P6SM VCSH BKN050 BKN080
     FM272300 VRB04KT P6SM SCT070 BKN090=



000
FTUS45 KSLC 271547 AAC
TAFLGU
TAF AMD
KLGU 271547Z 2716/2812 VRB05KT P6SM -SHRA VCTS FEW030CB BKN050
      TEMPO 2716/2717 27015G25KT 5SM RA SCT025 OVC035
     FM271700 VRB05KT P6SM VCSH BKN050 BKN080
     FM272300 VRB04KT P6SM SCT070 BKN090=



000
FTUS45 KSLC 271547 AAC
TAFLGU
TAF AMD
KLGU 271547Z 2716/2812 VRB05KT P6SM -SHRA VCTS FEW030CB BKN050
      TEMPO 2716/2717 27015G25KT 5SM RA SCT025 OVC035
     FM271700 VRB05KT P6SM VCSH BKN050 BKN080
     FM272300 VRB04KT P6SM SCT070 BKN090=



000
FTUS45 KSLC 271547 AAC
TAFLGU
TAF AMD
KLGU 271547Z 2716/2812 VRB05KT P6SM -SHRA VCTS FEW030CB BKN050
      TEMPO 2716/2717 27015G25KT 5SM RA SCT025 OVC035
     FM271700 VRB05KT P6SM VCSH BKN050 BKN080
     FM272300 VRB04KT P6SM SCT070 BKN090=



000
FTUS45 KSLC 271509
TAFSLC
TAFSLC
TAF AMD
KSLC 271509Z 2715/2818 29005KT P6SM VCSH BKN070 BKN100
     FM271600 29009KT P6SM -RA VCTS SCT040CB BKN060
      TEMPO 2716/2717 27016G25KT 4SM -RA BKN040
     FM271800 30006KT P6SM VCSH BKN070
     FM280300 15005KT P6SM SCT070 BKN090=



000
FTUS45 KSLC 271509 AAC
TAFSLC
TAF AMD
KSLC 271509Z 2715/2818 29005KT P6SM VCSH BKN070 BKN100
     FM271600 29009KT P6SM -RA VCTS SCT040CB BKN060
      TEMPO 2716/2717 27016G25KT 4SM -RA BKN040
     FM271800 30006KT P6SM VCSH BKN070
     FM280300 15005KT P6SM SCT070 BKN090=



000
FTUS45 KSLC 271509 AAC
TAFSLC
TAF AMD
KSLC 271509Z 2715/2818 29005KT P6SM VCSH BKN070 BKN100
     FM271600 29009KT P6SM -RA VCTS SCT040CB BKN060
      TEMPO 2716/2717 27016G25KT 4SM -RA BKN040
     FM271800 30006KT P6SM VCSH BKN070
     FM280300 15005KT P6SM SCT070 BKN090=



000
FTUS45 KSLC 271434 AAB
TAFSLC
TAF AMD
KSLC 271434Z 2715/2818 16008KT P6SM VCSH BKN070 BKN100
     FM271600 29009KT P6SM -RA VCTS SCT040CB BKN060
      TEMPO 2716/2717 27016G25KT 4SM -RA BKN040
     FM271800 30006KT P6SM VCSH BKN070
     FM280300 15005KT P6SM SCT070 BKN090=



000
FTUS45 KSLC 271434
TAFSLC
TAFSLC
TAF AMD
KSLC 271434Z 2715/2818 16008KT P6SM VCSH BKN070 BKN100
     FM271600 29009KT P6SM -RA VCTS SCT040CB BKN060
      TEMPO 2716/2717 27016G25KT 4SM -RA BKN040
     FM271800 30006KT P6SM VCSH BKN070
     FM280300 15005KT P6SM SCT070 BKN090=



000
FTUS45 KSLC 271434 AAB
TAFSLC
TAF AMD
KSLC 271434Z 2715/2818 16008KT P6SM VCSH BKN070 BKN100
     FM271600 29009KT P6SM -RA VCTS SCT040CB BKN060
      TEMPO 2716/2717 27016G25KT 4SM -RA BKN040
     FM271800 30006KT P6SM VCSH BKN070
     FM280300 15005KT P6SM SCT070 BKN090=



000
FTUS45 KSLC 271434 AAB
TAFSLC
TAF AMD
KSLC 271434Z 2715/2818 16008KT P6SM VCSH BKN070 BKN100
     FM271600 29009KT P6SM -RA VCTS SCT040CB BKN060
      TEMPO 2716/2717 27016G25KT 4SM -RA BKN040
     FM271800 30006KT P6SM VCSH BKN070
     FM280300 15005KT P6SM SCT070 BKN090=



000
FTUS45 KSLC 271434
TAFENV
TAFENV
TAF AMD
KENV 271434Z 2715/2812 11009KT P6SM VCSH BKN070 BKN100
     FM280300 27006KT P6SM SCT070 BKN100
      AMD LTD TO CLD VIS AND WIND=



000
FTUS45 KSLC 271434 AAB
TAFSLC
TAF AMD
KSLC 271434Z 2715/2818 16008KT P6SM VCSH BKN070 BKN100
     FM271600 29009KT P6SM -RA VCTS SCT040CB BKN060
      TEMPO 2716/2717 27016G25KT 4SM -RA BKN040
     FM271800 30006KT P6SM VCSH BKN070
     FM280300 15005KT P6SM SCT070 BKN090=



000
FTUS45 KSLC 271434 AAB
TAFENV
TAF AMD
KENV 271434Z 2715/2812 11009KT P6SM VCSH BKN070 BKN100
     FM280300 27006KT P6SM SCT070 BKN100
      AMD LTD TO CLD VIS AND WIND=



000
FTUS45 KSLC 271434
TAFENV
TAFENV
TAF AMD
KENV 271434Z 2715/2812 11009KT P6SM VCSH BKN070 BKN100
     FM280300 27006KT P6SM SCT070 BKN100
      AMD LTD TO CLD VIS AND WIND=



000
FTUS45 KSLC 271434 AAB
TAFENV
TAF AMD
KENV 271434Z 2715/2812 11009KT P6SM VCSH BKN070 BKN100
     FM280300 27006KT P6SM SCT070 BKN100
      AMD LTD TO CLD VIS AND WIND=



000
FTUS45 KSLC 271434 AAB
TAFENV
TAF AMD
KENV 271434Z 2715/2812 11009KT P6SM VCSH BKN070 BKN100
     FM280300 27006KT P6SM SCT070 BKN100
      AMD LTD TO CLD VIS AND WIND=



000
FTUS45 KSLC 271432
TAFOGD
TAFOGD
TAF AMD
KOGD 271432Z 2715/2812 16006KT P6SM SCT070 BKN090
     FM271600 27009KT 6SM -RA VCTS SCT040CB BKN060
      TEMPO 2716/2717 27018G27KT 4SM -RA BKN040
     FM271800 20008KT P6SM VCSH BKN070 BKN090
     FM280300 15006KT P6SM SCT070 BKN090=



000
FTUS45 KSLC 271432 AAA
TAFOGD
TAF AMD
KOGD 271432Z 2715/2812 16006KT P6SM SCT070 BKN090
     FM271600 27009KT 6SM -RA VCTS SCT040CB BKN060
      TEMPO 2716/2717 27018G27KT 4SM -RA BKN040
     FM271800 20008KT P6SM VCSH BKN070 BKN090
     FM280300 15006KT P6SM SCT070 BKN090=



000
FTUS45 KSLC 271432 AAA
TAFOGD
TAF AMD
KOGD 271432Z 2715/2812 16006KT P6SM SCT070 BKN090
     FM271600 27009KT 6SM -RA VCTS SCT040CB BKN060
      TEMPO 2716/2717 27018G27KT 4SM -RA BKN040
     FM271800 20008KT P6SM VCSH BKN070 BKN090
     FM280300 15006KT P6SM SCT070 BKN090=



000
FTUS45 KSLC 271432
TAFOGD
TAFOGD
TAF AMD
KOGD 271432Z 2715/2812 16006KT P6SM SCT070 BKN090
     FM271600 27009KT 6SM -RA VCTS SCT040CB BKN060
      TEMPO 2716/2717 27018G27KT 4SM -RA BKN040
     FM271800 20008KT P6SM VCSH BKN070 BKN090
     FM280300 15006KT P6SM SCT070 BKN090=



000
FTUS45 KSLC 271432 AAA
TAFOGD
TAF AMD
KOGD 271432Z 2715/2812 16006KT P6SM SCT070 BKN090
     FM271600 27009KT 6SM -RA VCTS SCT040CB BKN060
      TEMPO 2716/2717 27018G27KT 4SM -RA BKN040
     FM271800 20008KT P6SM VCSH BKN070 BKN090
     FM280300 15006KT P6SM SCT070 BKN090=



000
FTUS45 KSLC 271429 AAB
TAFLGU
TAF AMD
KLGU 271429Z 2714/2812 VRB04KT 3SM BR FEW001 SCT080 BKN140
      TEMPO 2714/2715 1/4SM FG BKN001
     FM271600 VRB05KT P6SM -SHRA VCTS FEW030CB BKN050
      TEMPO 2716/2717 27015G25KT
     FM271700 VRB05KT P6SM VCSH BKN050 BKN080
     FM272300 VRB04KT P6SM SCT070 BKN090=



000
FTUS45 KSLC 271429 AAB
TAFLGU
TAF AMD
KLGU 271429Z 2714/2812 VRB04KT 3SM BR FEW001 SCT080 BKN140
      TEMPO 2714/2715 1/4SM FG BKN001
     FM271600 VRB05KT P6SM -SHRA VCTS FEW030CB BKN050
      TEMPO 2716/2717 27015G25KT
     FM271700 VRB05KT P6SM VCSH BKN050 BKN080
     FM272300 VRB04KT P6SM SCT070 BKN090=



000
FTUS45 KSLC 271429
TAFLGU
TAFLGU
TAF AMD
KLGU 271429Z 2714/2812 VRB04KT 3SM BR FEW001 SCT080 BKN140
      TEMPO 2714/2715 1/4SM FG BKN001
     FM271600 VRB05KT P6SM -SHRA VCTS FEW030CB BKN050
      TEMPO 2716/2717 27015G25KT
     FM271700 VRB05KT P6SM VCSH BKN050 BKN080
     FM272300 VRB04KT P6SM SCT070 BKN090=



000
FTUS45 KSLC 271206 AAA
TAFENV
TAF AMD
KENV 271206Z 2712/2812 35012G20KT P6SM SHRA SCT030 BKN050
     FM271500 02007KT P6SM VCSH SCT080
     FM272100 11009KT P6SM VCSH BKN070 BKN100
     FM280300 27006KT P6SM SCT070 BKN100
      AMD LTD TO CLD VIS AND WIND=



000
FTUS45 KSLC 271206 AAA
TAFENV
TAF AMD
KENV 271206Z 2712/2812 35012G20KT P6SM SHRA SCT030 BKN050
     FM271500 02007KT P6SM VCSH SCT080
     FM272100 11009KT P6SM VCSH BKN070 BKN100
     FM280300 27006KT P6SM SCT070 BKN100
      AMD LTD TO CLD VIS AND WIND=



000
FTUS45 KSLC 271206 AAA
TAFENV
TAF AMD
KENV 271206Z 2712/2812 35012G20KT P6SM SHRA SCT030 BKN050
     FM271500 02007KT P6SM VCSH SCT080
     FM272100 11009KT P6SM VCSH BKN070 BKN100
     FM280300 27006KT P6SM SCT070 BKN100
      AMD LTD TO CLD VIS AND WIND=



000
FTUS45 KSLC 271206
TAFENV
TAFENV
TAF AMD
KENV 271206Z 2712/2812 35012G20KT P6SM SHRA SCT030 BKN050
     FM271500 02007KT P6SM VCSH SCT080
     FM272100 11009KT P6SM VCSH BKN070 BKN100
     FM280300 27006KT P6SM SCT070 BKN100
      AMD LTD TO CLD VIS AND WIND=



000
FTUS45 KSLC 271206
TAFENV
TAFENV
TAF AMD
KENV 271206Z 2712/2812 35012G20KT P6SM SHRA SCT030 BKN050
     FM271500 02007KT P6SM VCSH SCT080
     FM272100 11009KT P6SM VCSH BKN070 BKN100
     FM280300 27006KT P6SM SCT070 BKN100
      AMD LTD TO CLD VIS AND WIND=



000
FTUS45 KSLC 271206 AAA
TAFENV
TAF AMD
KENV 271206Z 2712/2812 35012G20KT P6SM SHRA SCT030 BKN050
     FM271500 02007KT P6SM VCSH SCT080
     FM272100 11009KT P6SM VCSH BKN070 BKN100
     FM280300 27006KT P6SM SCT070 BKN100
      AMD LTD TO CLD VIS AND WIND=



000
FTUS45 KSLC 271204 AAA
TAFLGU
TAF AMD
KLGU 271204Z 2712/2812 VRB04KT 3SM BR FEW001 SCT080 BKN140
      TEMPO 2712/2714 1/4SM FG BKN001
     FM271500 VRB05KT P6SM -SHRA FEW030 BKN050
     FM271700 VRB05KT P6SM VCSH BKN050 BKN080
     FM272300 VRB04KT P6SM SCT070 BKN090=



000
FTUS45 KSLC 271204 AAA
TAFLGU
TAF AMD
KLGU 271204Z 2712/2812 VRB04KT 3SM BR FEW001 SCT080 BKN140
      TEMPO 2712/2714 1/4SM FG BKN001
     FM271500 VRB05KT P6SM -SHRA FEW030 BKN050
     FM271700 VRB05KT P6SM VCSH BKN050 BKN080
     FM272300 VRB04KT P6SM SCT070 BKN090=



000
FTUS45 KSLC 271204 AAA
TAFLGU
TAF AMD
KLGU 271204Z 2712/2812 VRB04KT 3SM BR FEW001 SCT080 BKN140
      TEMPO 2712/2714 1/4SM FG BKN001
     FM271500 VRB05KT P6SM -SHRA FEW030 BKN050
     FM271700 VRB05KT P6SM VCSH BKN050 BKN080
     FM272300 VRB04KT P6SM SCT070 BKN090=



000
FTUS45 KSLC 271204 AAA
TAFLGU
TAF AMD
KLGU 271204Z 2712/2812 VRB04KT 3SM BR FEW001 SCT080 BKN140
      TEMPO 2712/2714 1/4SM FG BKN001
     FM271500 VRB05KT P6SM -SHRA FEW030 BKN050
     FM271700 VRB05KT P6SM VCSH BKN050 BKN080
     FM272300 VRB04KT P6SM SCT070 BKN090=



000
FTUS45 KSLC 271204
TAFLGU
TAFLGU
TAF AMD
KLGU 271204Z 2712/2812 VRB04KT 3SM BR FEW001 SCT080 BKN140
      TEMPO 2712/2714 1/4SM FG BKN001
     FM271500 VRB05KT P6SM -SHRA FEW030 BKN050
     FM271700 VRB05KT P6SM VCSH BKN050 BKN080
     FM272300 VRB04KT P6SM SCT070 BKN090=



000
FTUS45 KSLC 271204
TAFLGU
TAFLGU
TAF AMD
KLGU 271204Z 2712/2812 VRB04KT 3SM BR FEW001 SCT080 BKN140
      TEMPO 2712/2714 1/4SM FG BKN001
     FM271500 VRB05KT P6SM -SHRA FEW030 BKN050
     FM271700 VRB05KT P6SM VCSH BKN050 BKN080
     FM272300 VRB04KT P6SM SCT070 BKN090=



000
FTUS45 KSLC 271120
TAFLGU
TAF
KLGU 271120Z 2712/2812 16004KT P6SM SCT080 BKN140
      TEMPO 2714/2716 6SM -RA FEW030 BKN050
     FM271600 VRB05KT P6SM VCSH BKN050 BKN080
     FM272300 VRB04KT P6SM SCT070 BKN090=



000
FTUS45 KSLC 271120
TAFENV
TAFENV
TAF
KENV 271120Z 2712/2812 02005KT P6SM VCSH SCT080 BKN110
      TEMPO 2712/2714 27010KT 6SM -RA FEW030 BKN050
     FM272100 11009KT P6SM VCSH BKN070 BKN100
     FM280300 27006KT P6SM SCT070 BKN100
      AMD LTD TO CLD VIS AND WIND=



000
FTUS45 KSLC 271120
TAFLGU
TAFLGU
TAF
KLGU 271120Z 2712/2812 16004KT P6SM SCT080 BKN140
      TEMPO 2714/2716 6SM -RA FEW030 BKN050
     FM271600 VRB05KT P6SM VCSH BKN050 BKN080
     FM272300 VRB04KT P6SM SCT070 BKN090=



000
FTUS45 KSLC 271120
TAFPVU
TAFPVU
TAF
KPVU 271120Z 2712/2812 VRB04KT P6SM BKN100
     FM271500 16005KT P6SM VCSH BKN070 BKN100
     FM272100 28006KT P6SM VCSH SCT070 BKN090
     FM272300 29010KT P6SM -SHRA BKN070
      AMD LTD TO CLD VIS AND WIND=



000
FTUS45 KSLC 271120
TAFLGU
TAFLGU
TAF
KLGU 271120Z 2712/2812 16004KT P6SM SCT080 BKN140
      TEMPO 2714/2716 6SM -RA FEW030 BKN050
     FM271600 VRB05KT P6SM VCSH BKN050 BKN080
     FM272300 VRB04KT P6SM SCT070 BKN090=



000
FTUS45 KSLC 271120
TAFENV
TAFENV
TAF
KENV 271120Z 2712/2812 02005KT P6SM VCSH SCT080 BKN110
      TEMPO 2712/2714 27010KT 6SM -RA FEW030 BKN050
     FM272100 11009KT P6SM VCSH BKN070 BKN100
     FM280300 27006KT P6SM SCT070 BKN100
      AMD LTD TO CLD VIS AND WIND=



000
FTUS45 KSLC 271120
TAFSLC
TAFSLC
TAF
KSLC 271120Z 2712/2818 15007KT P6SM FEW090 SCT110
     FM271400 16008KT P6SM VCSH BKN070 BKN100
      TEMPO 2714/2717 28007KT -RA BKN060
     FM272100 30006KT P6SM VCSH BKN070
     FM280300 15005KT P6SM SCT070 BKN090=



000
FTUS45 KSLC 271120
TAFBCE
TAFBCE
TAF
KBCE 271120Z 2712/2812 30007KT P6SM FEW100 BKN120
     FM271500 16007KT P6SM FEW120
     FM272000 20011KT P6SM SCT070
     FM280300 27008KT P6SM FEW070 SCT120=



000
FTUS45 KSLC 271120
TAFOGD
TAFOGD
TAF
KOGD 271120Z 2712/2812 16006KT P6SM SCT070 BKN090
     FM271500 27006KT P6SM -RA BKN050 BKN090
     FM271700 20008KT P6SM VCSH BKN070 BKN090
     FM280300 15006KT P6SM SCT070 BKN090=



000
FTUS45 KSLC 271120
TAFBCE
TAF
KBCE 271120Z 2712/2812 30007KT P6SM FEW100 BKN120
     FM271500 16007KT P6SM FEW120
     FM272000 20011KT P6SM SCT070
     FM280300 27008KT P6SM FEW070 SCT120=



000
FTUS45 KSLC 271120
TAFSGU
TAF
KSGU 271120Z 2712/2812 VRB04KT P6SM FEW130
     FM272100 24010G18KT P6SM SKC
     FM280100 24007KT P6SM SKC
      AMD LTD TO CLD VIS AND WIND=



000
FTUS45 KSLC 271120
TAFSGU
TAFSGU
TAF
KSGU 271120Z 2712/2812 VRB04KT P6SM FEW130
     FM272100 24010G18KT P6SM SKC
     FM280100 24007KT P6SM SKC
      AMD LTD TO CLD VIS AND WIND=



000
FTUS45 KSLC 271120
TAFLGU
TAF
KLGU 271120Z 2712/2812 16004KT P6SM SCT080 BKN140
      TEMPO 2714/2716 6SM -RA FEW030 BKN050
     FM271600 VRB05KT P6SM VCSH BKN050 BKN080
     FM272300 VRB04KT P6SM SCT070 BKN090=



000
FTUS45 KSLC 271120
TAFCDC
TAF
KCDC 271120Z 2712/2812 15004KT P6SM FEW110
     FM271900 22010G18KT P6SM FEW110
     FM280100 18006KT P6SM FEW100=



000
FTUS45 KSLC 271120
TAFCDC
TAFCDC
TAF
KCDC 271120Z 2712/2812 15004KT P6SM FEW110
     FM271900 22010G18KT P6SM FEW110
     FM280100 18006KT P6SM FEW100=



000
FTUS45 KSLC 271120
TAFBCE
TAF
KBCE 271120Z 2712/2812 30007KT P6SM FEW100 BKN120
     FM271500 16007KT P6SM FEW120
     FM272000 20011KT P6SM SCT070
     FM280300 27008KT P6SM FEW070 SCT120=



000
FTUS45 KSLC 271120
TAFCDC
TAFCDC
TAF
KCDC 271120Z 2712/2812 15004KT P6SM FEW110
     FM271900 22010G18KT P6SM FEW110
     FM280100 18006KT P6SM FEW100=



000
FTUS45 KSLC 271120
TAFPVU
TAF
KPVU 271120Z 2712/2812 VRB04KT P6SM BKN100
     FM271500 16005KT P6SM VCSH BKN070 BKN100
     FM272100 28006KT P6SM VCSH SCT070 BKN090
     FM272300 29010KT P6SM -SHRA BKN070
      AMD LTD TO CLD VIS AND WIND=



000
FTUS45 KSLC 271120
TAFSGU
TAF
KSGU 271120Z 2712/2812 VRB04KT P6SM FEW130
     FM272100 24010G18KT P6SM SKC
     FM280100 24007KT P6SM SKC
      AMD LTD TO CLD VIS AND WIND=



000
FTUS45 KSLC 271120
TAFSGU
TAF
KSGU 271120Z 2712/2812 VRB04KT P6SM FEW130
     FM272100 24010G18KT P6SM SKC
     FM280100 24007KT P6SM SKC
      AMD LTD TO CLD VIS AND WIND=



000
FTUS45 KSLC 271120
TAFBCE
TAF
KBCE 271120Z 2712/2812 30007KT P6SM FEW100 BKN120
     FM271500 16007KT P6SM FEW120
     FM272000 20011KT P6SM SCT070
     FM280300 27008KT P6SM FEW070 SCT120=



000
FTUS45 KSLC 271120
TAFSGU
TAFSGU
TAF
KSGU 271120Z 2712/2812 VRB04KT P6SM FEW130
     FM272100 24010G18KT P6SM SKC
     FM280100 24007KT P6SM SKC
      AMD LTD TO CLD VIS AND WIND=



000
FTUS45 KSLC 271120
TAFLGU
TAF
KLGU 271120Z 2712/2812 16004KT P6SM SCT080 BKN140
      TEMPO 2714/2716 6SM -RA FEW030 BKN050
     FM271600 VRB05KT P6SM VCSH BKN050 BKN080
     FM272300 VRB04KT P6SM SCT070 BKN090=



000
FTUS45 KSLC 271120
TAFSLC
TAF
KSLC 271120Z 2712/2818 15007KT P6SM FEW090 SCT110
     FM271400 16008KT P6SM VCSH BKN070 BKN100
      TEMPO 2714/2717 28007KT -RA BKN060
     FM272100 30006KT P6SM VCSH BKN070
     FM280300 15005KT P6SM SCT070 BKN090=



000
FTUS45 KSLC 271120
TAFSLC
TAFSLC
TAF
KSLC 271120Z 2712/2818 15007KT P6SM FEW090 SCT110
     FM271400 16008KT P6SM VCSH BKN070 BKN100
      TEMPO 2714/2717 28007KT -RA BKN060
     FM272100 30006KT P6SM VCSH BKN070
     FM280300 15005KT P6SM SCT070 BKN090=



000
FTUS45 KSLC 271120
TAFBCE
TAFBCE
TAF
KBCE 271120Z 2712/2812 30007KT P6SM FEW100 BKN120
     FM271500 16007KT P6SM FEW120
     FM272000 20011KT P6SM SCT070
     FM280300 27008KT P6SM FEW070 SCT120=



000
FTUS45 KSLC 271120
TAFOGD
TAF
KOGD 271120Z 2712/2812 16006KT P6SM SCT070 BKN090
     FM271500 27006KT P6SM -RA BKN050 BKN090
     FM271700 20008KT P6SM VCSH BKN070 BKN090
     FM280300 15006KT P6SM SCT070 BKN090=



000
FTUS45 KSLC 271120
TAFCDC
TAF
KCDC 271120Z 2712/2812 15004KT P6SM FEW110
     FM271900 22010G18KT P6SM FEW110
     FM280100 18006KT P6SM FEW100=



000
FTUS45 KSLC 271120
TAFENV
TAF
KENV 271120Z 2712/2812 02005KT P6SM VCSH SCT080 BKN110
      TEMPO 2712/2714 27010KT 6SM -RA FEW030 BKN050
     FM272100 11009KT P6SM VCSH BKN070 BKN100
     FM280300 27006KT P6SM SCT070 BKN100
      AMD LTD TO CLD VIS AND WIND=



000
FTUS45 KSLC 271120
TAFPVU
TAF
KPVU 271120Z 2712/2812 VRB04KT P6SM BKN100
     FM271500 16005KT P6SM VCSH BKN070 BKN100
     FM272100 28006KT P6SM VCSH SCT070 BKN090
     FM272300 29010KT P6SM -SHRA BKN070
      AMD LTD TO CLD VIS AND WIND=



000
FTUS45 KSLC 271120
TAFENV
TAF
KENV 271120Z 2712/2812 02005KT P6SM VCSH SCT080 BKN110
      TEMPO 2712/2714 27010KT 6SM -RA FEW030 BKN050
     FM272100 11009KT P6SM VCSH BKN070 BKN100
     FM280300 27006KT P6SM SCT070 BKN100
      AMD LTD TO CLD VIS AND WIND=



000
FTUS45 KSLC 271120
TAFPVU
TAF
KPVU 271120Z 2712/2812 VRB04KT P6SM BKN100
     FM271500 16005KT P6SM VCSH BKN070 BKN100
     FM272100 28006KT P6SM VCSH SCT070 BKN090
     FM272300 29010KT P6SM -SHRA BKN070
      AMD LTD TO CLD VIS AND WIND=



000
FTUS45 KSLC 271120
TAFCDC
TAF
KCDC 271120Z 2712/2812 15004KT P6SM FEW110
     FM271900 22010G18KT P6SM FEW110
     FM280100 18006KT P6SM FEW100=



000
FTUS45 KSLC 271120
TAFPVU
TAFPVU
TAF
KPVU 271120Z 2712/2812 VRB04KT P6SM BKN100
     FM271500 16005KT P6SM VCSH BKN070 BKN100
     FM272100 28006KT P6SM VCSH SCT070 BKN090
     FM272300 29010KT P6SM -SHRA BKN070
      AMD LTD TO CLD VIS AND WIND=



000
FTUS45 KSLC 271120
TAFCDC
TAF
KCDC 271120Z 2712/2812 15004KT P6SM FEW110
     FM271900 22010G18KT P6SM FEW110
     FM280100 18006KT P6SM FEW100=



000
FTUS45 KSLC 271120
TAFSLC
TAF
KSLC 271120Z 2712/2818 15007KT P6SM FEW090 SCT110
     FM271400 16008KT P6SM VCSH BKN070 BKN100
      TEMPO 2714/2717 28007KT -RA BKN060
     FM272100 30006KT P6SM VCSH BKN070
     FM280300 15005KT P6SM SCT070 BKN090=



000
FTUS45 KSLC 271120
TAFOGD
TAF
KOGD 271120Z 2712/2812 16006KT P6SM SCT070 BKN090
     FM271500 27006KT P6SM -RA BKN050 BKN090
     FM271700 20008KT P6SM VCSH BKN070 BKN090
     FM280300 15006KT P6SM SCT070 BKN090=



000
FTUS45 KSLC 271120
TAFENV
TAF
KENV 271120Z 2712/2812 02005KT P6SM VCSH SCT080 BKN110
      TEMPO 2712/2714 27010KT 6SM -RA FEW030 BKN050
     FM272100 11009KT P6SM VCSH BKN070 BKN100
     FM280300 27006KT P6SM SCT070 BKN100
      AMD LTD TO CLD VIS AND WIND=



000
FTUS45 KSLC 271120
TAFPVU
TAF
KPVU 271120Z 2712/2812 VRB04KT P6SM BKN100
     FM271500 16005KT P6SM VCSH BKN070 BKN100
     FM272100 28006KT P6SM VCSH SCT070 BKN090
     FM272300 29010KT P6SM -SHRA BKN070
      AMD LTD TO CLD VIS AND WIND=



000
FTUS45 KSLC 271120
TAFSLC
TAF
KSLC 271120Z 2712/2818 15007KT P6SM FEW090 SCT110
     FM271400 16008KT P6SM VCSH BKN070 BKN100
      TEMPO 2714/2717 28007KT -RA BKN060
     FM272100 30006KT P6SM VCSH BKN070
     FM280300 15005KT P6SM SCT070 BKN090=



000
FTUS45 KSLC 271120
TAFENV
TAF
KENV 271120Z 2712/2812 02005KT P6SM VCSH SCT080 BKN110
      TEMPO 2712/2714 27010KT 6SM -RA FEW030 BKN050
     FM272100 11009KT P6SM VCSH BKN070 BKN100
     FM280300 27006KT P6SM SCT070 BKN100
      AMD LTD TO CLD VIS AND WIND=



000
FTUS45 KSLC 271120
TAFOGD
TAF
KOGD 271120Z 2712/2812 16006KT P6SM SCT070 BKN090
     FM271500 27006KT P6SM -RA BKN050 BKN090
     FM271700 20008KT P6SM VCSH BKN070 BKN090
     FM280300 15006KT P6SM SCT070 BKN090=



000
FTUS45 KSLC 271120
TAFSGU
TAF
KSGU 271120Z 2712/2812 VRB04KT P6SM FEW130
     FM272100 24010G18KT P6SM SKC
     FM280100 24007KT P6SM SKC
      AMD LTD TO CLD VIS AND WIND=



000
FTUS45 KSLC 271120
TAFOGD
TAF
KOGD 271120Z 2712/2812 16006KT P6SM SCT070 BKN090
     FM271500 27006KT P6SM -RA BKN050 BKN090
     FM271700 20008KT P6SM VCSH BKN070 BKN090
     FM280300 15006KT P6SM SCT070 BKN090=



000
FTUS45 KSLC 271120
TAFSLC
TAF
KSLC 271120Z 2712/2818 15007KT P6SM FEW090 SCT110
     FM271400 16008KT P6SM VCSH BKN070 BKN100
      TEMPO 2714/2717 28007KT -RA BKN060
     FM272100 30006KT P6SM VCSH BKN070
     FM280300 15005KT P6SM SCT070 BKN090=



000
FTUS45 KSLC 271120
TAFOGD
TAFOGD
TAF
KOGD 271120Z 2712/2812 16006KT P6SM SCT070 BKN090
     FM271500 27006KT P6SM -RA BKN050 BKN090
     FM271700 20008KT P6SM VCSH BKN070 BKN090
     FM280300 15006KT P6SM SCT070 BKN090=



000
FTUS45 KSLC 271053
TAFLGU
TAFLGU
TAF AMD
KLGU 271053Z 2711/2806 16004KT P6SM FEW080 FEW140
      TEMPO 2711/2712 3/4SM BR VV001
     FM271200 VRB04KT P6SM VCSH BKN080
     FM271600 VRB05KT P6SM -SHRA BKN050 BKN080
     FM272300 VRB04KT P6SM SCT070 BKN090=



000
FTUS45 KSLC 271053 AAA
TAFLGU
TAF AMD
KLGU 271053Z 2711/2806 16004KT P6SM FEW080 FEW140
      TEMPO 2711/2712 3/4SM BR VV001
     FM271200 VRB04KT P6SM VCSH BKN080
     FM271600 VRB05KT P6SM -SHRA BKN050 BKN080
     FM272300 VRB04KT P6SM SCT070 BKN090=



000
FTUS45 KSLC 271053 AAA
TAFLGU
TAF AMD
KLGU 271053Z 2711/2806 16004KT P6SM FEW080 FEW140
      TEMPO 2711/2712 3/4SM BR VV001
     FM271200 VRB04KT P6SM VCSH BKN080
     FM271600 VRB05KT P6SM -SHRA BKN050 BKN080
     FM272300 VRB04KT P6SM SCT070 BKN090=



000
FTUS45 KSLC 271053 AAA
TAFLGU
TAF AMD
KLGU 271053Z 2711/2806 16004KT P6SM FEW080 FEW140
      TEMPO 2711/2712 3/4SM BR VV001
     FM271200 VRB04KT P6SM VCSH BKN080
     FM271600 VRB05KT P6SM -SHRA BKN050 BKN080
     FM272300 VRB04KT P6SM SCT070 BKN090=



000
FTUS45 KSLC 271053 AAA
TAFLGU
TAF AMD
KLGU 271053Z 2711/2806 16004KT P6SM FEW080 FEW140
      TEMPO 2711/2712 3/4SM BR VV001
     FM271200 VRB04KT P6SM VCSH BKN080
     FM271600 VRB05KT P6SM -SHRA BKN050 BKN080
     FM272300 VRB04KT P6SM SCT070 BKN090=



000
FTUS45 KSLC 271053
TAFLGU
TAFLGU
TAF AMD
KLGU 271053Z 2711/2806 16004KT P6SM FEW080 FEW140
      TEMPO 2711/2712 3/4SM BR VV001
     FM271200 VRB04KT P6SM VCSH BKN080
     FM271600 VRB05KT P6SM -SHRA BKN050 BKN080
     FM272300 VRB04KT P6SM SCT070 BKN090=



000
FTUS45 KSLC 270854 AAA
TAFSLC
TAF AMD
KSLC 270854Z 2709/2812 15007KT P6SM FEW090 SCT110
     FM271400 16008KT P6SM VCSH BKN070 BKN100
      TEMPO 2714/2717 -RA BKN060
     FM272100 30006KT P6SM VCSH BKN070
     FM280300 15005KT P6SM SCT070 BKN090=



000
FTUS45 KSLC 270854 AAA
TAFSLC
TAF AMD
KSLC 270854Z 2709/2812 15007KT P6SM FEW090 SCT110
     FM271400 16008KT P6SM VCSH BKN070 BKN100
      TEMPO 2714/2717 -RA BKN060
     FM272100 30006KT P6SM VCSH BKN070
     FM280300 15005KT P6SM SCT070 BKN090=



000
FTUS45 KSLC 270854 AAA
TAFSLC
TAF AMD
KSLC 270854Z 2709/2812 15007KT P6SM FEW090 SCT110
     FM271400 16008KT P6SM VCSH BKN070 BKN100
      TEMPO 2714/2717 -RA BKN060
     FM272100 30006KT P6SM VCSH BKN070
     FM280300 15005KT P6SM SCT070 BKN090=



000
FTUS45 KSLC 270854 AAA
TAFSLC
TAF AMD
KSLC 270854Z 2709/2812 15007KT P6SM FEW090 SCT110
     FM271400 16008KT P6SM VCSH BKN070 BKN100
      TEMPO 2714/2717 -RA BKN060
     FM272100 30006KT P6SM VCSH BKN070
     FM280300 15005KT P6SM SCT070 BKN090=



000
FTUS45 KSLC 270532
TAFOGD
TAF
KOGD 270532Z 2706/2806 16006KT P6SM SCT070 BKN090
     FM271500 27006KT P6SM -SHRA BKN060 BKN090
     FM271900 20008KT P6SM VCSH BKN070 BKN090
     FM280300 15006KT P6SM SCT070 BKN090=



000
FTUS45 KSLC 270532
TAFENV
TAF
KENV 270532Z 2706/2806 02005KT P6SM VCSH SCT080 BKN110
     FM272100 11009KT P6SM VCSH BKN070 BKN100
     FM280300 27006KT P6SM SCT070 BKN100
      AMD LTD TO CLD VIS AND WIND=



000
FTUS45 KSLC 270532
TAFLGU
TAF
KLGU 270532Z 2706/2806 16004KT P6SM SCT080 BKN140
     FM271200 VRB04KT P6SM VCSH BKN080
     FM271600 VRB05KT P6SM -SHRA BKN050 BKN080
     FM272300 VRB04KT P6SM SCT070 BKN090=



000
FTUS45 KSLC 270532
TAFPVU
TAF
KPVU 270532Z 2706/2806 VRB04KT P6SM BKN100
      TEMPO 2707/2709 6SM -RA BKN060 OVC090
     FM271500 16005KT P6SM VCSH BKN070 BKN100
     FM272100 28006KT P6SM VCSH SCT070 BKN090
     FM272300 29010KT P6SM -SHRA BKN070
      AMD LTD TO CLD VIS AND WIND=



000
FTUS45 KSLC 270532
TAFSGU
TAF
KSGU 270532Z 2706/2806 VRB04KT P6SM BKN130
      TEMPO 2706/2708 05012G18KT
     FM272100 24010G18KT P6SM SKC
     FM280100 24007KT P6SM SKC
      AMD LTD TO CLD VIS AND WIND=



000
FTUS45 KSLC 270532
TAFCDC
TAF
KCDC 270532Z 2706/2806 15004KT P6SM BKN110
     FM271900 22010G18KT P6SM FEW110
     FM280100 18006KT P6SM FEW100=



000
FTUS45 KSLC 270532
TAFSLC
TAF
KSLC 270532Z 2706/2812 15007KT P6SM FEW090 SCT110
     FM270630 29010KT 6SM RA BKN050 OVC070
     FM271000 16008KT P6SM VCSH BKN070 BKN100
     FM272100 30006KT P6SM VCSH BKN070
     FM280300 15005KT P6SM SCT070 BKN090=



000
FTUS45 KSLC 270532
TAFBCE
TAF
KBCE 270532Z 2706/2806 30007KT P6SM FEW100 SCT120
     FM271500 16007KT P6SM FEW120
     FM272000 20011KT P6SM SCT070
     FM280300 27008KT P6SM FEW070 SCT120=



000
FTUS45 KSLC 270532
TAFPVU
TAFPVU
TAF
KPVU 270532Z 2706/2806 VRB04KT P6SM BKN100
      TEMPO 2707/2709 6SM -RA BKN060 OVC090
     FM271500 16005KT P6SM VCSH BKN070 BKN100
     FM272100 28006KT P6SM VCSH SCT070 BKN090
     FM272300 29010KT P6SM -SHRA BKN070
      AMD LTD TO CLD VIS AND WIND=



000
FTUS45 KSLC 270532
TAFOGD
TAFOGD
TAF
KOGD 270532Z 2706/2806 16006KT P6SM SCT070 BKN090
     FM271500 27006KT P6SM -SHRA BKN060 BKN090
     FM271900 20008KT P6SM VCSH BKN070 BKN090
     FM280300 15006KT P6SM SCT070 BKN090=



000
FTUS45 KSLC 270532
TAFOGD
TAF
KOGD 270532Z 2706/2806 16006KT P6SM SCT070 BKN090
     FM271500 27006KT P6SM -SHRA BKN060 BKN090
     FM271900 20008KT P6SM VCSH BKN070 BKN090
     FM280300 15006KT P6SM SCT070 BKN090=



000
FTUS45 KSLC 270532
TAFLGU
TAF
KLGU 270532Z 2706/2806 16004KT P6SM SCT080 BKN140
     FM271200 VRB04KT P6SM VCSH BKN080
     FM271600 VRB05KT P6SM -SHRA BKN050 BKN080
     FM272300 VRB04KT P6SM SCT070 BKN090=



000
FTUS45 KSLC 270532
TAFPVU
TAF
KPVU 270532Z 2706/2806 VRB04KT P6SM BKN100
      TEMPO 2707/2709 6SM -RA BKN060 OVC090
     FM271500 16005KT P6SM VCSH BKN070 BKN100
     FM272100 28006KT P6SM VCSH SCT070 BKN090
     FM272300 29010KT P6SM -SHRA BKN070
      AMD LTD TO CLD VIS AND WIND=



000
FTUS45 KSLC 270532
TAFENV
TAF
KENV 270532Z 2706/2806 02005KT P6SM VCSH SCT080 BKN110
     FM272100 11009KT P6SM VCSH BKN070 BKN100
     FM280300 27006KT P6SM SCT070 BKN100
      AMD LTD TO CLD VIS AND WIND=



000
FTUS45 KSLC 270532
TAFSLC
TAF
KSLC 270532Z 2706/2812 15007KT P6SM FEW090 SCT110
     FM270630 29010KT 6SM RA BKN050 OVC070
     FM271000 16008KT P6SM VCSH BKN070 BKN100
     FM272100 30006KT P6SM VCSH BKN070
     FM280300 15005KT P6SM SCT070 BKN090=



000
FTUS45 KSLC 270532
TAFBCE
TAF
KBCE 270532Z 2706/2806 30007KT P6SM FEW100 SCT120
     FM271500 16007KT P6SM FEW120
     FM272000 20011KT P6SM SCT070
     FM280300 27008KT P6SM FEW070 SCT120=



000
FTUS45 KSLC 270532
TAFBCE
TAFBCE
TAF
KBCE 270532Z 2706/2806 30007KT P6SM FEW100 SCT120
     FM271500 16007KT P6SM FEW120
     FM272000 20011KT P6SM SCT070
     FM280300 27008KT P6SM FEW070 SCT120=



000
FTUS45 KSLC 270532
TAFSLC
TAFSLC
TAF
KSLC 270532Z 2706/2812 15007KT P6SM FEW090 SCT110
     FM270630 29010KT 6SM RA BKN050 OVC070
     FM271000 16008KT P6SM VCSH BKN070 BKN100
     FM272100 30006KT P6SM VCSH BKN070
     FM280300 15005KT P6SM SCT070 BKN090=



000
FTUS45 KSLC 270532
TAFENV
TAFENV
TAF
KENV 270532Z 2706/2806 02005KT P6SM VCSH SCT080 BKN110
     FM272100 11009KT P6SM VCSH BKN070 BKN100
     FM280300 27006KT P6SM SCT070 BKN100
      AMD LTD TO CLD VIS AND WIND=



000
FTUS45 KSLC 270532
TAFCDC
TAFCDC
TAF
KCDC 270532Z 2706/2806 15004KT P6SM BKN110
     FM271900 22010G18KT P6SM FEW110
     FM280100 18006KT P6SM FEW100=



000
FTUS45 KSLC 270532
TAFSGU
TAFSGU
TAF
KSGU 270532Z 2706/2806 VRB04KT P6SM BKN130
      TEMPO 2706/2708 05012G18KT
     FM272100 24010G18KT P6SM SKC
     FM280100 24007KT P6SM SKC
      AMD LTD TO CLD VIS AND WIND=



000
FTUS45 KSLC 270532
TAFLGU
TAFLGU
TAF
KLGU 270532Z 2706/2806 16004KT P6SM SCT080 BKN140
     FM271200 VRB04KT P6SM VCSH BKN080
     FM271600 VRB05KT P6SM -SHRA BKN050 BKN080
     FM272300 VRB04KT P6SM SCT070 BKN090=



000
FTUS45 KSLC 270532
TAFCDC
TAF
KCDC 270532Z 2706/2806 15004KT P6SM BKN110
     FM271900 22010G18KT P6SM FEW110
     FM280100 18006KT P6SM FEW100=



000
FTUS45 KSLC 270532
TAFSGU
TAF
KSGU 270532Z 2706/2806 VRB04KT P6SM BKN130
      TEMPO 2706/2708 05012G18KT
     FM272100 24010G18KT P6SM SKC
     FM280100 24007KT P6SM SKC
      AMD LTD TO CLD VIS AND WIND=



000
FTUS45 KSLC 270442 AAC
TAFSLC
TAF AMD
KSLC 270442Z 2705/2806 15007KT P6SM FEW090 BKN150
     FM270600 29010KT 5SM RA VCTS BKN050CB OVC070
     FM271400 16008KT P6SM VCSH BKN070 BKN100
     FM272100 30006KT P6SM VCSH BKN070
     FM280300 15005KT P6SM SCT070 BKN090=



000
FTUS45 KSLC 270442 AAC
TAFSLC
TAF AMD
KSLC 270442Z 2705/2806 15007KT P6SM FEW090 BKN150
     FM270600 29010KT 5SM RA VCTS BKN050CB OVC070
     FM271400 16008KT P6SM VCSH BKN070 BKN100
     FM272100 30006KT P6SM VCSH BKN070
     FM280300 15005KT P6SM SCT070 BKN090=



000
FTUS45 KSLC 270442
TAFSLC
TAFSLC
TAF AMD
KSLC 270442Z 2705/2806 15007KT P6SM FEW090 BKN150
     FM270600 29010KT 5SM RA VCTS BKN050CB OVC070
     FM271400 16008KT P6SM VCSH BKN070 BKN100
     FM272100 30006KT P6SM VCSH BKN070
     FM280300 15005KT P6SM SCT070 BKN090=



000
FTUS45 KSLC 270314 AAB
TAFSLC
TAF AMD
KSLC 270314Z 2703/2806 15007KT P6SM FEW090 BKN150
     FM271400 16008KT P6SM VCSH BKN070 BKN100
     FM272100 30006KT P6SM VCSH BKN070
     FM280300 15005KT P6SM SCT070 BKN090=



000
FTUS45 KSLC 270314 AAB
TAFSLC
TAF AMD
KSLC 270314Z 2703/2806 15007KT P6SM FEW090 BKN150
     FM271400 16008KT P6SM VCSH BKN070 BKN100
     FM272100 30006KT P6SM VCSH BKN070
     FM280300 15005KT P6SM SCT070 BKN090=



000
FTUS45 KSLC 270314
TAFSLC
TAFSLC
TAF AMD
KSLC 270314Z 2703/2806 15007KT P6SM FEW090 BKN150
     FM271400 16008KT P6SM VCSH BKN070 BKN100
     FM272100 30006KT P6SM VCSH BKN070
     FM280300 15005KT P6SM SCT070 BKN090=



000
FTUS45 KSLC 270119 AAA
TAFENV
TAF AMD
KENV 270119Z 2701/2724 16006KT P6SM VCSH SCT060 BKN110
      TEMPO 2701/2703 VRB10G20KT -TSRA BKN060CB
     FM270300 VRB05KT P6SM SCT080 BKN110
     FM272100 11009KT P6SM VCSH BKN070 BKN100
      AMD LTD TO CLD VIS AND WIND=



000
FTUS45 KSLC 270119
TAFENV
TAFENV
TAF AMD
KENV 270119Z 2701/2724 16006KT P6SM VCSH SCT060 BKN110
      TEMPO 2701/2703 VRB10G20KT -TSRA BKN060CB
     FM270300 VRB05KT P6SM SCT080 BKN110
     FM272100 11009KT P6SM VCSH BKN070 BKN100
      AMD LTD TO CLD VIS AND WIND=



000
FTUS45 KSLC 262338
TAFCDC
TAF
KCDC 262338Z 2700/2724 02007KT P6SM -SHRA FEW060 BKN080
     FM270300 17006KT P6SM SCT100
     FM270500 15004KT P6SM SKC
     FM271900 22010G18KT P6SM FEW100=



000
FTUS45 KSLC 262338
TAFSGU
TAF
KSGU 262338Z 2700/2724 24011G20KT P6SM SKC
     FM270100 25010KT P6SM SKC
     FM270300 VRB04KT P6SM SKC
     FM272100 24010G18KT P6SM SKC
      AMD LTD TO CLD VIS AND WIND=



000
FTUS45 KSLC 262338
TAFCDC
TAFCDC
TAF
KCDC 262338Z 2700/2724 02007KT P6SM -SHRA FEW060 BKN080
     FM270300 17006KT P6SM SCT100
     FM270500 15004KT P6SM SKC
     FM271900 22010G18KT P6SM FEW100=



000
FTUS45 KSLC 262338
TAFENV
TAFENV
TAF
KENV 262338Z 2700/2724 16006KT P6SM VCSH SCT060 BKN110
     FM270300 VRB05KT P6SM SCT080 BKN110
     FM272100 11009KT P6SM VCSH BKN070 BKN100
      AMD LTD TO CLD VIS AND WIND=



000
FTUS45 KSLC 262338
TAFSLC
TAFSLC
TAF
KSLC 262338Z 2700/2806 15007KT P6SM SCT090 BKN150
     FM271400 16008KT P6SM VCSH BKN070 BKN100
     FM272100 30006KT P6SM VCSH BKN070
     FM280300 15005KT P6SM SCT070 BKN090=



000
FTUS45 KSLC 262338
TAFPVU
TAF
KPVU 262338Z 2700/2724 VRB05KT P6SM VCSH BKN050 BKN090
     FM270200 VRB04KT P6SM SCT100 BKN150
     FM271500 16005KT P6SM VCSH BKN070 BKN100
     FM272100 28006KT P6SM VCSH BKN070
      AMD LTD TO CLD VIS AND WIND=



000
FTUS45 KSLC 262338
TAFLGU
TAF
KLGU 262338Z 2700/2724 36007KT P6SM -SHRA VCTS BKN050CB BKN070
     FM270100 VRB05KT P6SM SCT050 BKN080
     FM270300 16004KT P6SM SCT080 BKN140
     FM271200 VRB04KT P6SM VCSH BKN080
     FM271800 VRB05KT P6SM -SHRA BKN050 BKN080=



000
FTUS45 KSLC 262338
TAFSLC
TAF
KSLC 262338Z 2700/2806 15007KT P6SM SCT090 BKN150
     FM271400 16008KT P6SM VCSH BKN070 BKN100
     FM272100 30006KT P6SM VCSH BKN070
     FM280300 15005KT P6SM SCT070 BKN090=



000
FTUS45 KSLC 262338
TAFOGD
TAFOGD
TAF
KOGD 262338Z 2700/2724 35007KT P6SM SCT035 BKN060
     FM270200 16006KT P6SM SCT070 BKN090
     FM271900 20008KT P6SM VCSH BKN070 BKN090=



000
FTUS45 KSLC 262338
TAFBCE
TAF
KBCE 262338Z 2700/2724 25010KT P6SM VCTS SCT050CB BKN090
     FM270100 27009KT P6SM SCT100
     FM270500 27004KT P6SM SKC
     FM271500 16007KT P6SM SKC
     FM272000 20011KT P6SM SCT070=



000
FTUS45 KSLC 262338
TAFENV
TAF
KENV 262338Z 2700/2724 16006KT P6SM VCSH SCT060 BKN110
     FM270300 VRB05KT P6SM SCT080 BKN110
     FM272100 11009KT P6SM VCSH BKN070 BKN100
      AMD LTD TO CLD VIS AND WIND=



000
FTUS45 KSLC 262338
TAFLGU
TAFLGU
TAF
KLGU 262338Z 2700/2724 36007KT P6SM -SHRA VCTS BKN050CB BKN070
     FM270100 VRB05KT P6SM SCT050 BKN080
     FM270300 16004KT P6SM SCT080 BKN140
     FM271200 VRB04KT P6SM VCSH BKN080
     FM271800 VRB05KT P6SM -SHRA BKN050 BKN080=



000
FTUS45 KSLC 262338
TAFBCE
TAFBCE
TAF
KBCE 262338Z 2700/2724 25010KT P6SM VCTS SCT050CB BKN090
     FM270100 27009KT P6SM SCT100
     FM270500 27004KT P6SM SKC
     FM271500 16007KT P6SM SKC
     FM272000 20011KT P6SM SCT070=



000
FTUS45 KSLC 262338
TAFSGU
TAFSGU
TAF
KSGU 262338Z 2700/2724 24011G20KT P6SM SKC
     FM270100 25010KT P6SM SKC
     FM270300 VRB04KT P6SM SKC
     FM272100 24010G18KT P6SM SKC
      AMD LTD TO CLD VIS AND WIND=



000
FTUS45 KSLC 262338
TAFPVU
TAFPVU
TAF
KPVU 262338Z 2700/2724 VRB05KT P6SM VCSH BKN050 BKN090
     FM270200 VRB04KT P6SM SCT100 BKN150
     FM271500 16005KT P6SM VCSH BKN070 BKN100
     FM272100 28006KT P6SM VCSH BKN070
      AMD LTD TO CLD VIS AND WIND=



000
FTUS45 KSLC 262338
TAFSGU
TAFSGU
TAF
KSGU 262338Z 2700/2724 24011G20KT P6SM SKC
     FM270100 25010KT P6SM SKC
     FM270300 VRB04KT P6SM SKC
     FM272100 24010G18KT P6SM SKC
      AMD LTD TO CLD VIS AND WIND=



000
FTUS45 KSLC 262338
TAFSLC
TAFSLC
TAF
KSLC 262338Z 2700/2806 15007KT P6SM SCT090 BKN150
     FM271400 16008KT P6SM VCSH BKN070 BKN100
     FM272100 30006KT P6SM VCSH BKN070
     FM280300 15005KT P6SM SCT070 BKN090=



000
FTUS45 KSLC 262338
TAFLGU
TAFLGU
TAF
KLGU 262338Z 2700/2724 36007KT P6SM -SHRA VCTS BKN050CB BKN070
     FM270100 VRB05KT P6SM SCT050 BKN080
     FM270300 16004KT P6SM SCT080 BKN140
     FM271200 VRB04KT P6SM VCSH BKN080
     FM271800 VRB05KT P6SM -SHRA BKN050 BKN080=



000
FTUS45 KSLC 262338
TAFBCE
TAFBCE
TAF
KBCE 262338Z 2700/2724 25010KT P6SM VCTS SCT050CB BKN090
     FM270100 27009KT P6SM SCT100
     FM270500 27004KT P6SM SKC
     FM271500 16007KT P6SM SKC
     FM272000 20011KT P6SM SCT070=



000
FTUS45 KSLC 262338
TAFCDC
TAFCDC
TAF
KCDC 262338Z 2700/2724 02007KT P6SM -SHRA FEW060 BKN080
     FM270300 17006KT P6SM SCT100
     FM270500 15004KT P6SM SKC
     FM271900 22010G18KT P6SM FEW100=



000
FTUS45 KSLC 262338
TAFENV
TAF
KENV 262338Z 2700/2724 16006KT P6SM VCSH SCT060 BKN110
     FM270300 VRB05KT P6SM SCT080 BKN110
     FM272100 11009KT P6SM VCSH BKN070 BKN100
      AMD LTD TO CLD VIS AND WIND=



000
FTUS45 KSLC 262338
TAFPVU
TAFPVU
TAF
KPVU 262338Z 2700/2724 VRB05KT P6SM VCSH BKN050 BKN090
     FM270200 VRB04KT P6SM SCT100 BKN150
     FM271500 16005KT P6SM VCSH BKN070 BKN100
     FM272100 28006KT P6SM VCSH BKN070
      AMD LTD TO CLD VIS AND WIND=



000
FTUS45 KSLC 262338
TAFOGD
TAFOGD
TAF
KOGD 262338Z 2700/2724 35007KT P6SM SCT035 BKN060
     FM270200 16006KT P6SM SCT070 BKN090
     FM271900 20008KT P6SM VCSH BKN070 BKN090=



000
FTUS45 KSLC 262338
TAFOGD
TAF
KOGD 262338Z 2700/2724 35007KT P6SM SCT035 BKN060
     FM270200 16006KT P6SM SCT070 BKN090
     FM271900 20008KT P6SM VCSH BKN070 BKN090=



000
FTUS45 KSLC 262254
TAFOGD
TAFOGD
TAF AMD
KOGD 262254Z 2623/2718 17010KT P6SM VCTS SCT035CB BKN060
      TEMPO 2623/2624 VRB15G25KT 3SM TSRA BKN035CB OVC060
     FM270000 35007KT P6SM SCT035 BKN060
     FM270200 16006KT P6SM SCT070 BKN090=



000
FTUS45 KSLC 262254 AAC
TAFOGD
TAF AMD
KOGD 262254Z 2623/2718 17010KT P6SM VCTS SCT035CB BKN060
      TEMPO 2623/2624 VRB15G25KT 3SM TSRA BKN035CB OVC060
     FM270000 35007KT P6SM SCT035 BKN060
     FM270200 16006KT P6SM SCT070 BKN090=



000
FTUS45 KSLC 262254 AAC
TAFOGD
TAF AMD
KOGD 262254Z 2623/2718 17010KT P6SM VCTS SCT035CB BKN060
      TEMPO 2623/2624 VRB15G25KT 3SM TSRA BKN035CB OVC060
     FM270000 35007KT P6SM SCT035 BKN060
     FM270200 16006KT P6SM SCT070 BKN090=



000
FTUS45 KSLC 262235 AAA
TAFLGU
TAF AMD
KLGU 262235Z 2623/2718 VRB12G20KT 4SM TSRA BKN040CB OVC060
     FM262310 21007KT P6SM -SHRA VCTS SCT050CB BKN070
     FM270200 04004KT P6SM SCT070 BKN110=



000
FTUS45 KSLC 262235
TAFLGU
TAFLGU
TAF AMD
KLGU 262235Z 2623/2718 VRB12G20KT 4SM TSRA BKN040CB OVC060
     FM262310 21007KT P6SM -SHRA VCTS SCT050CB BKN070
     FM270200 04004KT P6SM SCT070 BKN110=



000
FTUS45 KSLC 262235 AAA
TAFLGU
TAF AMD
KLGU 262235Z 2623/2718 VRB12G20KT 4SM TSRA BKN040CB OVC060
     FM262310 21007KT P6SM -SHRA VCTS SCT050CB BKN070
     FM270200 04004KT P6SM SCT070 BKN110=



000
FTUS45 KSLC 262215
TAFPVU
TAFPVU
TAF AMD
KPVU 262215Z 2622/2718 VRB06KT P6SM -SHRA VCTS SCT040CB BKN060
     FM262245 VRB12G22KT 5SM -TSRA BR BKN040CB BKN060
     FM270000 VRB05KT P6SM SCT070 BKN090
      AMD LTD TO CLD VIS AND WIND=



000
FTUS45 KSLC 262215 AAA
TAFPVU
TAF AMD
KPVU 262215Z 2622/2718 VRB06KT P6SM -SHRA VCTS SCT040CB BKN060
     FM262245 VRB12G22KT 5SM -TSRA BR BKN040CB BKN060
     FM270000 VRB05KT P6SM SCT070 BKN090
      AMD LTD TO CLD VIS AND WIND=



000
FTUS45 KSLC 262215 AAA
TAFPVU
TAF AMD
KPVU 262215Z 2622/2718 VRB06KT P6SM -SHRA VCTS SCT040CB BKN060
     FM262245 VRB12G22KT 5SM -TSRA BR BKN040CB BKN060
     FM270000 VRB05KT P6SM SCT070 BKN090
      AMD LTD TO CLD VIS AND WIND=



000
FTUS45 KSLC 262138
TAFOGD
TAFOGD
TAF AMD
KOGD 262138Z 2622/2718 17010KT P6SM SCT035 BKN060
     FM262300 30007KT P6SM -TSRA BKN035CB OVC060
     FM270000 35007KT P6SM SCT035 BKN060
     FM270200 16006KT P6SM SCT070 BKN090=



000
FTUS45 KSLC 262138 AAB
TAFOGD
TAF AMD
KOGD 262138Z 2622/2718 17010KT P6SM SCT035 BKN060
     FM262300 30007KT P6SM -TSRA BKN035CB OVC060
     FM270000 35007KT P6SM SCT035 BKN060
     FM270200 16006KT P6SM SCT070 BKN090=



000
FTUS45 KSLC 262138 AAB
TAFOGD
TAF AMD
KOGD 262138Z 2622/2718 17010KT P6SM SCT035 BKN060
     FM262300 30007KT P6SM -TSRA BKN035CB OVC060
     FM270000 35007KT P6SM SCT035 BKN060
     FM270200 16006KT P6SM SCT070 BKN090=



000
FTUS45 KSLC 262138
TAFOGD
TAFOGD
TAF AMD
KOGD 262138Z 2622/2718 17010KT P6SM SCT035 BKN060
     FM262300 30007KT P6SM -TSRA BKN035CB OVC060
     FM270000 35007KT P6SM SCT035 BKN060
     FM270200 16006KT P6SM SCT070 BKN090=



000
FTUS45 KSLC 262136 AAA
TAFOGD
TAF AMD
KOGD 262136Z 2622/2718 07006KT P6SM SCT035 BKN060
     FM262300 30007KT P6SM -TSRA BKN035CB OVC060
     FM270000 35007KT P6SM SCT035 BKN060
     FM270200 16006KT P6SM SCT070 BKN090=



000
FTUS45 KSLC 262136 AAA
TAFOGD
TAF AMD
KOGD 262136Z 2622/2718 07006KT P6SM SCT035 BKN060
     FM262300 30007KT P6SM -TSRA BKN035CB OVC060
     FM270000 35007KT P6SM SCT035 BKN060
     FM270200 16006KT P6SM SCT070 BKN090=



000
FTUS45 KSLC 262116
TAFENV
TAFENV
TAF AMD
KENV 262116Z 2621/2718 11006KT P6SM VCSH SCT090 BKN110
     FM270300 03009KT P6SM VCSH SCT080 BKN110
     FM270700 VRB05KT P6SM SCT070 BKN100
      AMD LTD TO CLD VIS AND WIND=



000
FTUS45 KSLC 262116 AAA
TAFENV
TAF AMD
KENV 262116Z 2621/2718 11006KT P6SM VCSH SCT090 BKN110
     FM270300 03009KT P6SM VCSH SCT080 BKN110
     FM270700 VRB05KT P6SM SCT070 BKN100
      AMD LTD TO CLD VIS AND WIND=



000
FTUS45 KSLC 262116 AAA
TAFENV
TAF AMD
KENV 262116Z 2621/2718 11006KT P6SM VCSH SCT090 BKN110
     FM270300 03009KT P6SM VCSH SCT080 BKN110
     FM270700 VRB05KT P6SM SCT070 BKN100
      AMD LTD TO CLD VIS AND WIND=



000
FTUS45 KSLC 262114 AAB
TAFCDC
TAF AMD
KCDC 262114Z 2621/2718 05007KT P6SM VCTS SCT050CB BKN080
      TEMPO 2621/2623 -TSRA SCT050CB BKN080
     FM270100 21013G20KT P6SM SCT060 BKN080
     FM270300 17006KT P6SM SCT100
     FM270500 15004KT P6SM SKC=



000
FTUS45 KSLC 262114
TAFCDC
TAFCDC
TAF AMD
KCDC 262114Z 2621/2718 05007KT P6SM VCTS SCT050CB BKN080
      TEMPO 2621/2623 -TSRA SCT050CB BKN080
     FM270100 21013G20KT P6SM SCT060 BKN080
     FM270300 17006KT P6SM SCT100
     FM270500 15004KT P6SM SKC=



000
FTUS45 KSLC 262114 AAB
TAFCDC
TAF AMD
KCDC 262114Z 2621/2718 05007KT P6SM VCTS SCT050CB BKN080
      TEMPO 2621/2623 -TSRA SCT050CB BKN080
     FM270100 21013G20KT P6SM SCT060 BKN080
     FM270300 17006KT P6SM SCT100
     FM270500 15004KT P6SM SKC=



000
FTUS45 KSLC 262114 AAB
TAFCDC
TAF AMD
KCDC 262114Z 2621/2718 05007KT P6SM VCTS SCT050CB BKN080
      TEMPO 2621/2623 -TSRA SCT050CB BKN080
     FM270100 21013G20KT P6SM SCT060 BKN080
     FM270300 17006KT P6SM SCT100
     FM270500 15004KT P6SM SKC=



000
FTUS45 KSLC 262111 AAC
TAFSLC
TAF AMD
KSLC 262111Z 2621/2724 32008KT P6SM -SHRA VCTS SCT040CB BKN060
      TEMPO 2623/2701 32010G18KT -TSRA BKN040CB OVC060
     FM270300 15007KT P6SM VCSH SCT060 BKN090
     FM270600 15005KT P6SM SCT090 BKN120=



000
FTUS45 KSLC 262111 AAC
TAFSLC
TAF AMD
KSLC 262111Z 2621/2724 32008KT P6SM -SHRA VCTS SCT040CB BKN060
      TEMPO 2623/2701 32010G18KT -TSRA BKN040CB OVC060
     FM270300 15007KT P6SM VCSH SCT060 BKN090
     FM270600 15005KT P6SM SCT090 BKN120=



000
FTUS45 KSLC 262111
TAFSLC
TAFSLC
TAF AMD
KSLC 262111Z 2621/2724 32008KT P6SM -SHRA VCTS SCT040CB BKN060
      TEMPO 2623/2701 32010G18KT -TSRA BKN040CB OVC060
     FM270300 15007KT P6SM VCSH SCT060 BKN090
     FM270600 15005KT P6SM SCT090 BKN120=



000
FTUS45 KSLC 261956 AAB
TAFSLC
TAF AMD
KSLC 261956Z 2620/2724 18010G16KT P6SM -SHRA BKN050 OVC070
     FM262200 32008G15KT P6SM VCTS BKN040CB BKN060
      TEMPO 2623/2701 -TSRA BKN040CB OVC060
     FM270300 15007KT P6SM VCSH SCT060 BKN090
     FM270600 15005KT P6SM SCT090 BKN120=



000
FTUS45 KSLC 261926 AAA
TAFCDC
TAF AMD
KCDC 261926Z 2619/2718 21010KT P6SM VCTS SCT050CB BKN080
      TEMPO 2619/2621 -TSRA SCT050CB BKN080
     FM262100 21013G20KT P6SM SCT060 BKN080
     FM270300 17006KT P6SM SCT100
     FM270500 15004KT P6SM SKC=



000
FTUS45 KSLC 261926 AAA
TAFCDC
TAF AMD
KCDC 261926Z 2619/2718 21010KT P6SM VCTS SCT050CB BKN080
      TEMPO 2619/2621 -TSRA SCT050CB BKN080
     FM262100 21013G20KT P6SM SCT060 BKN080
     FM270300 17006KT P6SM SCT100
     FM270500 15004KT P6SM SKC=



000
FTUS45 KSLC 261926 AAA
TAFCDC
TAF AMD
KCDC 261926Z 2619/2718 21010KT P6SM VCTS SCT050CB BKN080
      TEMPO 2619/2621 -TSRA SCT050CB BKN080
     FM262100 21013G20KT P6SM SCT060 BKN080
     FM270300 17006KT P6SM SCT100
     FM270500 15004KT P6SM SKC=



000
FTUS45 KSLC 261905 AAA
TAFBCE
TAF AMD
KBCE 261905Z 2619/2718 30010KT P6SM VCTS SCT050CB BKN090
      TEMPO 2619/2621 28010G18KT 5SM -TSRA BKN050CB BKN080
     FM270100 27009KT P6SM SCT100
     FM270500 27004KT P6SM SKC=



000
FTUS45 KSLC 261905 AAA
TAFBCE
TAF AMD
KBCE 261905Z 2619/2718 30010KT P6SM VCTS SCT050CB BKN090
      TEMPO 2619/2621 28010G18KT 5SM -TSRA BKN050CB BKN080
     FM270100 27009KT P6SM SCT100
     FM270500 27004KT P6SM SKC=



000
FTUS45 KSLC 261905
TAFBCE
TAFBCE
TAF AMD
KBCE 261905Z 2619/2718 30010KT P6SM VCTS SCT050CB BKN090
      TEMPO 2619/2621 28010G18KT 5SM -TSRA BKN050CB BKN080
     FM270100 27009KT P6SM SCT100
     FM270500 27004KT P6SM SKC=



000
FTUS45 KSLC 261905 AAA
TAFBCE
TAF AMD
KBCE 261905Z 2619/2718 30010KT P6SM VCTS SCT050CB BKN090
      TEMPO 2619/2621 28010G18KT 5SM -TSRA BKN050CB BKN080
     FM270100 27009KT P6SM SCT100
     FM270500 27004KT P6SM SKC=



000
FTUS45 KSLC 261824
TAFSLC
TAFSLC
TAF AMD
KSLC 261824Z 2618/2724 17010G16KT P6SM SCT040 BKN080
     FM262100 32007KT P6SM -SHRA BKN050 BKN060
     FM270300 15007KT P6SM VCSH SCT060 BKN090
     FM270600 15005KT P6SM SCT090 BKN120=



000
FTUS45 KSLC 261824 AAA
TAFSLC
TAF AMD
KSLC 261824Z 2618/2724 17010G16KT P6SM SCT040 BKN080
     FM262100 32007KT P6SM -SHRA BKN050 BKN060
     FM270300 15007KT P6SM VCSH SCT060 BKN090
     FM270600 15005KT P6SM SCT090 BKN120=



000
FTUS45 KSLC 261824 AAA
TAFSLC
TAF AMD
KSLC 261824Z 2618/2724 17010G16KT P6SM SCT040 BKN080
     FM262100 32007KT P6SM -SHRA BKN050 BKN060
     FM270300 15007KT P6SM VCSH SCT060 BKN090
     FM270600 15005KT P6SM SCT090 BKN120=



000
FTUS45 KSLC 261824 AAA
TAFSLC
TAF AMD
KSLC 261824Z 2618/2724 17010G16KT P6SM SCT040 BKN080
     FM262100 32007KT P6SM -SHRA BKN050 BKN060
     FM270300 15007KT P6SM VCSH SCT060 BKN090
     FM270600 15005KT P6SM SCT090 BKN120=



000
FTUS45 KSLC 261744
TAFOGD
TAF
KOGD 261744Z 2618/2718 07006KT P6SM -RA BKN035 OVC050
     FM262000 23007KT P6SM VCSH SCT050 BKN070
     FM270200 16006KT P6SM SCT070 BKN090=



000
FTUS45 KSLC 261744
TAFENV
TAF
KENV 261744Z 2618/2718 11006KT P6SM SCT090 BKN110
     FM261900 27010G18KT P6SM -SHRA BKN050 BKN080
     FM270300 03009KT P6SM VCSH SCT080 BKN110
     FM270700 VRB05KT P6SM SCT070 BKN100
      AMD LTD TO CLD VIS AND WIND=



000
FTUS45 KSLC 261744
TAFLGU
TAF
KLGU 261744Z 2618/2718 18010KT P6SM -RA OVC050
     FM262100 21007KT P6SM -SHRA VCTS SCT050CB BKN070
     FM270200 04004KT P6SM SCT070 BKN110=



000
FTUS45 KSLC 261744
TAFSLC
TAF
KSLC 261744Z 2618/2724 20007KT P6SM -RA BKN035 OVC050
     FM261900 18008G16KT P6SM SCT040 BKN060
     FM262200 32007KT P6SM -SHRA BKN050 BKN060
     FM270300 15007KT P6SM VCSH SCT060 BKN090
     FM270600 15005KT P6SM SCT090 BKN120=



000
FTUS45 KSLC 261744
TAFSGU
TAF
KSGU 261744Z 2618/2718 VRB06KT P6SM FEW110
     FM262200 25011G20KT P6SM SKC
     FM270100 25010KT P6SM SKC
     FM270300 VRB04KT P6SM SKC
      AMD LTD TO CLD VIS AND WIND=



000
FTUS45 KSLC 261744
TAFBCE
TAF
KBCE 261744Z 2618/2718 21011KT P6SM VCSH BKN060 BKN090
     FM261900 26012G18KT P6SM SCT060 BKN090
     FM270100 27009KT P6SM SCT100
     FM270500 27004KT P6SM SKC=



000
FTUS45 KSLC 261744
TAFCDC
TAF
KCDC 261744Z 2618/2718 21010KT P6SM SCT080
     FM262000 21013G20KT P6SM SCT060 BKN080
     FM270300 17006KT P6SM SCT100
     FM270500 15004KT P6SM SKC=



000
FTUS45 KSLC 261744
TAFPVU
TAF
KPVU 261744Z 2618/2718 21008KT P6SM VCSH BKN035 BKN050
     FM261900 25010KT P6SM SCT050 BKN080
     FM262100 29006KT P6SM -SHRA VCTS BKN040CB BKN060
     FM270100 VRB05KT P6SM SCT070 BKN090
      AMD LTD TO CLD VIS AND WIND=



000
FTUS45 KSLC 261744
TAFOGD
TAF
KOGD 261744Z 2618/2718 07006KT P6SM -RA BKN035 OVC050
     FM262000 23007KT P6SM VCSH SCT050 BKN070
     FM270200 16006KT P6SM SCT070 BKN090=



000
FTUS45 KSLC 261744
TAFENV
TAF
KENV 261744Z 2618/2718 11006KT P6SM SCT090 BKN110
     FM261900 27010G18KT P6SM -SHRA BKN050 BKN080
     FM270300 03009KT P6SM VCSH SCT080 BKN110
     FM270700 VRB05KT P6SM SCT070 BKN100
      AMD LTD TO CLD VIS AND WIND=



000
FTUS45 KSLC 261744
TAFLGU
TAF
KLGU 261744Z 2618/2718 18010KT P6SM -RA OVC050
     FM262100 21007KT P6SM -SHRA VCTS SCT050CB BKN070
     FM270200 04004KT P6SM SCT070 BKN110=



000
FTUS45 KSLC 261744
TAFCDC
TAF
KCDC 261744Z 2618/2718 21010KT P6SM SCT080
     FM262000 21013G20KT P6SM SCT060 BKN080
     FM270300 17006KT P6SM SCT100
     FM270500 15004KT P6SM SKC=



000
FTUS45 KSLC 261744
TAFPVU
TAF
KPVU 261744Z 2618/2718 21008KT P6SM VCSH BKN035 BKN050
     FM261900 25010KT P6SM SCT050 BKN080
     FM262100 29006KT P6SM -SHRA VCTS BKN040CB BKN060
     FM270100 VRB05KT P6SM SCT070 BKN090
      AMD LTD TO CLD VIS AND WIND=



000
FTUS45 KSLC 261744
TAFSLC
TAF
KSLC 261744Z 2618/2724 20007KT P6SM -RA BKN035 OVC050
     FM261900 18008G16KT P6SM SCT040 BKN060
     FM262200 32007KT P6SM -SHRA BKN050 BKN060
     FM270300 15007KT P6SM VCSH SCT060 BKN090
     FM270600 15005KT P6SM SCT090 BKN120=



000
FTUS45 KSLC 261744
TAFSGU
TAF
KSGU 261744Z 2618/2718 VRB06KT P6SM FEW110
     FM262200 25011G20KT P6SM SKC
     FM270100 25010KT P6SM SKC
     FM270300 VRB04KT P6SM SKC
      AMD LTD TO CLD VIS AND WIND=



000
FTUS45 KSLC 261744
TAFBCE
TAF
KBCE 261744Z 2618/2718 21011KT P6SM VCSH BKN060 BKN090
     FM261900 26012G18KT P6SM SCT060 BKN090
     FM270100 27009KT P6SM SCT100
     FM270500 27004KT P6SM SKC=



000
FTUS45 KSLC 261744
TAFSLC
TAFSLC
TAF
KSLC 261744Z 2618/2724 20007KT P6SM -RA BKN035 OVC050
     FM261900 18008G16KT P6SM SCT040 BKN060
     FM262200 32007KT P6SM -SHRA BKN050 BKN060
     FM270300 15007KT P6SM VCSH SCT060 BKN090
     FM270600 15005KT P6SM SCT090 BKN120=



000
FTUS45 KSLC 261744
TAFENV
TAFENV
TAF
KENV 261744Z 2618/2718 11006KT P6SM SCT090 BKN110
     FM261900 27010G18KT P6SM -SHRA BKN050 BKN080
     FM270300 03009KT P6SM VCSH SCT080 BKN110
     FM270700 VRB05KT P6SM SCT070 BKN100
      AMD LTD TO CLD VIS AND WIND=



000
FTUS45 KSLC 261744
TAFBCE
TAF
KBCE 261744Z 2618/2718 21011KT P6SM VCSH BKN060 BKN090
     FM261900 26012G18KT P6SM SCT060 BKN090
     FM270100 27009KT P6SM SCT100
     FM270500 27004KT P6SM SKC=



000
FTUS45 KSLC 261744
TAFCDC
TAFCDC
TAF
KCDC 261744Z 2618/2718 21010KT P6SM SCT080
     FM262000 21013G20KT P6SM SCT060 BKN080
     FM270300 17006KT P6SM SCT100
     FM270500 15004KT P6SM SKC=



000
FTUS45 KSLC 261744
TAFOGD
TAFOGD
TAF
KOGD 261744Z 2618/2718 07006KT P6SM -RA BKN035 OVC050
     FM262000 23007KT P6SM VCSH SCT050 BKN070
     FM270200 16006KT P6SM SCT070 BKN090=



000
FTUS45 KSLC 261744
TAFLGU
TAFLGU
TAF
KLGU 261744Z 2618/2718 18010KT P6SM -RA OVC050
     FM262100 21007KT P6SM -SHRA VCTS SCT050CB BKN070
     FM270200 04004KT P6SM SCT070 BKN110=



000
FTUS45 KSLC 261744
TAFCDC
TAF
KCDC 261744Z 2618/2718 21010KT P6SM SCT080
     FM262000 21013G20KT P6SM SCT060 BKN080
     FM270300 17006KT P6SM SCT100
     FM270500 15004KT P6SM SKC=



000
FTUS45 KSLC 261744
TAFLGU
TAF
KLGU 261744Z 2618/2718 18010KT P6SM -RA OVC050
     FM262100 21007KT P6SM -SHRA VCTS SCT050CB BKN070
     FM270200 04004KT P6SM SCT070 BKN110=



000
FTUS45 KSLC 261744
TAFOGD
TAFOGD
TAF
KOGD 261744Z 2618/2718 07006KT P6SM -RA BKN035 OVC050
     FM262000 23007KT P6SM VCSH SCT050 BKN070
     FM270200 16006KT P6SM SCT070 BKN090=



000
FTUS45 KSLC 261744
TAFLGU
TAFLGU
TAF
KLGU 261744Z 2618/2718 18010KT P6SM -RA OVC050
     FM262100 21007KT P6SM -SHRA VCTS SCT050CB BKN070
     FM270200 04004KT P6SM SCT070 BKN110=



000
FTUS45 KSLC 261744
TAFSLC
TAF
KSLC 261744Z 2618/2724 20007KT P6SM -RA BKN035 OVC050
     FM261900 18008G16KT P6SM SCT040 BKN060
     FM262200 32007KT P6SM -SHRA BKN050 BKN060
     FM270300 15007KT P6SM VCSH SCT060 BKN090
     FM270600 15005KT P6SM SCT090 BKN120=



000
FTUS45 KSLC 261744
TAFSGU
TAFSGU
TAF
KSGU 261744Z 2618/2718 VRB06KT P6SM FEW110
     FM262200 25011G20KT P6SM SKC
     FM270100 25010KT P6SM SKC
     FM270300 VRB04KT P6SM SKC
      AMD LTD TO CLD VIS AND WIND=



000
FTUS45 KSLC 261744
TAFPVU
TAFPVU
TAF
KPVU 261744Z 2618/2718 21008KT P6SM VCSH BKN035 BKN050
     FM261900 25010KT P6SM SCT050 BKN080
     FM262100 29006KT P6SM -SHRA VCTS BKN040CB BKN060
     FM270100 VRB05KT P6SM SCT070 BKN090
      AMD LTD TO CLD VIS AND WIND=



000
FTUS45 KSLC 261744
TAFSLC
TAFSLC
TAF
KSLC 261744Z 2618/2724 20007KT P6SM -RA BKN035 OVC050
     FM261900 18008G16KT P6SM SCT040 BKN060
     FM262200 32007KT P6SM -SHRA BKN050 BKN060
     FM270300 15007KT P6SM VCSH SCT060 BKN090
     FM270600 15005KT P6SM SCT090 BKN120=



000
FTUS45 KSLC 261744
TAFPVU
TAFPVU
TAF
KPVU 261744Z 2618/2718 21008KT P6SM VCSH BKN035 BKN050
     FM261900 25010KT P6SM SCT050 BKN080
     FM262100 29006KT P6SM -SHRA VCTS BKN040CB BKN060
     FM270100 VRB05KT P6SM SCT070 BKN090
      AMD LTD TO CLD VIS AND WIND=



000
FTUS45 KSLC 261744
TAFSGU
TAFSGU
TAF
KSGU 261744Z 2618/2718 VRB06KT P6SM FEW110
     FM262200 25011G20KT P6SM SKC
     FM270100 25010KT P6SM SKC
     FM270300 VRB04KT P6SM SKC
      AMD LTD TO CLD VIS AND WIND=



000
FTUS45 KSLC 261744
TAFOGD
TAF
KOGD 261744Z 2618/2718 07006KT P6SM -RA BKN035 OVC050
     FM262000 23007KT P6SM VCSH SCT050 BKN070
     FM270200 16006KT P6SM SCT070 BKN090=



000
FTUS45 KSLC 261744
TAFCDC
TAFCDC
TAF
KCDC 261744Z 2618/2718 21010KT P6SM SCT080
     FM262000 21013G20KT P6SM SCT060 BKN080
     FM270300 17006KT P6SM SCT100
     FM270500 15004KT P6SM SKC=



000
FTUS45 KSLC 261744
TAFPVU
TAF
KPVU 261744Z 2618/2718 21008KT P6SM VCSH BKN035 BKN050
     FM261900 25010KT P6SM SCT050 BKN080
     FM262100 29006KT P6SM -SHRA VCTS BKN040CB BKN060
     FM270100 VRB05KT P6SM SCT070 BKN090
      AMD LTD TO CLD VIS AND WIND=



000
FTUS45 KSLC 261744
TAFBCE
TAF
KBCE 261744Z 2618/2718 21011KT P6SM VCSH BKN060 BKN090
     FM261900 26012G18KT P6SM SCT060 BKN090
     FM270100 27009KT P6SM SCT100
     FM270500 27004KT P6SM SKC=



000
FTUS45 KSLC 261744
TAFSGU
TAF
KSGU 261744Z 2618/2718 VRB06KT P6SM FEW110
     FM262200 25011G20KT P6SM SKC
     FM270100 25010KT P6SM SKC
     FM270300 VRB04KT P6SM SKC
      AMD LTD TO CLD VIS AND WIND=



000
FTUS45 KSLC 261744
TAFENV
TAFENV
TAF
KENV 261744Z 2618/2718 11006KT P6SM SCT090 BKN110
     FM261900 27010G18KT P6SM -SHRA BKN050 BKN080
     FM270300 03009KT P6SM VCSH SCT080 BKN110
     FM270700 VRB05KT P6SM SCT070 BKN100
      AMD LTD TO CLD VIS AND WIND=



000
FTUS45 KSLC 261710
TAFCDC
TAFCDC
TAF AMD
KCDC 261710Z 2617/2712 21010KT P6SM SCT100
     FM262000 21010G17KT P6SM SCT050 BKN090
     FM270300 15006KT P6SM SCT100=



000
FTUS45 KSLC 261710 AAA
TAFCDC
TAF AMD
KCDC 261710Z 2617/2712 21010KT P6SM SCT100
     FM262000 21010G17KT P6SM SCT050 BKN090
     FM270300 15006KT P6SM SCT100=



000
FTUS45 KSLC 261710 AAA
TAFCDC
TAF AMD
KCDC 261710Z 2617/2712 21010KT P6SM SCT100
     FM262000 21010G17KT P6SM SCT050 BKN090
     FM270300 15006KT P6SM SCT100=



000
FTUS45 KSLC 261710
TAFCDC
TAFCDC
TAF AMD
KCDC 261710Z 2617/2712 21010KT P6SM SCT100
     FM262000 21010G17KT P6SM SCT050 BKN090
     FM270300 15006KT P6SM SCT100=



000
FTUS45 KSLC 261606
TAFPVU
TAFPVU
TAF AMD
KPVU 261606Z 2616/2712 14007KT P6SM -SHRA SCT030 BKN060
     FM261800 VRB05KT P6SM -SHRA VCTS SCT025CB BKN050
     FM270100 VRB05KT P6SM SCT070 BKN090
      AMD LTD TO CLD VIS AND WIND=



000
FTUS45 KSLC 261606 AAA
TAFPVU
TAF AMD
KPVU 261606Z 2616/2712 14007KT P6SM -SHRA SCT030 BKN060
     FM261800 VRB05KT P6SM -SHRA VCTS SCT025CB BKN050
     FM270100 VRB05KT P6SM SCT070 BKN090
      AMD LTD TO CLD VIS AND WIND=



000
FTUS45 KSLC 261606 AAA
TAFPVU
TAF AMD
KPVU 261606Z 2616/2712 14007KT P6SM -SHRA SCT030 BKN060
     FM261800 VRB05KT P6SM -SHRA VCTS SCT025CB BKN050
     FM270100 VRB05KT P6SM SCT070 BKN090
      AMD LTD TO CLD VIS AND WIND=



000
FTUS45 KSLC 261605 AAC
TAFSLC
TAF AMD
KSLC 261605Z 2616/2718 18011KT P6SM -SHRA SCT060 BKN080
     FM261800 20007KT P6SM -SHRA VCTS SCT040CB BKN060
     FM262000 32008KT 6SM -SHRA VCTS SCT025CB BKN050
     FM270100 15007KT P6SM VCSH SCT060 BKN090=



000
FTUS45 KSLC 261605 AAC
TAFSLC
TAF AMD
KSLC 261605Z 2616/2718 18011KT P6SM -SHRA SCT060 BKN080
     FM261800 20007KT P6SM -SHRA VCTS SCT040CB BKN060
     FM262000 32008KT 6SM -SHRA VCTS SCT025CB BKN050
     FM270100 15007KT P6SM VCSH SCT060 BKN090=



000
FTUS45 KSLC 261605
TAFSLC
TAFSLC
TAF AMD
KSLC 261605Z 2616/2718 18011KT P6SM -SHRA SCT060 BKN080
     FM261800 20007KT P6SM -SHRA VCTS SCT040CB BKN060
     FM262000 32008KT 6SM -SHRA VCTS SCT025CB BKN050
     FM270100 15007KT P6SM VCSH SCT060 BKN090=



000
FTUS45 KSLC 261501 AAB
TAFSLC
TAF AMD
KSLC 261501Z 2615/2718 17009KT P6SM VCSH SCT060 BKN090
     FM261600 15006KT P6SM -SHRA VCTS BKN050CB OVC070
     FM262100 32007KT P6SM VCSH BKN060 BKN080
     FM270300 15007KT P6SM SCT060 BKN090=



000
FTUS45 KSLC 261501 AAB
TAFSLC
TAF AMD
KSLC 261501Z 2615/2718 17009KT P6SM VCSH SCT060 BKN090
     FM261600 15006KT P6SM -SHRA VCTS BKN050CB OVC070
     FM262100 32007KT P6SM VCSH BKN060 BKN080
     FM270300 15007KT P6SM SCT060 BKN090=



000
FTUS45 KSLC 261459 AAA
TAFOGD
TAF AMD
KOGD 261459Z 2615/2712 24006KT P6SM -SHRA VCTS BKN050CB BKN080
      TEMPO 2615/2616 2SM +RA SCT015 BKN030
     FM261800 27006KT P6SM VCSH SCT060 BKN090
     FM270100 16006KT P6SM BKN070 BKN090=



000
FTUS45 KSLC 261459 AAA
TAFOGD
TAF AMD
KOGD 261459Z 2615/2712 24006KT P6SM -SHRA VCTS BKN050CB BKN080
      TEMPO 2615/2616 2SM +RA SCT015 BKN030
     FM261800 27006KT P6SM VCSH SCT060 BKN090
     FM270100 16006KT P6SM BKN070 BKN090=



000
FTUS45 KSLC 261459 AAA
TAFOGD
TAF AMD
KOGD 261459Z 2615/2712 24006KT P6SM -SHRA VCTS BKN050CB BKN080
      TEMPO 2615/2616 2SM +RA SCT015 BKN030
     FM261800 27006KT P6SM VCSH SCT060 BKN090
     FM270100 16006KT P6SM BKN070 BKN090=



000
FTUS45 KSLC 261459 AAA
TAFOGD
TAF AMD
KOGD 261459Z 2615/2712 24006KT P6SM -SHRA VCTS BKN050CB BKN080
      TEMPO 2615/2616 2SM +RA SCT015 BKN030
     FM261800 27006KT P6SM VCSH SCT060 BKN090
     FM270100 16006KT P6SM BKN070 BKN090=



000
FTUS45 KSLC 261459
TAFOGD
TAFOGD
TAF AMD
KOGD 261459Z 2615/2712 24006KT P6SM -SHRA VCTS BKN050CB BKN080
      TEMPO 2615/2616 2SM +RA SCT015 BKN030
     FM261800 27006KT P6SM VCSH SCT060 BKN090
     FM270100 16006KT P6SM BKN070 BKN090=



000
FTUS45 KSLC 261459
TAFOGD
TAFOGD
TAF AMD
KOGD 261459Z 2615/2712 24006KT P6SM -SHRA VCTS BKN050CB BKN080
      TEMPO 2615/2616 2SM +RA SCT015 BKN030
     FM261800 27006KT P6SM VCSH SCT060 BKN090
     FM270100 16006KT P6SM BKN070 BKN090=



000
FTUS45 KSLC 261120
TAFSLC
TAF
KSLC 261120Z 2612/2718 15009KT P6SM VCSH SCT090 BKN110
     FM261500 15006KT P6SM -SHRA VCTS BKN050CB OVC070
     FM262100 32007KT P6SM VCSH BKN060 BKN080
     FM270300 15007KT P6SM SCT060 BKN090=



000
FTUS45 KSLC 261120
TAFSGU
TAFSGU
TAF
KSGU 261120Z 2612/2712 16006KT P6SM SCT090 BKN120
     FM262200 25011G20KT P6SM SKC
     FM270300 VRB04KT P6SM SKC
      AMD LTD TO CLD VIS AND WIND=



000
FTUS45 KSLC 261120
TAFSLC
TAFSLC
TAF
KSLC 261120Z 2612/2718 15009KT P6SM VCSH SCT090 BKN110
     FM261500 15006KT P6SM -SHRA VCTS BKN050CB OVC070
     FM262100 32007KT P6SM VCSH BKN060 BKN080
     FM270300 15007KT P6SM SCT060 BKN090=



000
FTUS45 KSLC 261120
TAFLGU
TAFLGU
TAF
KLGU 261120Z 2612/2712 VRB04KT P6SM BKN070
     FM261400 VRB05KT P6SM VCSH BKN070 BKN090
     FM262100 21007KT P6SM -SHRA VCTS SCT050CB BKN090
     FM270200 VRB04KT P6SM VCSH SCT070 BKN110=



000
FTUS45 KSLC 261120
TAFLGU
TAF
KLGU 261120Z 2612/2712 VRB04KT P6SM BKN070
     FM261400 VRB05KT P6SM VCSH BKN070 BKN090
     FM262100 21007KT P6SM -SHRA VCTS SCT050CB BKN090
     FM270200 VRB04KT P6SM VCSH SCT070 BKN110=



000
FTUS45 KSLC 261120
TAFENV
TAFENV
TAF
KENV 261120Z 2612/2712 11006KT P6SM SCT090 BKN120
     FM262000 27010G18KT P6SM -SHRA BKN050 BKN080
     FM270300 03009KT P6SM VCSH SCT080 BKN110
      AMD LTD TO CLD VIS AND WIND=



000
FTUS45 KSLC 261120
TAFOGD
TAFOGD
TAF
KOGD 261120Z 2612/2712 15007KT P6SM SCT060 BKN090
     FM261300 17005KT P6SM -SHRA BKN050 BKN080
     FM261500 24006KT P6SM -SHRA VCTS BKN050CB BKN080
     FM261800 27006KT P6SM VCSH SCT060 BKN090
     FM270100 16006KT P6SM BKN070 BKN090=



000
FTUS45 KSLC 261120
TAFBCE
TAF
KBCE 261120Z 2612/2712 28007KT P6SM VCSH FEW040 BKN090
      TEMPO 2612/2616 -RA BKN040
     FM261800 21011G18KT P6SM -SHRA VCTS BKN040CB BKN090
     FM270100 27009KT P6SM SCT100=



000
FTUS45 KSLC 261120
TAFENV
TAF
KENV 261120Z 2612/2712 11006KT P6SM SCT090 BKN120
     FM262000 27010G18KT P6SM -SHRA BKN050 BKN080
     FM270300 03009KT P6SM VCSH SCT080 BKN110
      AMD LTD TO CLD VIS AND WIND=



000
FTUS45 KSLC 261120
TAFCDC
TAF
KCDC 261120Z 2612/2712 15007KT 6SM -RA BKN035 BKN050
      TEMPO 2612/2615 5SM -RA BR FEW010 BKN020 OVC040
     FM261500 15007KT P6SM FEW050 BKN090
     FM261700 21010G17KT P6SM -SHRA VCTS SCT050CB BKN060
     FM262300 21010KT P6SM VCSH SCT050 BKN090
     FM270300 15006KT P6SM SCT100=



000
FTUS45 KSLC 261120
TAFCDC
TAF
KCDC 261120Z 2612/2712 15007KT 6SM -RA BKN035 BKN050
      TEMPO 2612/2615 5SM -RA BR FEW010 BKN020 OVC040
     FM261500 15007KT P6SM FEW050 BKN090
     FM261700 21010G17KT P6SM -SHRA VCTS SCT050CB BKN060
     FM262300 21010KT P6SM VCSH SCT050 BKN090
     FM270300 15006KT P6SM SCT100=



000
FTUS45 KSLC 261120
TAFSLC
TAF
KSLC 261120Z 2612/2718 15009KT P6SM VCSH SCT090 BKN110
     FM261500 15006KT P6SM -SHRA VCTS BKN050CB OVC070
     FM262100 32007KT P6SM VCSH BKN060 BKN080
     FM270300 15007KT P6SM SCT060 BKN090=



000
FTUS45 KSLC 261120
TAFENV
TAF
KENV 261120Z 2612/2712 11006KT P6SM SCT090 BKN120
     FM262000 27010G18KT P6SM -SHRA BKN050 BKN080
     FM270300 03009KT P6SM VCSH SCT080 BKN110
      AMD LTD TO CLD VIS AND WIND=



000
FTUS45 KSLC 261120
TAFLGU
TAF
KLGU 261120Z 2612/2712 VRB04KT P6SM BKN070
     FM261400 VRB05KT P6SM VCSH BKN070 BKN090
     FM262100 21007KT P6SM -SHRA VCTS SCT050CB BKN090
     FM270200 VRB04KT P6SM VCSH SCT070 BKN110=



000
FTUS45 KSLC 261120
TAFBCE
TAF
KBCE 261120Z 2612/2712 28007KT P6SM VCSH FEW040 BKN090
      TEMPO 2612/2616 -RA BKN040
     FM261800 21011G18KT P6SM -SHRA VCTS BKN040CB BKN090
     FM270100 27009KT P6SM SCT100=



000
FTUS45 KSLC 261120
TAFSGU
TAF
KSGU 261120Z 2612/2712 16006KT P6SM SCT090 BKN120
     FM262200 25011G20KT P6SM SKC
     FM270300 VRB04KT P6SM SKC
      AMD LTD TO CLD VIS AND WIND=



000
FTUS45 KSLC 261120
TAFPVU
TAF
KPVU 261120Z 2612/2712 14004KT P6SM VCSH SCT060 BKN090
      TEMPO 2612/2614 6SM -RA BKN060
     FM261900 VRB05KT P6SM -SHRA VCTS BKN050CB BKN080
     FM270100 VRB05KT P6SM SCT070 BKN090
      AMD LTD TO CLD VIS AND WIND=



000
FTUS45 KSLC 261120
TAFOGD
TAF
KOGD 261120Z 2612/2712 15007KT P6SM SCT060 BKN090
     FM261300 17005KT P6SM -SHRA BKN050 BKN080
     FM261500 24006KT P6SM -SHRA VCTS BKN050CB BKN080
     FM261800 27006KT P6SM VCSH SCT060 BKN090
     FM270100 16006KT P6SM BKN070 BKN090=



000
FTUS45 KSLC 260957
TAFOGD
TAFOGD
TAF AMD
KOGD 260957Z 2610/2706 15007KT P6SM SCT060 BKN090
     FM261300 17005KT P6SM VCSH BKN050 BKN080
     FM261600 24006KT P6SM -SHRA BKN050 BKN080
     FM270100 16006KT P6SM BKN070 BKN090=



000
FTUS45 KSLC 260957 AAC
TAFOGD
TAF AMD
KOGD 260957Z 2610/2706 15007KT P6SM SCT060 BKN090
     FM261300 17005KT P6SM VCSH BKN050 BKN080
     FM261600 24006KT P6SM -SHRA BKN050 BKN080
     FM270100 16006KT P6SM BKN070 BKN090=



000
FTUS45 KSLC 260957 AAC
TAFOGD
TAF AMD
KOGD 260957Z 2610/2706 15007KT P6SM SCT060 BKN090
     FM261300 17005KT P6SM VCSH BKN050 BKN080
     FM261600 24006KT P6SM -SHRA BKN050 BKN080
     FM270100 16006KT P6SM BKN070 BKN090=



000
FTUS45 KSLC 260924
TAFOGD
TAFOGD
TAF AMD
KOGD 260924Z 2609/2706 15007KT P6SM VCTS BKN060CB BKN090
      TEMPO 2609/2610 VRB10G20KT 5SM TSRA BKN040CB OVC060
     FM261000 15007KT P6SM SCT060 BKN090
     FM261300 17005KT P6SM VCSH BKN050 BKN080
     FM261600 24006KT P6SM -SHRA BKN050 BKN080
     FM270100 16006KT P6SM BKN070 BKN090=



000
FTUS45 KSLC 260924 AAB
TAFOGD
TAF AMD
KOGD 260924Z 2609/2706 15007KT P6SM VCTS BKN060CB BKN090
      TEMPO 2609/2610 VRB10G20KT 5SM TSRA BKN040CB OVC060
     FM261000 15007KT P6SM SCT060 BKN090
     FM261300 17005KT P6SM VCSH BKN050 BKN080
     FM261600 24006KT P6SM -SHRA BKN050 BKN080
     FM270100 16006KT P6SM BKN070 BKN090=



000
FTUS45 KSLC 260924 AAB
TAFOGD
TAF AMD
KOGD 260924Z 2609/2706 15007KT P6SM VCTS BKN060CB BKN090
      TEMPO 2609/2610 VRB10G20KT 5SM TSRA BKN040CB OVC060
     FM261000 15007KT P6SM SCT060 BKN090
     FM261300 17005KT P6SM VCSH BKN050 BKN080
     FM261600 24006KT P6SM -SHRA BKN050 BKN080
     FM270100 16006KT P6SM BKN070 BKN090=



000
FTUS45 KSLC 260924 AAB
TAFOGD
TAF AMD
KOGD 260924Z 2609/2706 15007KT P6SM VCTS BKN060CB BKN090
      TEMPO 2609/2610 VRB10G20KT 5SM TSRA BKN040CB OVC060
     FM261000 15007KT P6SM SCT060 BKN090
     FM261300 17005KT P6SM VCSH BKN050 BKN080
     FM261600 24006KT P6SM -SHRA BKN050 BKN080
     FM270100 16006KT P6SM BKN070 BKN090=



000
FTUS45 KSLC 260924 AAB
TAFOGD
TAF AMD
KOGD 260924Z 2609/2706 15007KT P6SM VCTS BKN060CB BKN090
      TEMPO 2609/2610 VRB10G20KT 5SM TSRA BKN040CB OVC060
     FM261000 15007KT P6SM SCT060 BKN090
     FM261300 17005KT P6SM VCSH BKN050 BKN080
     FM261600 24006KT P6SM -SHRA BKN050 BKN080
     FM270100 16006KT P6SM BKN070 BKN090=



000
FTUS45 KSLC 260924
TAFOGD
TAFOGD
TAF AMD
KOGD 260924Z 2609/2706 15007KT P6SM VCTS BKN060CB BKN090
      TEMPO 2609/2610 VRB10G20KT 5SM TSRA BKN040CB OVC060
     FM261000 15007KT P6SM SCT060 BKN090
     FM261300 17005KT P6SM VCSH BKN050 BKN080
     FM261600 24006KT P6SM -SHRA BKN050 BKN080
     FM270100 16006KT P6SM BKN070 BKN090=



000
FTUS45 KSLC 260905 AAA
TAFSGU
TAF AMD
KSGU 260905Z 2609/2706 12004KT P6SM VCSH SCT090 BKN120
     FM261100 VRB04KT P6SM SCT090 BKN120
     FM262200 25011G20KT P6SM SKC
     FM270300 VRB04KT P6SM SKC
      AMD LTD TO CLD VIS AND WIND=



000
FTUS45 KSLC 260905 AAA
TAFSGU
TAF AMD
KSGU 260905Z 2609/2706 12004KT P6SM VCSH SCT090 BKN120
     FM261100 VRB04KT P6SM SCT090 BKN120
     FM262200 25011G20KT P6SM SKC
     FM270300 VRB04KT P6SM SKC
      AMD LTD TO CLD VIS AND WIND=



000
FTUS45 KSLC 260905
TAFSGU
TAFSGU
TAF AMD
KSGU 260905Z 2609/2706 12004KT P6SM VCSH SCT090 BKN120
     FM261100 VRB04KT P6SM SCT090 BKN120
     FM262200 25011G20KT P6SM SKC
     FM270300 VRB04KT P6SM SKC
      AMD LTD TO CLD VIS AND WIND=



000
FTUS45 KSLC 260905 AAA
TAFSGU
TAF AMD
KSGU 260905Z 2609/2706 12004KT P6SM VCSH SCT090 BKN120
     FM261100 VRB04KT P6SM SCT090 BKN120
     FM262200 25011G20KT P6SM SKC
     FM270300 VRB04KT P6SM SKC
      AMD LTD TO CLD VIS AND WIND=



000
FTUS45 KSLC 260905 AAA
TAFSGU
TAF AMD
KSGU 260905Z 2609/2706 12004KT P6SM VCSH SCT090 BKN120
     FM261100 VRB04KT P6SM SCT090 BKN120
     FM262200 25011G20KT P6SM SKC
     FM270300 VRB04KT P6SM SKC
      AMD LTD TO CLD VIS AND WIND=



000
FTUS45 KSLC 260903 AAB
TAFSLC
TAF AMD
KSLC 260903Z 2609/2712 15009KT P6SM VCSH SCT090 BKN110
     FM261500 15006KT P6SM -SHRA BKN050 OVC070
     FM262100 32007KT P6SM VCSH BKN060 BKN080
     FM270300 15007KT P6SM SCT060 BKN090=



000
FTUS45 KSLC 260903 AAB
TAFSLC
TAF AMD
KSLC 260903Z 2609/2712 15009KT P6SM VCSH SCT090 BKN110
     FM261500 15006KT P6SM -SHRA BKN050 OVC070
     FM262100 32007KT P6SM VCSH BKN060 BKN080
     FM270300 15007KT P6SM SCT060 BKN090=



000
FTUS45 KSLC 260900 AAA
TAFOGD
TAF AMD
KOGD 260900Z 2609/2706 15007KT P6SM VCTS BKN060CB BKN090
     FM261000 15007KT P6SM SCT060 BKN090
     FM261300 17005KT P6SM VCSH BKN050 BKN080
     FM261600 24006KT P6SM -SHRA BKN050 BKN080
     FM270100 16006KT P6SM BKN070 BKN090=



000
FTUS45 KSLC 260900
TAFOGD
TAFOGD
TAF AMD
KOGD 260900Z 2609/2706 15007KT P6SM VCTS BKN060CB BKN090
     FM261000 15007KT P6SM SCT060 BKN090
     FM261300 17005KT P6SM VCSH BKN050 BKN080
     FM261600 24006KT P6SM -SHRA BKN050 BKN080
     FM270100 16006KT P6SM BKN070 BKN090=



000
FTUS45 KSLC 260900 AAA
TAFOGD
TAF AMD
KOGD 260900Z 2609/2706 15007KT P6SM VCTS BKN060CB BKN090
     FM261000 15007KT P6SM SCT060 BKN090
     FM261300 17005KT P6SM VCSH BKN050 BKN080
     FM261600 24006KT P6SM -SHRA BKN050 BKN080
     FM270100 16006KT P6SM BKN070 BKN090=



000
FTUS45 KSLC 260840
TAFCDC
TAFCDC
TAF AMD
KCDC 260840Z 2609/2706 15007KT P6SM -RA VCTS SCT050CB BKN090
      TEMPO 2609/2612 VRB10G20KT 5SM -TSRA BKN050CB OVC090
     FM261200 15007KT P6SM FEW050 BKN090
     FM261700 21010G17KT P6SM SCT100
     FM270300 15006KT P6SM SCT100=



000
FTUS45 KSLC 260840 AAA
TAFCDC
TAF AMD
KCDC 260840Z 2609/2706 15007KT P6SM -RA VCTS SCT050CB BKN090
      TEMPO 2609/2612 VRB10G20KT 5SM -TSRA BKN050CB OVC090
     FM261200 15007KT P6SM FEW050 BKN090
     FM261700 21010G17KT P6SM SCT100
     FM270300 15006KT P6SM SCT100=



000
FTUS45 KSLC 260538
TAFENV
TAFENV
TAF
KENV 260538Z 2606/2706 21005KT P6SM BKN080 BKN120
     FM261400 11006KT P6SM VCSH BKN060 BKN100
     FM262000 27010G18KT P6SM -SHRA BKN050 BKN080
     FM270300 03009KT P6SM VCSH SCT080 BKN110
      AMD LTD TO CLD VIS AND WIND=



000
FTUS45 KSLC 260538
TAFENV
TAF
KENV 260538Z 2606/2706 21005KT P6SM BKN080 BKN120
     FM261400 11006KT P6SM VCSH BKN060 BKN100
     FM262000 27010G18KT P6SM -SHRA BKN050 BKN080
     FM270300 03009KT P6SM VCSH SCT080 BKN110
      AMD LTD TO CLD VIS AND WIND=



000
FTUS45 KSLC 260538
TAFPVU
TAF
KPVU 260538Z 2606/2706 14006KT P6SM FEW100 SCT150
     FM260800 14004KT P6SM VCSH BKN060 BKN090
     FM261800 VRB05KT P6SM -SHRA BKN050 BKN080
     FM270100 VRB05KT P6SM VCSH BKN070 BKN090
      AMD LTD TO CLD VIS AND WIND=



000
FTUS45 KSLC 260538
TAFPVU
TAFPVU
TAF
KPVU 260538Z 2606/2706 14006KT P6SM FEW100 SCT150
     FM260800 14004KT P6SM VCSH BKN060 BKN090
     FM261800 VRB05KT P6SM -SHRA BKN050 BKN080
     FM270100 VRB05KT P6SM VCSH BKN070 BKN090
      AMD LTD TO CLD VIS AND WIND=



000
FTUS45 KSLC 260538
TAFCDC
TAFCDC
TAF
KCDC 260538Z 2606/2706 17005KT P6SM FEW100
     FM260800 15007KT P6SM VCSH FEW050 BKN090
     FM261700 21010G17KT P6SM SCT100
     FM270300 15006KT P6SM SCT100=



000
FTUS45 KSLC 260538
TAFOGD
TAFOGD
TAF
KOGD 260538Z 2606/2706 15007KT P6SM BKN090
     FM261300 17005KT P6SM VCSH BKN050 BKN080
     FM261600 24006KT P6SM -SHRA BKN050 BKN080
     FM270100 16006KT P6SM BKN070 BKN090=



000
FTUS45 KSLC 260538
TAFBCE
TAF
KBCE 260538Z 2606/2706 28007KT P6SM SCT100
     FM261800 21011G18KT P6SM VCSH SCT080 BKN150
     FM270300 27009KT P6SM SCT100=



000
FTUS45 KSLC 260538
TAFLGU
TAF
KLGU 260538Z 2606/2706 VRB04KT P6SM SCT070 SCT200
     FM261000 VRB04KT P6SM BKN100 BKN200
     FM261400 VRB05KT P6SM -SHRA BKN050 OVC080
     FM270100 VRB04KT P6SM VCSH SCT070 BKN110=



000
FTUS45 KSLC 260538
TAFSGU
TAF
KSGU 260538Z 2606/2706 12004KT P6SM SCT100 BKN180
     FM262200 25011G20KT P6SM SKC
     FM270300 VRB04KT P6SM SKC
      AMD LTD TO CLD VIS AND WIND=



000
FTUS45 KSLC 260538
TAFSLC
TAFSLC
TAF
KSLC 260538Z 2606/2712 15009KT P6SM SCT100 SCT200
     FM260700 15009KT P6SM VCSH BKN090
     FM261500 15006KT P6SM -SHRA BKN050 OVC070
     FM262100 32007KT P6SM VCSH BKN060 BKN080
     FM270300 15007KT P6SM SCT060 BKN090=



000
FTUS45 KSLC 260538
TAFSLC
TAF
KSLC 260538Z 2606/2712 15009KT P6SM SCT100 SCT200
     FM260700 15009KT P6SM VCSH BKN090
     FM261500 15006KT P6SM -SHRA BKN050 OVC070
     FM262100 32007KT P6SM VCSH BKN060 BKN080
     FM270300 15007KT P6SM SCT060 BKN090=



000
FTUS45 KSLC 260538
TAFCDC
TAF
KCDC 260538Z 2606/2706 17005KT P6SM FEW100
     FM260800 15007KT P6SM VCSH FEW050 BKN090
     FM261700 21010G17KT P6SM SCT100
     FM270300 15006KT P6SM SCT100=



000
FTUS45 KSLC 260538
TAFBCE
TAF
KBCE 260538Z 2606/2706 28007KT P6SM SCT100
     FM261800 21011G18KT P6SM VCSH SCT080 BKN150
     FM270300 27009KT P6SM SCT100=



000
FTUS45 KSLC 260538
TAFENV
TAF
KENV 260538Z 2606/2706 21005KT P6SM BKN080 BKN120
     FM261400 11006KT P6SM VCSH BKN060 BKN100
     FM262000 27010G18KT P6SM -SHRA BKN050 BKN080
     FM270300 03009KT P6SM VCSH SCT080 BKN110
      AMD LTD TO CLD VIS AND WIND=



000
FTUS45 KSLC 260538
TAFLGU
TAF
KLGU 260538Z 2606/2706 VRB04KT P6SM SCT070 SCT200
     FM261000 VRB04KT P6SM BKN100 BKN200
     FM261400 VRB05KT P6SM -SHRA BKN050 OVC080
     FM270100 VRB04KT P6SM VCSH SCT070 BKN110=



000
FTUS45 KSLC 260538
TAFSLC
TAF
KSLC 260538Z 2606/2712 15009KT P6SM SCT100 SCT200
     FM260700 15009KT P6SM VCSH BKN090
     FM261500 15006KT P6SM -SHRA BKN050 OVC070
     FM262100 32007KT P6SM VCSH BKN060 BKN080
     FM270300 15007KT P6SM SCT060 BKN090=



000
FTUS45 KSLC 260538
TAFPVU
TAF
KPVU 260538Z 2606/2706 14006KT P6SM FEW100 SCT150
     FM260800 14004KT P6SM VCSH BKN060 BKN090
     FM261800 VRB05KT P6SM -SHRA BKN050 BKN080
     FM270100 VRB05KT P6SM VCSH BKN070 BKN090
      AMD LTD TO CLD VIS AND WIND=



000
FTUS45 KSLC 260538
TAFCDC
TAF
KCDC 260538Z 2606/2706 17005KT P6SM FEW100
     FM260800 15007KT P6SM VCSH FEW050 BKN090
     FM261700 21010G17KT P6SM SCT100
     FM270300 15006KT P6SM SCT100=



000
FTUS45 KSLC 260538
TAFOGD
TAF
KOGD 260538Z 2606/2706 15007KT P6SM BKN090
     FM261300 17005KT P6SM VCSH BKN050 BKN080
     FM261600 24006KT P6SM -SHRA BKN050 BKN080
     FM270100 16006KT P6SM BKN070 BKN090=



000
FTUS45 KSLC 260538
TAFLGU
TAFLGU
TAF
KLGU 260538Z 2606/2706 VRB04KT P6SM SCT070 SCT200
     FM261000 VRB04KT P6SM BKN100 BKN200
     FM261400 VRB05KT P6SM -SHRA BKN050 OVC080
     FM270100 VRB04KT P6SM VCSH SCT070 BKN110=



000
FTUS45 KSLC 260538
TAFSGU
TAF
KSGU 260538Z 2606/2706 12004KT P6SM SCT100 BKN180
     FM262200 25011G20KT P6SM SKC
     FM270300 VRB04KT P6SM SKC
      AMD LTD TO CLD VIS AND WIND=



000
FTUS45 KSLC 260538
TAFOGD
TAF
KOGD 260538Z 2606/2706 15007KT P6SM BKN090
     FM261300 17005KT P6SM VCSH BKN050 BKN080
     FM261600 24006KT P6SM -SHRA BKN050 BKN080
     FM270100 16006KT P6SM BKN070 BKN090=



000
FTUS45 KSLC 260538
TAFBCE
TAFBCE
TAF
KBCE 260538Z 2606/2706 28007KT P6SM SCT100
     FM261800 21011G18KT P6SM VCSH SCT080 BKN150
     FM270300 27009KT P6SM SCT100=



000
FTUS45 KSLC 260538
TAFSGU
TAFSGU
TAF
KSGU 260538Z 2606/2706 12004KT P6SM SCT100 BKN180
     FM262200 25011G20KT P6SM SKC
     FM270300 VRB04KT P6SM SKC
      AMD LTD TO CLD VIS AND WIND=



000
FTUS45 KSLC 260256
TAFSLC
TAFSLC
TAF AMD
KSLC 260256Z 2603/2706 34004KT P6SM VCSH FEW070 SCT100
     FM260400 15009KT P6SM SCT100 SCT200
     FM261100 16010KT P6SM VCSH BKN070 BKN090
     FM261500 15006KT P6SM -SHRA BKN050 OVC070
     FM262100 32007KT P6SM VCSH BKN060 BKN080=



000
FTUS45 KSLC 260256 AAC
TAFSLC
TAF AMD
KSLC 260256Z 2603/2706 34004KT P6SM VCSH FEW070 SCT100
     FM260400 15009KT P6SM SCT100 SCT200
     FM261100 16010KT P6SM VCSH BKN070 BKN090
     FM261500 15006KT P6SM -SHRA BKN050 OVC070
     FM262100 32007KT P6SM VCSH BKN060 BKN080=



000
FTUS45 KSLC 260122 AAB
TAFENV
TAF AMD
KENV 260122Z 2601/2624 02010KT P6SM VCTS BKN070CB BKN100
      TEMPO 2601/2602 33015G26KT P6SM -TSRA BKN060CB OVC100
     FM260200 02006KT P6SM BKN080 BKN120
     FM261400 11006KT P6SM VCSH BKN060 BKN100
     FM262000 06005KT P6SM -SHRA BKN050 BKN080
      AMD LTD TO CLD VIS AND WIND=



000
FTUS45 KSLC 260122
TAFENV
TAFENV
TAF AMD
KENV 260122Z 2601/2624 02010KT P6SM VCTS BKN070CB BKN100
      TEMPO 2601/2602 33015G26KT P6SM -TSRA BKN060CB OVC100
     FM260200 02006KT P6SM BKN080 BKN120
     FM261400 11006KT P6SM VCSH BKN060 BKN100
     FM262000 06005KT P6SM -SHRA BKN050 BKN080
      AMD LTD TO CLD VIS AND WIND=



000
FTUS45 KSLC 260122 AAB
TAFENV
TAF AMD
KENV 260122Z 2601/2624 02010KT P6SM VCTS BKN070CB BKN100
      TEMPO 2601/2602 33015G26KT P6SM -TSRA BKN060CB OVC100
     FM260200 02006KT P6SM BKN080 BKN120
     FM261400 11006KT P6SM VCSH BKN060 BKN100
     FM262000 06005KT P6SM -SHRA BKN050 BKN080
      AMD LTD TO CLD VIS AND WIND=



000
FTUS45 KSLC 260040 AAA
TAFENV
TAF AMD
KENV 260040Z 2601/2624 12007KT P6SM VCTS SCT070CB BKN100
      TEMPO 2601/2602 30011G20KT P6SM -TSRA BKN070CB OVC100
     FM260300 02006KT P6SM BKN080 BKN120
     FM261400 11006KT P6SM VCSH BKN060 BKN100
     FM262000 06005KT P6SM -SHRA BKN050 BKN080
      AMD LTD TO CLD VIS AND WIND=



000
FTUS45 KSLC 260040 AAA
TAFENV
TAF AMD
KENV 260040Z 2601/2624 12007KT P6SM VCTS SCT070CB BKN100
      TEMPO 2601/2602 30011G20KT P6SM -TSRA BKN070CB OVC100
     FM260300 02006KT P6SM BKN080 BKN120
     FM261400 11006KT P6SM VCSH BKN060 BKN100
     FM262000 06005KT P6SM -SHRA BKN050 BKN080
      AMD LTD TO CLD VIS AND WIND=



000
FTUS45 KSLC 260040
TAFENV
TAFENV
TAF AMD
KENV 260040Z 2601/2624 12007KT P6SM VCTS SCT070CB BKN100
      TEMPO 2601/2602 30011G20KT P6SM -TSRA BKN070CB OVC100
     FM260300 02006KT P6SM BKN080 BKN120
     FM261400 11006KT P6SM VCSH BKN060 BKN100
     FM262000 06005KT P6SM -SHRA BKN050 BKN080
      AMD LTD TO CLD VIS AND WIND=



000
FTUS45 KSLC 260040
TAFENV
TAFENV
TAF AMD
KENV 260040Z 2601/2624 12007KT P6SM VCTS SCT070CB BKN100
      TEMPO 2601/2602 30011G20KT P6SM -TSRA BKN070CB OVC100
     FM260300 02006KT P6SM BKN080 BKN120
     FM261400 11006KT P6SM VCSH BKN060 BKN100
     FM262000 06005KT P6SM -SHRA BKN050 BKN080
      AMD LTD TO CLD VIS AND WIND=



000
FTUS45 KSLC 252337
TAFSLC
TAF
KSLC 252337Z 2600/2706 30007KT P6SM FEW070 SCT100
     FM260400 15009KT P6SM SCT100 SCT200
     FM261100 16010KT P6SM VCSH BKN070 BKN090
     FM261500 15006KT P6SM -SHRA BKN050 OVC070
     FM262100 32007KT P6SM VCSH BKN060 BKN080=



000
FTUS45 KSLC 252337
TAFENV
TAF
KENV 252337Z 2600/2624 12007KT P6SM VCTS SCT060CB BKN100
     FM260300 02006KT P6SM BKN080 BKN120
     FM261400 11006KT P6SM VCSH BKN060 BKN100
     FM262000 06005KT P6SM -SHRA BKN050 BKN080
      AMD LTD TO CLD VIS AND WIND=



000
FTUS45 KSLC 252337
TAFBCE
TAFBCE
TAF
KBCE 252337Z 2600/2624 32010G18KT P6SM SCT090
     FM260100 29010KT P6SM FEW090
     FM260300 28007KT P6SM SKC
     FM261800 21011G18KT P6SM SCT080 BKN150=



000
FTUS45 KSLC 252337
TAFSGU
TAFSGU
TAF
KSGU 252337Z 2600/2624 25010G16KT P6SM SKC
     FM260100 25010KT P6SM SKC
     FM260400 06004KT P6SM SKC
     FM262200 25011G20KT P6SM SKC
      AMD LTD TO CLD VIS AND WIND=



000
FTUS45 KSLC 252337
TAFPVU
TAF
KPVU 252337Z 2600/2624 25006KT P6SM FEW080
     FM260200 14006KT P6SM FEW100 SCT150
     FM261300 14004KT P6SM VCSH BKN060 BKN090
     FM261800 VRB05KT P6SM -SHRA BKN050 BKN080
      AMD LTD TO CLD VIS AND WIND=



000
FTUS45 KSLC 252337
TAFSGU
TAF
KSGU 252337Z 2600/2624 25010G16KT P6SM SKC
     FM260100 25010KT P6SM SKC
     FM260400 06004KT P6SM SKC
     FM262200 25011G20KT P6SM SKC
      AMD LTD TO CLD VIS AND WIND=



000
FTUS45 KSLC 252337
TAFOGD
TAF
KOGD 252337Z 2600/2624 27006KT P6SM SCT070 SCT100
     FM260300 15007KT P6SM FEW100 SCT200
     FM261300 17005KT P6SM VCSH BKN050 BKN080
     FM261600 VRB05KT P6SM -SHRA BKN050 BKN080=



000
FTUS45 KSLC 252337
TAFCDC
TAF
KCDC 252337Z 2600/2624 27008KT P6SM FEW070 SCT100
     FM260200 17005KT P6SM FEW100
     FM261700 21010G17KT P6SM SCT100=



000
FTUS45 KSLC 252337
TAFOGD
TAF
KOGD 252337Z 2600/2624 27006KT P6SM SCT070 SCT100
     FM260300 15007KT P6SM FEW100 SCT200
     FM261300 17005KT P6SM VCSH BKN050 BKN080
     FM261600 VRB05KT P6SM -SHRA BKN050 BKN080=



000
FTUS45 KSLC 252337
TAFBCE
TAF
KBCE 252337Z 2600/2624 32010G18KT P6SM SCT090
     FM260100 29010KT P6SM FEW090
     FM260300 28007KT P6SM SKC
     FM261800 21011G18KT P6SM SCT080 BKN150=



000
FTUS45 KSLC 252337
TAFSLC
TAF
KSLC 252337Z 2600/2706 30007KT P6SM FEW070 SCT100
     FM260400 15009KT P6SM SCT100 SCT200
     FM261100 16010KT P6SM VCSH BKN070 BKN090
     FM261500 15006KT P6SM -SHRA BKN050 OVC070
     FM262100 32007KT P6SM VCSH BKN060 BKN080=



000
FTUS45 KSLC 252337
TAFCDC
TAF
KCDC 252337Z 2600/2624 27008KT P6SM FEW070 SCT100
     FM260200 17005KT P6SM FEW100
     FM261700 21010G17KT P6SM SCT100=



000
FTUS45 KSLC 252337
TAFLGU
TAF
KLGU 252337Z 2600/2624 35008KT P6SM VCSH BKN070 BKN100
     FM260400 VRB04KT P6SM SCT070 SCT200
     FM261000 VRB04KT P6SM BKN100 BKN200
     FM261400 VRB05KT P6SM -SHRA BKN050 OVC080=



000
FTUS45 KSLC 252337
TAFBCE
TAF
KBCE 252337Z 2600/2624 32010G18KT P6SM SCT090
     FM260100 29010KT P6SM FEW090
     FM260300 28007KT P6SM SKC
     FM261800 21011G18KT P6SM SCT080 BKN150=



000
FTUS45 KSLC 252337
TAFLGU
TAF
KLGU 252337Z 2600/2624 35008KT P6SM VCSH BKN070 BKN100
     FM260400 VRB04KT P6SM SCT070 SCT200
     FM261000 VRB04KT P6SM BKN100 BKN200
     FM261400 VRB05KT P6SM -SHRA BKN050 OVC080=



000
FTUS45 KSLC 252337
TAFSGU
TAF
KSGU 252337Z 2600/2624 25010G16KT P6SM SKC
     FM260100 25010KT P6SM SKC
     FM260400 06004KT P6SM SKC
     FM262200 25011G20KT P6SM SKC
      AMD LTD TO CLD VIS AND WIND=



000
FTUS45 KSLC 252337
TAFENV
TAF
KENV 252337Z 2600/2624 12007KT P6SM VCTS SCT060CB BKN100
     FM260300 02006KT P6SM BKN080 BKN120
     FM261400 11006KT P6SM VCSH BKN060 BKN100
     FM262000 06005KT P6SM -SHRA BKN050 BKN080
      AMD LTD TO CLD VIS AND WIND=



000
FTUS45 KSLC 252337
TAFPVU
TAF
KPVU 252337Z 2600/2624 25006KT P6SM FEW080
     FM260200 14006KT P6SM FEW100 SCT150
     FM261300 14004KT P6SM VCSH BKN060 BKN090
     FM261800 VRB05KT P6SM -SHRA BKN050 BKN080
      AMD LTD TO CLD VIS AND WIND=



000
FTUS45 KSLC 252337
TAFENV
TAFENV
TAF
KENV 252337Z 2600/2624 12007KT P6SM VCTS SCT060CB BKN100
     FM260300 02006KT P6SM BKN080 BKN120
     FM261400 11006KT P6SM VCSH BKN060 BKN100
     FM262000 06005KT P6SM -SHRA BKN050 BKN080
      AMD LTD TO CLD VIS AND WIND=



000
FTUS45 KSLC 252337
TAFLGU
TAFLGU
TAF
KLGU 252337Z 2600/2624 35008KT P6SM VCSH BKN070 BKN100
     FM260400 VRB04KT P6SM SCT070 SCT200
     FM261000 VRB04KT P6SM BKN100 BKN200
     FM261400 VRB05KT P6SM -SHRA BKN050 OVC080=



000
FTUS45 KSLC 252337
TAFOGD
TAFOGD
TAF
KOGD 252337Z 2600/2624 27006KT P6SM SCT070 SCT100
     FM260300 15007KT P6SM FEW100 SCT200
     FM261300 17005KT P6SM VCSH BKN050 BKN080
     FM261600 VRB05KT P6SM -SHRA BKN050 BKN080=



000
FTUS45 KSLC 252337
TAFPVU
TAFPVU
TAF
KPVU 252337Z 2600/2624 25006KT P6SM FEW080
     FM260200 14006KT P6SM FEW100 SCT150
     FM261300 14004KT P6SM VCSH BKN060 BKN090
     FM261800 VRB05KT P6SM -SHRA BKN050 BKN080
      AMD LTD TO CLD VIS AND WIND=



000
FTUS45 KSLC 252337
TAFSLC
TAFSLC
TAF
KSLC 252337Z 2600/2706 30007KT P6SM FEW070 SCT100
     FM260400 15009KT P6SM SCT100 SCT200
     FM261100 16010KT P6SM VCSH BKN070 BKN090
     FM261500 15006KT P6SM -SHRA BKN050 OVC070
     FM262100 32007KT P6SM VCSH BKN060 BKN080=



000
FTUS45 KSLC 252337
TAFLGU
TAFLGU
TAF
KLGU 252337Z 2600/2624 35008KT P6SM VCSH BKN070 BKN100
     FM260400 VRB04KT P6SM SCT070 SCT200
     FM261000 VRB04KT P6SM BKN100 BKN200
     FM261400 VRB05KT P6SM -SHRA BKN050 OVC080=



000
FTUS45 KSLC 252337
TAFCDC
TAFCDC
TAF
KCDC 252337Z 2600/2624 27008KT P6SM FEW070 SCT100
     FM260200 17005KT P6SM FEW100
     FM261700 21010G17KT P6SM SCT100=



000
FTUS45 KSLC 252337
TAFPVU
TAFPVU
TAF
KPVU 252337Z 2600/2624 25006KT P6SM FEW080
     FM260200 14006KT P6SM FEW100 SCT150
     FM261300 14004KT P6SM VCSH BKN060 BKN090
     FM261800 VRB05KT P6SM -SHRA BKN050 BKN080
      AMD LTD TO CLD VIS AND WIND=



000
FTUS45 KSLC 252337
TAFCDC
TAFCDC
TAF
KCDC 252337Z 2600/2624 27008KT P6SM FEW070 SCT100
     FM260200 17005KT P6SM FEW100
     FM261700 21010G17KT P6SM SCT100=



000
FTUS45 KSLC 252337
TAFOGD
TAFOGD
TAF
KOGD 252337Z 2600/2624 27006KT P6SM SCT070 SCT100
     FM260300 15007KT P6SM FEW100 SCT200
     FM261300 17005KT P6SM VCSH BKN050 BKN080
     FM261600 VRB05KT P6SM -SHRA BKN050 BKN080=



000
FTUS45 KSLC 252337
TAFSLC
TAF
KSLC 252337Z 2600/2706 30007KT P6SM FEW070 SCT100
     FM260400 15009KT P6SM SCT100 SCT200
     FM261100 16010KT P6SM VCSH BKN070 BKN090
     FM261500 15006KT P6SM -SHRA BKN050 OVC070
     FM262100 32007KT P6SM VCSH BKN060 BKN080=



000
FTUS45 KSLC 252337
TAFSLC
TAFSLC
TAF
KSLC 252337Z 2600/2706 30007KT P6SM FEW070 SCT100
     FM260400 15009KT P6SM SCT100 SCT200
     FM261100 16010KT P6SM VCSH BKN070 BKN090
     FM261500 15006KT P6SM -SHRA BKN050 OVC070
     FM262100 32007KT P6SM VCSH BKN060 BKN080=



000
FTUS45 KSLC 252337
TAFBCE
TAF
KBCE 252337Z 2600/2624 32010G18KT P6SM SCT090
     FM260100 29010KT P6SM FEW090
     FM260300 28007KT P6SM SKC
     FM261800 21011G18KT P6SM SCT080 BKN150=



000
FTUS45 KSLC 252337
TAFENV
TAF
KENV 252337Z 2600/2624 12007KT P6SM VCTS SCT060CB BKN100
     FM260300 02006KT P6SM BKN080 BKN120
     FM261400 11006KT P6SM VCSH BKN060 BKN100
     FM262000 06005KT P6SM -SHRA BKN050 BKN080
      AMD LTD TO CLD VIS AND WIND=



000
FTUS45 KSLC 252337
TAFBCE
TAFBCE
TAF
KBCE 252337Z 2600/2624 32010G18KT P6SM SCT090
     FM260100 29010KT P6SM FEW090
     FM260300 28007KT P6SM SKC
     FM261800 21011G18KT P6SM SCT080 BKN150=



000
FTUS45 KSLC 252337
TAFSGU
TAFSGU
TAF
KSGU 252337Z 2600/2624 25010G16KT P6SM SKC
     FM260100 25010KT P6SM SKC
     FM260400 06004KT P6SM SKC
     FM262200 25011G20KT P6SM SKC
      AMD LTD TO CLD VIS AND WIND=



000
FTUS45 KSLC 252337
TAFENV
TAF
KENV 252337Z 2600/2624 12007KT P6SM VCTS SCT060CB BKN100
     FM260300 02006KT P6SM BKN080 BKN120
     FM261400 11006KT P6SM VCSH BKN060 BKN100
     FM262000 06005KT P6SM -SHRA BKN050 BKN080
      AMD LTD TO CLD VIS AND WIND=



000
FTUS45 KSLC 252337
TAFSGU
TAF
KSGU 252337Z 2600/2624 25010G16KT P6SM SKC
     FM260100 25010KT P6SM SKC
     FM260400 06004KT P6SM SKC
     FM262200 25011G20KT P6SM SKC
      AMD LTD TO CLD VIS AND WIND=



000
FTUS45 KSLC 252337
TAFBCE
TAF
KBCE 252337Z 2600/2624 32010G18KT P6SM SCT090
     FM260100 29010KT P6SM FEW090
     FM260300 28007KT P6SM SKC
     FM261800 21011G18KT P6SM SCT080 BKN150=



000
FTUS45 KSLC 252337
TAFENV
TAFENV
TAF
KENV 252337Z 2600/2624 12007KT P6SM VCTS SCT060CB BKN100
     FM260300 02006KT P6SM BKN080 BKN120
     FM261400 11006KT P6SM VCSH BKN060 BKN100
     FM262000 06005KT P6SM -SHRA BKN050 BKN080
      AMD LTD TO CLD VIS AND WIND=



000
FTUS45 KSLC 252337
TAFSLC
TAF
KSLC 252337Z 2600/2706 30007KT P6SM FEW070 SCT100
     FM260400 15009KT P6SM SCT100 SCT200
     FM261100 16010KT P6SM VCSH BKN070 BKN090
     FM261500 15006KT P6SM -SHRA BKN050 OVC070
     FM262100 32007KT P6SM VCSH BKN060 BKN080=



000
FTUS45 KSLC 252337
TAFOGD
TAF
KOGD 252337Z 2600/2624 27006KT P6SM SCT070 SCT100
     FM260300 15007KT P6SM FEW100 SCT200
     FM261300 17005KT P6SM VCSH BKN050 BKN080
     FM261600 VRB05KT P6SM -SHRA BKN050 BKN080=



000
FTUS45 KSLC 252337
TAFSGU
TAF
KSGU 252337Z 2600/2624 25010G16KT P6SM SKC
     FM260100 25010KT P6SM SKC
     FM260400 06004KT P6SM SKC
     FM262200 25011G20KT P6SM SKC
      AMD LTD TO CLD VIS AND WIND=



000
FTUS45 KSLC 252337
TAFPVU
TAF
KPVU 252337Z 2600/2624 25006KT P6SM FEW080
     FM260200 14006KT P6SM FEW100 SCT150
     FM261300 14004KT P6SM VCSH BKN060 BKN090
     FM261800 VRB05KT P6SM -SHRA BKN050 BKN080
      AMD LTD TO CLD VIS AND WIND=



000
FTUS45 KSLC 252337
TAFLGU
TAF
KLGU 252337Z 2600/2624 35008KT P6SM VCSH BKN070 BKN100
     FM260400 VRB04KT P6SM SCT070 SCT200
     FM261000 VRB04KT P6SM BKN100 BKN200
     FM261400 VRB05KT P6SM -SHRA BKN050 OVC080=



000
FTUS45 KSLC 252337
TAFCDC
TAF
KCDC 252337Z 2600/2624 27008KT P6SM FEW070 SCT100
     FM260200 17005KT P6SM FEW100
     FM261700 21010G17KT P6SM SCT100=



000
FTUS45 KSLC 252337
TAFCDC
TAF
KCDC 252337Z 2600/2624 27008KT P6SM FEW070 SCT100
     FM260200 17005KT P6SM FEW100
     FM261700 21010G17KT P6SM SCT100=



000
FTUS45 KSLC 252337
TAFPVU
TAF
KPVU 252337Z 2600/2624 25006KT P6SM FEW080
     FM260200 14006KT P6SM FEW100 SCT150
     FM261300 14004KT P6SM VCSH BKN060 BKN090
     FM261800 VRB05KT P6SM -SHRA BKN050 BKN080
      AMD LTD TO CLD VIS AND WIND=



000
FTUS45 KSLC 252205 AAA
TAFBCE
TAF AMD
KBCE 252205Z 2522/2618 32010G16KT P6SM FEW090
     FM260100 29010KT P6SM FEW090
     FM260300 28007KT P6SM SKC=



000
FTUS45 KSLC 252205 AAA
TAFBCE
TAF AMD
KBCE 252205Z 2522/2618 32010G16KT P6SM FEW090
     FM260100 29010KT P6SM FEW090
     FM260300 28007KT P6SM SKC=



000
FTUS45 KSLC 252205
TAFBCE
TAFBCE
TAF AMD
KBCE 252205Z 2522/2618 32010G16KT P6SM FEW090
     FM260100 29010KT P6SM FEW090
     FM260300 28007KT P6SM SKC=



000
FTUS45 KSLC 252205 AAA
TAFBCE
TAF AMD
KBCE 252205Z 2522/2618 32010G16KT P6SM FEW090
     FM260100 29010KT P6SM FEW090
     FM260300 28007KT P6SM SKC=



000
FTUS45 KSLC 252205
TAFBCE
TAFBCE
TAF AMD
KBCE 252205Z 2522/2618 32010G16KT P6SM FEW090
     FM260100 29010KT P6SM FEW090
     FM260300 28007KT P6SM SKC=



000
FTUS45 KSLC 252059 AAB
TAFSLC
TAF AMD
KSLC 252059Z 2521/2624 30007KT P6SM FEW070 SCT100
     FM260400 15009KT P6SM SCT100 SCT200
     FM261100 16010KT P6SM VCSH BKN070 BKN090
     FM261500 15006KT P6SM -SHRA BKN050 OVC070
     FM262100 32007KT P6SM VCSH BKN060 BKN080=



000
FTUS45 KSLC 252059
TAFSLC
TAFSLC
TAF AMD
KSLC 252059Z 2521/2624 30007KT P6SM FEW070 SCT100
     FM260400 15009KT P6SM SCT100 SCT200
     FM261100 16010KT P6SM VCSH BKN070 BKN090
     FM261500 15006KT P6SM -SHRA BKN050 OVC070
     FM262100 32007KT P6SM VCSH BKN060 BKN080=



000
FTUS45 KSLC 252045
TAFENV
TAFENV
TAF AMD
KENV 252045Z 2521/2618 VRB10G18KT P6SM -TSRA SCT070CB BKN100
     FM252115 VRB06KT P6SM FEW080 SCT100
     FM260000 29007KT P6SM VCTS SCT060CB BKN100
     FM260300 02006KT P6SM BKN080 BKN120
     FM261400 11006KT P6SM VCSH BKN060 BKN100
      AMD LTD TO CLD VIS AND WIND=



000
FTUS45 KSLC 252045
TAFENV
TAFENV
TAF AMD
KENV 252045Z 2521/2618 VRB10G18KT P6SM -TSRA SCT070CB BKN100
     FM252115 VRB06KT P6SM FEW080 SCT100
     FM260000 29007KT P6SM VCTS SCT060CB BKN100
     FM260300 02006KT P6SM BKN080 BKN120
     FM261400 11006KT P6SM VCSH BKN060 BKN100
      AMD LTD TO CLD VIS AND WIND=



000
FTUS45 KSLC 252045 AAA
TAFENV
TAF AMD
KENV 252045Z 2521/2618 VRB10G18KT P6SM -TSRA SCT070CB BKN100
     FM252115 VRB06KT P6SM FEW080 SCT100
     FM260000 29007KT P6SM VCTS SCT060CB BKN100
     FM260300 02006KT P6SM BKN080 BKN120
     FM261400 11006KT P6SM VCSH BKN060 BKN100
      AMD LTD TO CLD VIS AND WIND=



000
FTUS45 KSLC 252045 AAA
TAFENV
TAF AMD
KENV 252045Z 2521/2618 VRB10G18KT P6SM -TSRA SCT070CB BKN100
     FM252115 VRB06KT P6SM FEW080 SCT100
     FM260000 29007KT P6SM VCTS SCT060CB BKN100
     FM260300 02006KT P6SM BKN080 BKN120
     FM261400 11006KT P6SM VCSH BKN060 BKN100
      AMD LTD TO CLD VIS AND WIND=



000
FTUS45 KSLC 252023 AAA
TAFLGU
TAF AMD
KLGU 252023Z 2520/2618 VRB04KT P6SM VCSH SCT070 BKN100
      TEMPO 2520/2522 VRB10G20KT -TSRA BKN040CB OVC070
     FM260200 VRB04KT P6SM SCT100 SCT200
     FM261000 VRB04KT P6SM BKN100 BKN200=



000
FTUS45 KSLC 252023 AAA
TAFLGU
TAF AMD
KLGU 252023Z 2520/2618 VRB04KT P6SM VCSH SCT070 BKN100
      TEMPO 2520/2522 VRB10G20KT -TSRA BKN040CB OVC070
     FM260200 VRB04KT P6SM SCT100 SCT200
     FM261000 VRB04KT P6SM BKN100 BKN200=



000
FTUS45 KSLC 252023 AAA
TAFLGU
TAF AMD
KLGU 252023Z 2520/2618 VRB04KT P6SM VCSH SCT070 BKN100
      TEMPO 2520/2522 VRB10G20KT -TSRA BKN040CB OVC070
     FM260200 VRB04KT P6SM SCT100 SCT200
     FM261000 VRB04KT P6SM BKN100 BKN200=



000
FTUS45 KSLC 252023 AAA
TAFLGU
TAF AMD
KLGU 252023Z 2520/2618 VRB04KT P6SM VCSH SCT070 BKN100
      TEMPO 2520/2522 VRB10G20KT -TSRA BKN040CB OVC070
     FM260200 VRB04KT P6SM SCT100 SCT200
     FM261000 VRB04KT P6SM BKN100 BKN200=



000
FTUS45 KSLC 251759
TAFOGD
TAFOGD
TAF AMD
KOGD 251759Z 2518/2618 32006KT P6SM SCT070 SCT100
      TEMPO 2518/2519 VRB10G20KT -TSRA BKN060CB BKN100
     FM260300 15007KT P6SM FEW100 SCT200
     FM261300 17005KT P6SM VCSH BKN050 BKN080=



000
FTUS45 KSLC 251759 AAA
TAFOGD
TAF AMD
KOGD 251759Z 2518/2618 32006KT P6SM SCT070 SCT100
      TEMPO 2518/2519 VRB10G20KT -TSRA BKN060CB BKN100
     FM260300 15007KT P6SM FEW100 SCT200
     FM261300 17005KT P6SM VCSH BKN050 BKN080=



000
FTUS45 KSLC 251759 AAA
TAFOGD
TAF AMD
KOGD 251759Z 2518/2618 32006KT P6SM SCT070 SCT100
      TEMPO 2518/2519 VRB10G20KT -TSRA BKN060CB BKN100
     FM260300 15007KT P6SM FEW100 SCT200
     FM261300 17005KT P6SM VCSH BKN050 BKN080=



000
FTUS45 KSLC 251740
TAFOGD
TAF
KOGD 251740Z 2518/2618 32006KT P6SM SCT070 SCT100
     FM260300 15007KT P6SM FEW100 SCT200
     FM261300 17005KT P6SM VCSH BKN050 BKN080=



000
FTUS45 KSLC 251740
TAFSGU
TAF
KSGU 251740Z 2518/2618 VRB04KT P6SM SKC
     FM252200 23008G16KT P6SM SCT120
     FM260200 VRB04KT P6SM SKC
      AMD LTD TO CLD VIS AND WIND=



000
FTUS45 KSLC 251740
TAFBCE
TAF
KBCE 251740Z 2518/2618 28010G16KT P6SM VCSH SCT050 SCT090
     FM252000 29010KT P6SM FEW050 SCT090
     FM260300 28007KT P6SM SCT090=



000
FTUS45 KSLC 251740
TAFPVU
TAF
KPVU 251740Z 2518/2618 25006KT P6SM VCSH SCT060 SCT100
     FM260200 14006KT P6SM FEW100 SCT150
     FM261300 14004KT P6SM VCSH BKN060 BKN090
      AMD LTD TO CLD VIS AND WIND=



000
FTUS45 KSLC 251740
TAFENV
TAF
KENV 251740Z 2518/2618 11007KT P6SM SCT100
     FM260000 29007KT P6SM VCTS SCT060CB BKN100
     FM260300 02006KT P6SM BKN080 BKN120
     FM261400 11006KT P6SM VCSH BKN060 BKN100
      AMD LTD TO CLD VIS AND WIND=



000
FTUS45 KSLC 251740
TAFSLC
TAF
KSLC 251740Z 2518/2624 33007KT P6SM FEW070 SCT100
     FM260300 16009KT P6SM SCT100 SCT200
     FM261100 16007KT P6SM VCSH BKN070 BKN090
     FM261500 15006KT P6SM -SHRA BKN050 OVC070
     FM262100 32007KT P6SM VCSH BKN060 BKN080=



000
FTUS45 KSLC 251740
TAFSLC
TAF
KSLC 251740Z 2518/2624 33007KT P6SM FEW070 SCT100
     FM260300 16009KT P6SM SCT100 SCT200
     FM261100 16007KT P6SM VCSH BKN070 BKN090
     FM261500 15006KT P6SM -SHRA BKN050 OVC070
     FM262100 32007KT P6SM VCSH BKN060 BKN080=



000
FTUS45 KSLC 251740
TAFLGU
TAF
KLGU 251740Z 2518/2618 VRB04KT P6SM FEW070 SCT100
     FM260200 VRB04KT P6SM SCT100 SCT200
     FM261000 VRB04KT P6SM BKN100 BKN200=



000
FTUS45 KSLC 251740
TAFSGU
TAF
KSGU 251740Z 2518/2618 VRB04KT P6SM SKC
     FM252200 23008G16KT P6SM SCT120
     FM260200 VRB04KT P6SM SKC
      AMD LTD TO CLD VIS AND WIND=



000
FTUS45 KSLC 251740
TAFLGU
TAF
KLGU 251740Z 2518/2618 VRB04KT P6SM FEW070 SCT100
     FM260200 VRB04KT P6SM SCT100 SCT200
     FM261000 VRB04KT P6SM BKN100 BKN200=



000
FTUS45 KSLC 251740
TAFCDC
TAF
KCDC 251740Z 2518/2618 24008KT P6SM FEW070 SCT100
     FM260300 17009KT P6SM SCT100
     FM261700 21010G17KT P6SM SCT100=



000
FTUS45 KSLC 251740
TAFCDC
TAF
KCDC 251740Z 2518/2618 24008KT P6SM FEW070 SCT100
     FM260300 17009KT P6SM SCT100
     FM261700 21010G17KT P6SM SCT100=



000
FTUS45 KSLC 251740
TAFPVU
TAF
KPVU 251740Z 2518/2618 25006KT P6SM VCSH SCT060 SCT100
     FM260200 14006KT P6SM FEW100 SCT150
     FM261300 14004KT P6SM VCSH BKN060 BKN090
      AMD LTD TO CLD VIS AND WIND=



000
FTUS45 KSLC 251740
TAFBCE
TAF
KBCE 251740Z 2518/2618 28010G16KT P6SM VCSH SCT050 SCT090
     FM252000 29010KT P6SM FEW050 SCT090
     FM260300 28007KT P6SM SCT090=



000
FTUS45 KSLC 251740
TAFOGD
TAF
KOGD 251740Z 2518/2618 32006KT P6SM SCT070 SCT100
     FM260300 15007KT P6SM FEW100 SCT200
     FM261300 17005KT P6SM VCSH BKN050 BKN080=



000
FTUS45 KSLC 251740
TAFENV
TAF
KENV 251740Z 2518/2618 11007KT P6SM SCT100
     FM260000 29007KT P6SM VCTS SCT060CB BKN100
     FM260300 02006KT P6SM BKN080 BKN120
     FM261400 11006KT P6SM VCSH BKN060 BKN100
      AMD LTD TO CLD VIS AND WIND=



000
FTUS45 KSLC 251740
TAFENV
TAFENV
TAF
KENV 251740Z 2518/2618 11007KT P6SM SCT100
     FM260000 29007KT P6SM VCTS SCT060CB BKN100
     FM260300 02006KT P6SM BKN080 BKN120
     FM261400 11006KT P6SM VCSH BKN060 BKN100
      AMD LTD TO CLD VIS AND WIND=



000
FTUS45 KSLC 251740
TAFPVU
TAFPVU
TAF
KPVU 251740Z 2518/2618 25006KT P6SM VCSH SCT060 SCT100
     FM260200 14006KT P6SM FEW100 SCT150
     FM261300 14004KT P6SM VCSH BKN060 BKN090
      AMD LTD TO CLD VIS AND WIND=



000
FTUS45 KSLC 251740
TAFCDC
TAFCDC
TAF
KCDC 251740Z 2518/2618 24008KT P6SM FEW070 SCT100
     FM260300 17009KT P6SM SCT100
     FM261700 21010G17KT P6SM SCT100=



000
FTUS45 KSLC 251740
TAFLGU
TAFLGU
TAF
KLGU 251740Z 2518/2618 VRB04KT P6SM FEW070 SCT100
     FM260200 VRB04KT P6SM SCT100 SCT200
     FM261000 VRB04KT P6SM BKN100 BKN200=



000
FTUS45 KSLC 251740
TAFSGU
TAFSGU
TAF
KSGU 251740Z 2518/2618 VRB04KT P6SM SKC
     FM252200 23008G16KT P6SM SCT120
     FM260200 VRB04KT P6SM SKC
      AMD LTD TO CLD VIS AND WIND=



000
FTUS45 KSLC 251740
TAFOGD
TAFOGD
TAF
KOGD 251740Z 2518/2618 32006KT P6SM SCT070 SCT100
     FM260300 15007KT P6SM FEW100 SCT200
     FM261300 17005KT P6SM VCSH BKN050 BKN080=



000
FTUS45 KSLC 251740
TAFSLC
TAFSLC
TAF
KSLC 251740Z 2518/2624 33007KT P6SM FEW070 SCT100
     FM260300 16009KT P6SM SCT100 SCT200
     FM261100 16007KT P6SM VCSH BKN070 BKN090
     FM261500 15006KT P6SM -SHRA BKN050 OVC070
     FM262100 32007KT P6SM VCSH BKN060 BKN080=



000
FTUS45 KSLC 251740
TAFBCE
TAFBCE
TAF
KBCE 251740Z 2518/2618 28010G16KT P6SM VCSH SCT050 SCT090
     FM252000 29010KT P6SM FEW050 SCT090
     FM260300 28007KT P6SM SCT090=



000
FTUS45 KSLC 251620 AAA
TAFBCE
TAF AMD
KBCE 251620Z 2516/2612 28010G16KT P6SM SCT060 SCT090
     FM260300 28007KT P6SM SCT090=



000
FTUS45 KSLC 251620 AAA
TAFBCE
TAF AMD
KBCE 251620Z 2516/2612 28010G16KT P6SM SCT060 SCT090
     FM260300 28007KT P6SM SCT090=



000
FTUS45 KSLC 251620
TAFBCE
TAFBCE
TAF AMD
KBCE 251620Z 2516/2612 28010G16KT P6SM SCT060 SCT090
     FM260300 28007KT P6SM SCT090=



000
FTUS45 KSLC 251615 AAA
TAFOGD
TAF AMD
KOGD 251615Z 2516/2612 17006KT P6SM BKN070 BKN090
      TEMPO 2516/2517 BKN025
     FM251800 32006KT P6SM FEW070 SCT100
     FM260300 15007KT P6SM FEW100 SCT200=



000
FTUS45 KSLC 251615 AAA
TAFOGD
TAF AMD
KOGD 251615Z 2516/2612 17006KT P6SM BKN070 BKN090
      TEMPO 2516/2517 BKN025
     FM251800 32006KT P6SM FEW070 SCT100
     FM260300 15007KT P6SM FEW100 SCT200=



000
FTUS45 KSLC 251615
TAFOGD
TAFOGD
TAF AMD
KOGD 251615Z 2516/2612 17006KT P6SM BKN070 BKN090
      TEMPO 2516/2517 BKN025
     FM251800 32006KT P6SM FEW070 SCT100
     FM260300 15007KT P6SM FEW100 SCT200=



000
FTUS45 KSLC 251615 AAA
TAFOGD
TAF AMD
KOGD 251615Z 2516/2612 17006KT P6SM BKN070 BKN090
      TEMPO 2516/2517 BKN025
     FM251800 32006KT P6SM FEW070 SCT100
     FM260300 15007KT P6SM FEW100 SCT200=



000
FTUS45 KSLC 251451 AAA
TAFSLC
TAF AMD
KSLC 251451Z 2515/2618 15006KT P6SM SCT070 BKN090
     FM251800 33007KT P6SM FEW070 SCT100
     FM260300 16009KT P6SM SCT100 SCT200=



000
FTUS45 KSLC 251451 AAA
TAFSLC
TAF AMD
KSLC 251451Z 2515/2618 15006KT P6SM SCT070 BKN090
     FM251800 33007KT P6SM FEW070 SCT100
     FM260300 16009KT P6SM SCT100 SCT200=



000
FTUS45 KSLC 251451
TAFSLC
TAFSLC
TAF AMD
KSLC 251451Z 2515/2618 15006KT P6SM SCT070 BKN090
     FM251800 33007KT P6SM FEW070 SCT100
     FM260300 16009KT P6SM SCT100 SCT200=



000
FTUS45 KSLC 251120
TAFENV
TAFENV
TAF
KENV 251120Z 2512/2612 32008KT P6SM SCT060 BKN090
     FM251700 11007KT P6SM SCT100
     FM252300 29007KT P6SM SCT080 BKN120
      AMD LTD TO CLD VIS AND WIND=



000
FTUS45 KSLC 251120
TAFOGD
TAFOGD
TAF
KOGD 251120Z 2512/2612 19005KT P6SM VCSH SCT040 BKN070
      TEMPO 2512/2514 -SHRA BKN045
     FM251400 17006KT P6SM BKN070 BKN090
     FM251800 32006KT P6SM FEW070 SCT100
     FM260300 15007KT P6SM FEW100 SCT200=



000
FTUS45 KSLC 251120
TAFOGD
TAF
KOGD 251120Z 2512/2612 19005KT P6SM VCSH SCT040 BKN070
      TEMPO 2512/2514 -SHRA BKN045
     FM251400 17006KT P6SM BKN070 BKN090
     FM251800 32006KT P6SM FEW070 SCT100
     FM260300 15007KT P6SM FEW100 SCT200=



000
FTUS45 KSLC 251120
TAFLGU
TAFLGU
TAF
KLGU 251120Z 2512/2612 VRB04KT P6SM VCSH BKN060 OVC080
     FM251900 VRB04KT P6SM FEW070 SCT100
     FM260200 VRB04KT P6SM SCT100 SCT200=



000
FTUS45 KSLC 251120
TAFSLC
TAF
KSLC 251120Z 2512/2618 15006KT P6SM VCSH FEW035 BKN060
      TEMPO 2512/2515 32005KT 6SM SHRA FEW035 BKN050
     FM251500 15006KT P6SM FEW060 BKN090
     FM251800 33007KT P6SM FEW070 SCT100
     FM260300 16009KT P6SM SCT100 SCT200=



000
FTUS45 KSLC 251120
TAFCDC
TAF
KCDC 251120Z 2512/2612 VRB04KT P6SM SCT060 BKN090
     FM251800 24008KT P6SM SCT070 SCT100
     FM260300 17009KT P6SM SCT090=



000
FTUS45 KSLC 251120
TAFPVU
TAFPVU
TAF
KPVU 251120Z 2512/2612 VRB04KT P6SM VCSH SCT060 BKN090
      TEMPO 2512/2515 -RA BKN050 OVC070
     FM251800 25006KT P6SM FEW070 SCT100
     FM260200 14006KT P6SM FEW100 SCT150
      AMD LTD TO CLD VIS AND WIND=



000
FTUS45 KSLC 251120
TAFSLC
TAFSLC
TAF
KSLC 251120Z 2512/2618 15006KT P6SM VCSH FEW035 BKN060
      TEMPO 2512/2515 32005KT 6SM SHRA FEW035 BKN050
     FM251500 15006KT P6SM FEW060 BKN090
     FM251800 33007KT P6SM FEW070 SCT100
     FM260300 16009KT P6SM SCT100 SCT200=



000
FTUS45 KSLC 251120
TAFCDC
TAFCDC
TAF
KCDC 251120Z 2512/2612 VRB04KT P6SM SCT060 BKN090
     FM251800 24008KT P6SM SCT070 SCT100
     FM260300 17009KT P6SM SCT090=



000
FTUS45 KSLC 251120
TAFPVU
TAF
KPVU 251120Z 2512/2612 VRB04KT P6SM VCSH SCT060 BKN090
      TEMPO 2512/2515 -RA BKN050 OVC070
     FM251800 25006KT P6SM FEW070 SCT100
     FM260200 14006KT P6SM FEW100 SCT150
      AMD LTD TO CLD VIS AND WIND=



000
FTUS45 KSLC 251120
TAFOGD
TAF
KOGD 251120Z 2512/2612 19005KT P6SM VCSH SCT040 BKN070
      TEMPO 2512/2514 -SHRA BKN045
     FM251400 17006KT P6SM BKN070 BKN090
     FM251800 32006KT P6SM FEW070 SCT100
     FM260300 15007KT P6SM FEW100 SCT200=



000
FTUS45 KSLC 251120
TAFENV
TAF
KENV 251120Z 2512/2612 32008KT P6SM SCT060 BKN090
     FM251700 11007KT P6SM SCT100
     FM252300 29007KT P6SM SCT080 BKN120
      AMD LTD TO CLD VIS AND WIND=



000
FTUS45 KSLC 251120
TAFLGU
TAF
KLGU 251120Z 2512/2612 VRB04KT P6SM VCSH BKN060 OVC080
     FM251900 VRB04KT P6SM FEW070 SCT100
     FM260200 VRB04KT P6SM SCT100 SCT200=



000
FTUS45 KSLC 251120
TAFSGU
TAF
KSGU 251120Z 2512/2612 VRB04KT P6SM FEW070 SCT100
     FM252000 23008G16KT P6SM SCT120
     FM260200 VRB04KT P6SM FEW100 FEW150
      AMD LTD TO CLD VIS AND WIND=



000
FTUS45 KSLC 251120
TAFPVU
TAF
KPVU 251120Z 2512/2612 VRB04KT P6SM VCSH SCT060 BKN090
      TEMPO 2512/2515 -RA BKN050 OVC070
     FM251800 25006KT P6SM FEW070 SCT100
     FM260200 14006KT P6SM FEW100 SCT150
      AMD LTD TO CLD VIS AND WIND=



000
FTUS45 KSLC 251120
TAFBCE
TAF
KBCE 251120Z 2512/2612 29008KT P6SM FEW020 BKN035
     FM251400 28007KT P6SM SCT035 BKN080
     FM251800 29010KT P6SM SCT060 SCT090
     FM260300 28007KT P6SM SCT090=



000
FTUS45 KSLC 251120
TAFBCE
TAFBCE
TAF
KBCE 251120Z 2512/2612 29008KT P6SM FEW020 BKN035
     FM251400 28007KT P6SM SCT035 BKN080
     FM251800 29010KT P6SM SCT060 SCT090
     FM260300 28007KT P6SM SCT090=



000
FTUS45 KSLC 251120
TAFSGU
TAFSGU
TAF
KSGU 251120Z 2512/2612 VRB04KT P6SM FEW070 SCT100
     FM252000 23008G16KT P6SM SCT120
     FM260200 VRB04KT P6SM FEW100 FEW150
      AMD LTD TO CLD VIS AND WIND=



000
FTUS45 KSLC 251120
TAFSGU
TAF
KSGU 251120Z 2512/2612 VRB04KT P6SM FEW070 SCT100
     FM252000 23008G16KT P6SM SCT120
     FM260200 VRB04KT P6SM FEW100 FEW150
      AMD LTD TO CLD VIS AND WIND=



000
FTUS45 KSLC 251120
TAFBCE
TAF
KBCE 251120Z 2512/2612 29008KT P6SM FEW020 BKN035
     FM251400 28007KT P6SM SCT035 BKN080
     FM251800 29010KT P6SM SCT060 SCT090
     FM260300 28007KT P6SM SCT090=



000
FTUS45 KSLC 251120
TAFSLC
TAF
KSLC 251120Z 2512/2618 15006KT P6SM VCSH FEW035 BKN060
      TEMPO 2512/2515 32005KT 6SM SHRA FEW035 BKN050
     FM251500 15006KT P6SM FEW060 BKN090
     FM251800 33007KT P6SM FEW070 SCT100
     FM260300 16009KT P6SM SCT100 SCT200=



000
FTUS45 KSLC 251120
TAFCDC
TAF
KCDC 251120Z 2512/2612 VRB04KT P6SM SCT060 BKN090
     FM251800 24008KT P6SM SCT070 SCT100
     FM260300 17009KT P6SM SCT090=



000
FTUS45 KSLC 251024 AAA
TAFOGD
TAF AMD
KOGD 251024Z 2510/2606 19005KT P6SM VCSH SCT040 BKN070
     FM251400 17006KT P6SM SCT060 BKN090
     FM251800 32006KT P6SM FEW070 SCT100
     FM260300 15007KT P6SM FEW100 SCT200=



000
FTUS45 KSLC 251024 AAA
TAFOGD
TAF AMD
KOGD 251024Z 2510/2606 19005KT P6SM VCSH SCT040 BKN070
     FM251400 17006KT P6SM SCT060 BKN090
     FM251800 32006KT P6SM FEW070 SCT100
     FM260300 15007KT P6SM FEW100 SCT200=



000
FTUS45 KSLC 251024 AAA
TAFOGD
TAF AMD
KOGD 251024Z 2510/2606 19005KT P6SM VCSH SCT040 BKN070
     FM251400 17006KT P6SM SCT060 BKN090
     FM251800 32006KT P6SM FEW070 SCT100
     FM260300 15007KT P6SM FEW100 SCT200=



000
FTUS45 KSLC 251024 AAA
TAFOGD
TAF AMD
KOGD 251024Z 2510/2606 19005KT P6SM VCSH SCT040 BKN070
     FM251400 17006KT P6SM SCT060 BKN090
     FM251800 32006KT P6SM FEW070 SCT100
     FM260300 15007KT P6SM FEW100 SCT200=



000
FTUS45 KSLC 251024
TAFOGD
TAFOGD
TAF AMD
KOGD 251024Z 2510/2606 19005KT P6SM VCSH SCT040 BKN070
     FM251400 17006KT P6SM SCT060 BKN090
     FM251800 32006KT P6SM FEW070 SCT100
     FM260300 15007KT P6SM FEW100 SCT200=



000
FTUS45 KSLC 251021 AAA
TAFPVU
TAF AMD
KPVU 251021Z 2510/2606 VRB04KT P6SM VCSH SCT060 BKN090
      TEMPO 2510/2512 -RA BKN050 OVC070
     FM251900 25006KT P6SM FEW070 SCT100
     FM260200 14006KT P6SM FEW100 SCT150
      AMD LTD TO CLD VIS AND WIND=



000
FTUS45 KSLC 251021 AAA
TAFPVU
TAF AMD
KPVU 251021Z 2510/2606 VRB04KT P6SM VCSH SCT060 BKN090
      TEMPO 2510/2512 -RA BKN050 OVC070
     FM251900 25006KT P6SM FEW070 SCT100
     FM260200 14006KT P6SM FEW100 SCT150
      AMD LTD TO CLD VIS AND WIND=



000
FTUS45 KSLC 251021 AAA
TAFPVU
TAF AMD
KPVU 251021Z 2510/2606 VRB04KT P6SM VCSH SCT060 BKN090
      TEMPO 2510/2512 -RA BKN050 OVC070
     FM251900 25006KT P6SM FEW070 SCT100
     FM260200 14006KT P6SM FEW100 SCT150
      AMD LTD TO CLD VIS AND WIND=



000
FTUS45 KSLC 251021
TAFPVU
TAFPVU
TAF AMD
KPVU 251021Z 2510/2606 VRB04KT P6SM VCSH SCT060 BKN090
      TEMPO 2510/2512 -RA BKN050 OVC070
     FM251900 25006KT P6SM FEW070 SCT100
     FM260200 14006KT P6SM FEW100 SCT150
      AMD LTD TO CLD VIS AND WIND=



000
FTUS45 KSLC 251021 AAA
TAFPVU
TAF AMD
KPVU 251021Z 2510/2606 VRB04KT P6SM VCSH SCT060 BKN090
      TEMPO 2510/2512 -RA BKN050 OVC070
     FM251900 25006KT P6SM FEW070 SCT100
     FM260200 14006KT P6SM FEW100 SCT150
      AMD LTD TO CLD VIS AND WIND=



000
FTUS45 KSLC 251021
TAFPVU
TAFPVU
TAF AMD
KPVU 251021Z 2510/2606 VRB04KT P6SM VCSH SCT060 BKN090
      TEMPO 2510/2512 -RA BKN050 OVC070
     FM251900 25006KT P6SM FEW070 SCT100
     FM260200 14006KT P6SM FEW100 SCT150
      AMD LTD TO CLD VIS AND WIND=



000
FTUS45 KSLC 251019
TAFSLC
TAFSLC
TAF AMD
KSLC 251019Z 2510/2612 15006KT P6SM VCSH FEW035 BKN060
      TEMPO 2510/2512 32005KT 6SM SHRA BKN050
     FM251200 15006KT P6SM FEW060 BKN090
     FM251800 33007KT P6SM FEW070 SCT100
     FM260300 16009KT P6SM SCT100 SCT200=



000
FTUS45 KSLC 251019 AAB
TAFSLC
TAF AMD
KSLC 251019Z 2510/2612 15006KT P6SM VCSH FEW035 BKN060
      TEMPO 2510/2512 32005KT 6SM SHRA BKN050
     FM251200 15006KT P6SM FEW060 BKN090
     FM251800 33007KT P6SM FEW070 SCT100
     FM260300 16009KT P6SM SCT100 SCT200=



000
FTUS45 KSLC 251019 AAB
TAFSLC
TAF AMD
KSLC 251019Z 2510/2612 15006KT P6SM VCSH FEW035 BKN060
      TEMPO 2510/2512 32005KT 6SM SHRA BKN050
     FM251200 15006KT P6SM FEW060 BKN090
     FM251800 33007KT P6SM FEW070 SCT100
     FM260300 16009KT P6SM SCT100 SCT200=



000
FTUS45 KSLC 250858 AAA
TAFSLC
TAF AMD
KSLC 250858Z 2509/2612 15006KT P6SM VCSH FEW035 BKN060
     FM251200 15006KT P6SM FEW060 BKN090
     FM251800 33007KT P6SM FEW070 SCT100
     FM260300 16009KT P6SM SCT100 SCT200=



000
FTUS45 KSLC 250858 AAA
TAFSLC
TAF AMD
KSLC 250858Z 2509/2612 15006KT P6SM VCSH FEW035 BKN060
     FM251200 15006KT P6SM FEW060 BKN090
     FM251800 33007KT P6SM FEW070 SCT100
     FM260300 16009KT P6SM SCT100 SCT200=



000
FTUS45 KSLC 250858
TAFSLC
TAFSLC
TAF AMD
KSLC 250858Z 2509/2612 15006KT P6SM VCSH FEW035 BKN060
     FM251200 15006KT P6SM FEW060 BKN090
     FM251800 33007KT P6SM FEW070 SCT100
     FM260300 16009KT P6SM SCT100 SCT200=



000
FTUS45 KSLC 250534
TAFSLC
TAF
KSLC 250534Z 2506/2612 15006KT P6SM VCSH SCT050 BKN070 OVC090
     FM250700 15006KT P6SM FEW060 BKN090
     FM251800 33007KT P6SM FEW070 SCT100
     FM260300 16009KT P6SM SCT100 SCT200=



000
FTUS45 KSLC 250534
TAFPVU
TAFPVU
TAF
KPVU 250534Z 2506/2606 VRB04KT P6SM VCSH SCT060 BKN090
      TEMPO 2506/2508 -RA BKN050 OVC070
     FM251900 25006KT P6SM FEW070 SCT100
     FM260200 14006KT P6SM FEW100 SCT150
      AMD LTD TO CLD VIS AND WIND=



000
FTUS45 KSLC 250534
TAFENV
TAFENV
TAF
KENV 250534Z 2506/2606 32008KT P6SM SCT060 BKN100
     FM251700 11007KT P6SM SCT100
     FM252300 29007KT P6SM SCT080 BKN120
      AMD LTD TO CLD VIS AND WIND=



000
FTUS45 KSLC 250534
TAFOGD
TAFOGD
TAF
KOGD 250534Z 2506/2606 17006KT P6SM SCT060 BKN090
     FM251800 32006KT P6SM FEW070 SCT100
     FM260300 15007KT P6SM FEW100 SCT200=



000
FTUS45 KSLC 250534
TAFCDC
TAFCDC
TAF
KCDC 250534Z 2506/2606 21005KT P6SM VCSH SCT060 BKN070
     FM250800 VRB04KT P6SM SCT060 BKN090
     FM251800 24008KT P6SM SCT070 SCT100
     FM260300 17009KT P6SM SCT090=



000
FTUS45 KSLC 250534
TAFSGU
TAFSGU
TAF
KSGU 250534Z 2506/2606 25010KT P6SM VCSH SCT040 BKN080
     FM250800 VRB04KT P6SM FEW070 SCT100
     FM252000 23008G16KT P6SM SCT120
      AMD LTD TO CLD VIS AND WIND=



000
FTUS45 KSLC 250534
TAFLGU
TAFLGU
TAF
KLGU 250534Z 2506/2606 VRB04KT P6SM BKN050 OVC100
     FM251200 VRB04KT P6SM FEW050 SCT100
     FM251900 VRB04KT P6SM FEW070 SCT100
     FM260200 VRB04KT P6SM SCT100 SCT200=



000
FTUS45 KSLC 250534
TAFPVU
TAF
KPVU 250534Z 2506/2606 VRB04KT P6SM VCSH SCT060 BKN090
      TEMPO 2506/2508 -RA BKN050 OVC070
     FM251900 25006KT P6SM FEW070 SCT100
     FM260200 14006KT P6SM FEW100 SCT150
      AMD LTD TO CLD VIS AND WIND=



000
FTUS45 KSLC 250534
TAFOGD
TAF
KOGD 250534Z 2506/2606 17006KT P6SM SCT060 BKN090
     FM251800 32006KT P6SM FEW070 SCT100
     FM260300 15007KT P6SM FEW100 SCT200=



000
FTUS45 KSLC 250534
TAFCDC
TAF
KCDC 250534Z 2506/2606 21005KT P6SM VCSH SCT060 BKN070
     FM250800 VRB04KT P6SM SCT060 BKN090
     FM251800 24008KT P6SM SCT070 SCT100
     FM260300 17009KT P6SM SCT090=



000
FTUS45 KSLC 250534
TAFSGU
TAF
KSGU 250534Z 2506/2606 25010KT P6SM VCSH SCT040 BKN080
     FM250800 VRB04KT P6SM FEW070 SCT100
     FM252000 23008G16KT P6SM SCT120
      AMD LTD TO CLD VIS AND WIND=



000
FTUS45 KSLC 250534
TAFSLC
TAFSLC
TAF
KSLC 250534Z 2506/2612 15006KT P6SM VCSH SCT050 BKN070 OVC090
     FM250700 15006KT P6SM FEW060 BKN090
     FM251800 33007KT P6SM FEW070 SCT100
     FM260300 16009KT P6SM SCT100 SCT200=



000
FTUS45 KSLC 250534
TAFBCE
TAFBCE
TAF
KBCE 250534Z 2506/2606 28007KT P6SM SCT040 BKN080
     FM251800 29010KT P6SM SCT060 SCT090
     FM260300 28007KT P6SM SCT090=



000
FTUS45 KSLC 250534
TAFENV
TAF
KENV 250534Z 2506/2606 32008KT P6SM SCT060 BKN100
     FM251700 11007KT P6SM SCT100
     FM252300 29007KT P6SM SCT080 BKN120
      AMD LTD TO CLD VIS AND WIND=



000
FTUS45 KSLC 250534
TAFLGU
TAF
KLGU 250534Z 2506/2606 VRB04KT P6SM BKN050 OVC100
     FM251200 VRB04KT P6SM FEW050 SCT100
     FM251900 VRB04KT P6SM FEW070 SCT100
     FM260200 VRB04KT P6SM SCT100 SCT200=



000
FTUS45 KSLC 250534
TAFSLC
TAF
KSLC 250534Z 2506/2612 15006KT P6SM VCSH SCT050 BKN070 OVC090
     FM250700 15006KT P6SM FEW060 BKN090
     FM251800 33007KT P6SM FEW070 SCT100
     FM260300 16009KT P6SM SCT100 SCT200=



000
FTUS45 KSLC 250534
TAFBCE
TAF
KBCE 250534Z 2506/2606 28007KT P6SM SCT040 BKN080
     FM251800 29010KT P6SM SCT060 SCT090
     FM260300 28007KT P6SM SCT090=



000
FTUS45 KSLC 250534
TAFCDC
TAF
KCDC 250534Z 2506/2606 21005KT P6SM VCSH SCT060 BKN070
     FM250800 VRB04KT P6SM SCT060 BKN090
     FM251800 24008KT P6SM SCT070 SCT100
     FM260300 17009KT P6SM SCT090=



000
FTUS45 KSLC 250534
TAFBCE
TAF
KBCE 250534Z 2506/2606 28007KT P6SM SCT040 BKN080
     FM251800 29010KT P6SM SCT060 SCT090
     FM260300 28007KT P6SM SCT090=



000
FTUS45 KSLC 250534
TAFENV
TAF
KENV 250534Z 2506/2606 32008KT P6SM SCT060 BKN100
     FM251700 11007KT P6SM SCT100
     FM252300 29007KT P6SM SCT080 BKN120
      AMD LTD TO CLD VIS AND WIND=



000
FTUS45 KSLC 250534
TAFOGD
TAF
KOGD 250534Z 2506/2606 17006KT P6SM SCT060 BKN090
     FM251800 32006KT P6SM FEW070 SCT100
     FM260300 15007KT P6SM FEW100 SCT200=



000
FTUS45 KSLC 250534
TAFLGU
TAF
KLGU 250534Z 2506/2606 VRB04KT P6SM BKN050 OVC100
     FM251200 VRB04KT P6SM FEW050 SCT100
     FM251900 VRB04KT P6SM FEW070 SCT100
     FM260200 VRB04KT P6SM SCT100 SCT200=



000
FTUS45 KSLC 250534
TAFSGU
TAF
KSGU 250534Z 2506/2606 25010KT P6SM VCSH SCT040 BKN080
     FM250800 VRB04KT P6SM FEW070 SCT100
     FM252000 23008G16KT P6SM SCT120
      AMD LTD TO CLD VIS AND WIND=



000
FTUS45 KSLC 250534
TAFPVU
TAF
KPVU 250534Z 2506/2606 VRB04KT P6SM VCSH SCT060 BKN090
      TEMPO 2506/2508 -RA BKN050 OVC070
     FM251900 25006KT P6SM FEW070 SCT100
     FM260200 14006KT P6SM FEW100 SCT150
      AMD LTD TO CLD VIS AND WIND=



    US Dept of Commerce
    National Oceanic and Atmospheric Administration
    National Weather Service
    1325 East West Highway
    Silver Spring, MD 20910
    Page Author: NWS Internet Services Team
Disclaimer
Information Quality
Credits
Glossary
Privacy Policy
Freedom of Information Act (FOIA)
About Us
Career Opportunities